<?xml version="1.0" encoding="UTF-8" standalone="no" ?><gpx xmlns="http://www.topografix.com/GPX/1/1" xmlns:gpxx="http://www.garmin.com/xmlschemas/GpxExtensions/v3" xmlns:wptx1="http://www.garmin.com/xmlschemas/WaypointExtension/v1" xmlns:gpxtpx="http://www.garmin.com/xmlschemas/TrackPointExtension/v1" creator="GuideVTT.com" version="1.1" xmlns:xsi="http://www.w3.org/2001/XMLSchema-instance" xsi:schemaLocation="http://www.topografix.com/GPX/1/1 http://www.topografix.com/GPX/1/1/gpx.xsd http://www.garmin.com/xmlschemas/GpxExtensions/v3 http://www8.garmin.com/xmlschemas/GpxExtensionsv3.xsd http://www.garmin.com/xmlschemas/WaypointExtension/v1 http://www8.garmin.com/xmlschemas/WaypointExtensionv1.xsd http://www.garmin.com/xmlschemas/TrackPointExtension/v1 http://www.garmin.com/xmlschemas/TrackPointExtensionv1.xsd">
<metadata><link href="http://www.garmin.com"><text>Garmin International</text></link><time>2013-06-22T15:13:50Z</time></metadata>
<trk><name>06_11_ne_sujet.gpx</name><extensions><gpxx:TrackExtension><gpxx:DisplayColor>Cyan</gpxx:DisplayColor></gpxx:TrackExtension></extensions><trkseg>
<trkpt lat="46.98970000" lon="6.92798900"><ele>442.87442</ele><time>2006-06-11T10:08:05Z</time></trkpt>
<trkpt lat="46.98964700" lon="6.92797000"><ele>441.959991</ele><time>2006-06-11T10:08:06Z</time></trkpt>
<trkpt lat="46.98954400" lon="6.92799500"><ele>441.959991</ele><time>2006-06-11T10:08:10Z</time></trkpt>
<trkpt lat="46.98951700" lon="6.92803500"><ele>441.959991</ele><time>2006-06-11T10:08:11Z</time></trkpt>
<trkpt lat="46.98945200" lon="6.92827300"><ele>442.87442</ele><time>2006-06-11T10:08:15Z</time></trkpt>
<trkpt lat="46.98943300" lon="6.92863900"><ele>442.87442</ele><time>2006-06-11T10:08:21Z</time></trkpt>
<trkpt lat="46.98944900" lon="6.92902500"><ele>442.87442</ele><time>2006-06-11T10:08:26Z</time></trkpt>
<trkpt lat="46.98946400" lon="6.92942800"><ele>442.87442</ele><time>2006-06-11T10:08:32Z</time></trkpt>
<trkpt lat="46.98947500" lon="6.92963400"><ele>442.87442</ele><time>2006-06-11T10:08:36Z</time></trkpt>
<trkpt lat="46.98949100" lon="6.92970700"><ele>442.87442</ele><time>2006-06-11T10:08:36Z</time></trkpt>
<trkpt lat="46.98957400" lon="6.92998100"><ele>442.87442</ele><time>2006-06-11T10:08:41Z</time></trkpt>
<trkpt lat="46.98963900" lon="6.93011400"><ele>442.87442</ele><time>2006-06-11T10:08:43Z</time></trkpt>
<trkpt lat="46.98991400" lon="6.93073300"><ele>442.87442</ele><time>2006-06-11T10:08:51Z</time></trkpt>
<trkpt lat="46.99033700" lon="6.93131400"><ele>441.045593</ele><time>2006-06-11T10:09:02Z</time></trkpt>
<trkpt lat="46.99074900" lon="6.93166300"><ele>440.131195</ele><time>2006-06-11T10:09:10Z</time></trkpt>
<trkpt lat="46.99099300" lon="6.93185400"><ele>438.912018</ele><time>2006-06-11T10:09:15Z</time></trkpt>
<trkpt lat="46.99103900" lon="6.93190900"><ele>438.912018</ele><time>2006-06-11T10:09:16Z</time></trkpt>
<trkpt lat="46.99129500" lon="6.93243900"><ele>437.99762</ele><time>2006-06-11T10:09:25Z</time></trkpt>
<trkpt lat="46.99163400" lon="6.93314500"><ele>437.083191</ele><time>2006-06-11T10:09:35Z</time></trkpt>
<trkpt lat="46.99199700" lon="6.93393700"><ele>437.99762</ele><time>2006-06-11T10:09:47Z</time></trkpt>
<trkpt lat="46.99202700" lon="6.93399900"><ele>437.99762</ele><time>2006-06-11T10:09:48Z</time></trkpt>
<trkpt lat="46.99213800" lon="6.93416500"><ele>437.99762</ele><time>2006-06-11T10:09:52Z</time></trkpt>
<trkpt lat="46.99256900" lon="6.93510100"><ele>437.083191</ele><time>2006-06-11T10:10:05Z</time></trkpt>
<trkpt lat="46.99302300" lon="6.93613800"><ele>435.864014</ele><time>2006-06-11T10:10:20Z</time></trkpt>
<trkpt lat="46.99317600" lon="6.93657400"><ele>434.949615</ele><time>2006-06-11T10:10:26Z</time></trkpt>
<trkpt lat="46.99329800" lon="6.93674400"><ele>435.864014</ele><time>2006-06-11T10:10:30Z</time></trkpt>
<trkpt lat="46.99362600" lon="6.93744800"><ele>435.864014</ele><time>2006-06-11T10:10:41Z</time></trkpt>
<trkpt lat="46.99407600" lon="6.93848900"><ele>435.864014</ele><time>2006-06-11T10:10:56Z</time></trkpt>
<trkpt lat="46.99428900" lon="6.93906300"><ele>437.99762</ele><time>2006-06-11T10:11:07Z</time></trkpt>
<trkpt lat="46.99435800" lon="6.93925800"><ele>437.99762</ele><time>2006-06-11T10:11:11Z</time></trkpt>
<trkpt lat="46.99442700" lon="6.93945400"><ele>437.99762</ele><time>2006-06-11T10:11:19Z</time></trkpt>
<trkpt lat="46.99467500" lon="6.93993800"><ele>438.912018</ele><time>2006-06-11T10:11:28Z</time></trkpt>
<trkpt lat="46.99506000" lon="6.94037400"><ele>437.99762</ele><time>2006-06-11T10:11:40Z</time></trkpt>
<trkpt lat="46.99539900" lon="6.94074800"><ele>440.131195</ele><time>2006-06-11T10:11:49Z</time></trkpt>
<trkpt lat="46.99565900" lon="6.94134500"><ele>440.131195</ele><time>2006-06-11T10:12:01Z</time></trkpt>
<trkpt lat="46.99582700" lon="6.94229200"><ele>438.912018</ele><time>2006-06-11T10:12:19Z</time></trkpt>
<trkpt lat="46.99601700" lon="6.94306100"><ele>437.99762</ele><time>2006-06-11T10:12:31Z</time></trkpt>
<trkpt lat="46.99633000" lon="6.94356100"><ele>437.99762</ele><time>2006-06-11T10:12:42Z</time></trkpt>
<trkpt lat="46.99667000" lon="6.94402600"><ele>440.131195</ele><time>2006-06-11T10:12:51Z</time></trkpt>
<trkpt lat="46.99682600" lon="6.94425500"><ele>440.131195</ele><time>2006-06-11T10:12:58Z</time></trkpt>
<trkpt lat="46.99692900" lon="6.94440300"><ele>440.131195</ele><time>2006-06-11T10:13:03Z</time></trkpt>
<trkpt lat="46.99725300" lon="6.94518400"><ele>441.045593</ele><time>2006-06-11T10:13:16Z</time></trkpt>
<trkpt lat="46.99737900" lon="6.94574600"><ele>441.959991</ele><time>2006-06-11T10:13:24Z</time></trkpt>
<trkpt lat="46.99740600" lon="6.94605300"><ele>441.045593</ele><time>2006-06-11T10:13:29Z</time></trkpt>
<trkpt lat="46.99737200" lon="6.94666300"><ele>438.912018</ele><time>2006-06-11T10:13:36Z</time></trkpt>
<trkpt lat="46.99729500" lon="6.94730400"><ele>438.912018</ele><time>2006-06-11T10:13:47Z</time></trkpt>
<trkpt lat="46.99728800" lon="6.94742700"><ele>437.99762</ele><time>2006-06-11T10:13:48Z</time></trkpt>
<trkpt lat="46.99728800" lon="6.94767300"><ele>437.99762</ele><time>2006-06-11T10:13:53Z</time></trkpt>
<trkpt lat="46.99727600" lon="6.94785500"><ele>438.912018</ele><time>2006-06-11T10:13:55Z</time></trkpt>
<trkpt lat="46.99728400" lon="6.94851200"><ele>438.912018</ele><time>2006-06-11T10:14:07Z</time></trkpt>
<trkpt lat="46.99729900" lon="6.94863500"><ele>440.131195</ele><time>2006-06-11T10:14:08Z</time></trkpt>
<trkpt lat="46.99733000" lon="6.94961600"><ele>442.87442</ele><time>2006-06-11T10:14:24Z</time></trkpt>
<trkpt lat="46.99737500" lon="6.95055000"><ele>444.093597</ele><time>2006-06-11T10:14:38Z</time></trkpt>
<trkpt lat="46.99738300" lon="6.95076400"><ele>445.007996</ele><time>2006-06-11T10:14:40Z</time></trkpt>
<trkpt lat="46.99754300" lon="6.95163700"><ele>445.922394</ele><time>2006-06-11T10:14:52Z</time></trkpt>
<trkpt lat="46.99777200" lon="6.95239800"><ele>445.922394</ele><time>2006-06-11T10:15:04Z</time></trkpt>
<trkpt lat="46.99793600" lon="6.95287900"><ele>445.922394</ele><time>2006-06-11T10:15:12Z</time></trkpt>
<trkpt lat="46.99828300" lon="6.95358300"><ele>447.141602</ele><time>2006-06-11T10:15:24Z</time></trkpt>
<trkpt lat="46.99864200" lon="6.95434400"><ele>447.141602</ele><time>2006-06-11T10:15:36Z</time></trkpt>
<trkpt lat="46.99897400" lon="6.95507000"><ele>448.970398</ele><time>2006-06-11T10:15:48Z</time></trkpt>
<trkpt lat="46.99934400" lon="6.95558000"><ele>448.970398</ele><time>2006-06-11T10:15:59Z</time></trkpt>
<trkpt lat="46.99977100" lon="6.95600700"><ele>449.884796</ele><time>2006-06-11T10:16:09Z</time></trkpt>
<trkpt lat="47.00014500" lon="6.95621000"><ele>449.884796</ele><time>2006-06-11T10:16:19Z</time></trkpt>
<trkpt lat="47.00065600" lon="6.95638900"><ele>448.056</ele><time>2006-06-11T10:16:29Z</time></trkpt>
<trkpt lat="47.00127800" lon="6.95658600"><ele>447.141602</ele><time>2006-06-11T10:16:43Z</time></trkpt>
<trkpt lat="47.00187700" lon="6.95677500"><ele>448.056</ele><time>2006-06-11T10:16:56Z</time></trkpt>
<trkpt lat="47.00233500" lon="6.95692500"><ele>445.922394</ele><time>2006-06-11T10:17:05Z</time></trkpt>
<trkpt lat="47.00254400" lon="6.95704500"><ele>445.922394</ele><time>2006-06-11T10:17:09Z</time></trkpt>
<trkpt lat="47.00265100" lon="6.95712800"><ele>445.007996</ele><time>2006-06-11T10:17:11Z</time></trkpt>
<trkpt lat="47.00304400" lon="6.95763900"><ele>445.007996</ele><time>2006-06-11T10:17:19Z</time></trkpt>
<trkpt lat="47.00342200" lon="6.95853000"><ele>445.922394</ele><time>2006-06-11T10:17:31Z</time></trkpt>
<trkpt lat="47.00378000" lon="6.95937500"><ele>444.093597</ele><time>2006-06-11T10:17:43Z</time></trkpt>
<trkpt lat="47.00428800" lon="6.96051600"><ele>441.959991</ele><time>2006-06-11T10:17:57Z</time></trkpt>
<trkpt lat="47.00470400" lon="6.96150000"><ele>441.045593</ele><time>2006-06-11T10:18:10Z</time></trkpt>
<trkpt lat="47.00496300" lon="6.96198400"><ele>441.045593</ele><time>2006-06-11T10:18:19Z</time></trkpt>
<trkpt lat="47.00506600" lon="6.96220800"><ele>441.045593</ele><time>2006-06-11T10:18:23Z</time></trkpt>
<trkpt lat="47.00510000" lon="6.96225400"><ele>441.045593</ele><time>2006-06-11T10:18:25Z</time></trkpt>
<trkpt lat="47.00518000" lon="6.96231200"><ele>441.045593</ele><time>2006-06-11T10:18:27Z</time></trkpt>
<trkpt lat="47.00543600" lon="6.96234900"><ele>442.87442</ele><time>2006-06-11T10:18:33Z</time></trkpt>
<trkpt lat="47.00556600" lon="6.96240900"><ele>444.093597</ele><time>2006-06-11T10:18:36Z</time></trkpt>
<trkpt lat="47.00573000" lon="6.96254800"><ele>447.141602</ele><time>2006-06-11T10:18:42Z</time></trkpt>
<trkpt lat="47.00594300" lon="6.96286800"><ele>447.141602</ele><time>2006-06-11T10:18:52Z</time></trkpt>
<trkpt lat="47.00632500" lon="6.96340900"><ele>445.922394</ele><time>2006-06-11T10:19:05Z</time></trkpt>
<trkpt lat="47.00658000" lon="6.96379200"><ele>445.922394</ele><time>2006-06-11T10:19:16Z</time></trkpt>
<trkpt lat="47.00683600" lon="6.96417500"><ele>448.970398</ele><time>2006-06-11T10:19:26Z</time></trkpt>
<trkpt lat="47.00712200" lon="6.96447900"><ele>454.152008</ele><time>2006-06-11T10:19:39Z</time></trkpt>
<trkpt lat="47.00737800" lon="6.96479000"><ele>455.066406</ele><time>2006-06-11T10:19:50Z</time></trkpt>
<trkpt lat="47.00745800" lon="6.96491100"><ele>456.895203</ele><time>2006-06-11T10:19:54Z</time></trkpt>
<trkpt lat="47.00771300" lon="6.96544200"><ele>459.028809</ele><time>2006-06-11T10:20:04Z</time></trkpt>
<trkpt lat="47.00806000" lon="6.96617300"><ele>459.943207</ele><time>2006-06-11T10:20:19Z</time></trkpt>
<trkpt lat="47.00826600" lon="6.96680100"><ele>459.028809</ele><time>2006-06-11T10:20:28Z</time></trkpt>
<trkpt lat="47.00849200" lon="6.96751100"><ele>455.980804</ele><time>2006-06-11T10:20:39Z</time></trkpt>
<trkpt lat="47.00864000" lon="6.96798200"><ele>455.066406</ele><time>2006-06-11T10:20:45Z</time></trkpt>
<trkpt lat="47.00895700" lon="6.96888800"><ele>455.066406</ele><time>2006-06-11T10:20:57Z</time></trkpt>
<trkpt lat="47.00928500" lon="6.96966800"><ele>455.980804</ele><time>2006-06-11T10:21:08Z</time></trkpt>
<trkpt lat="47.00956300" lon="6.97034000"><ele>455.980804</ele><time>2006-06-11T10:21:19Z</time></trkpt>
<trkpt lat="47.00973500" lon="6.97074100"><ele>456.895203</ele><time>2006-06-11T10:21:26Z</time></trkpt>
<trkpt lat="47.01001000" lon="6.97146300"><ele>455.066406</ele><time>2006-06-11T10:21:38Z</time></trkpt>
<trkpt lat="47.01033000" lon="6.97233100"><ele>454.152008</ele><time>2006-06-11T10:21:50Z</time></trkpt>
<trkpt lat="47.01062000" lon="6.97289800"><ele>452.018402</ele><time>2006-06-11T10:21:58Z</time></trkpt>
<trkpt lat="47.01096000" lon="6.97341100"><ele>449.884796</ele><time>2006-06-11T10:22:07Z</time></trkpt>
<trkpt lat="47.01128800" lon="6.97391400"><ele>451.104004</ele><time>2006-06-11T10:22:16Z</time></trkpt>
<trkpt lat="47.01148200" lon="6.97421000"><ele>452.9328</ele><time>2006-06-11T10:22:23Z</time></trkpt>
<trkpt lat="47.01161600" lon="6.97440400"><ele>455.066406</ele><time>2006-06-11T10:22:30Z</time></trkpt>
<trkpt lat="47.01172300" lon="6.97456500"><ele>456.895203</ele><time>2006-06-11T10:22:36Z</time></trkpt>
<trkpt lat="47.01189800" lon="6.97485100"><ele>459.943207</ele><time>2006-06-11T10:22:47Z</time></trkpt>
<trkpt lat="47.01213100" lon="6.97529100"><ele>462.076813</ele><time>2006-06-11T10:23:00Z</time></trkpt>
<trkpt lat="47.01228000" lon="6.97567000"><ele>462.076813</ele><time>2006-06-11T10:23:11Z</time></trkpt>
<trkpt lat="47.01246300" lon="6.97622400"><ele>462.076813</ele><time>2006-06-11T10:23:23Z</time></trkpt>
<trkpt lat="47.01270300" lon="6.97678200"><ele>463.905609</ele><time>2006-06-11T10:23:34Z</time></trkpt>
<trkpt lat="47.01290500" lon="6.97740900"><ele>463.905609</ele><time>2006-06-11T10:23:46Z</time></trkpt>
<trkpt lat="47.01297800" lon="6.97754000"><ele>463.905609</ele><time>2006-06-11T10:23:50Z</time></trkpt>
<trkpt lat="47.01303500" lon="6.97766100"><ele>462.991211</ele><time>2006-06-11T10:23:51Z</time></trkpt>
<trkpt lat="47.01315300" lon="6.97811400"><ele>459.028809</ele><time>2006-06-11T10:23:57Z</time></trkpt>
<trkpt lat="47.01341600" lon="6.97889600"><ele>459.028809</ele><time>2006-06-11T10:24:04Z</time></trkpt>
<trkpt lat="47.01368000" lon="6.97967900"><ele>452.9328</ele><time>2006-06-11T10:24:11Z</time></trkpt>
<trkpt lat="47.01376300" lon="6.98014500"><ele>455.066406</ele><time>2006-06-11T10:24:17Z</time></trkpt>
<trkpt lat="47.01388500" lon="6.98088500"><ele>455.980804</ele><time>2006-06-11T10:24:28Z</time></trkpt>
<trkpt lat="47.01403000" lon="6.98167100"><ele>455.980804</ele><time>2006-06-11T10:24:41Z</time></trkpt>
<trkpt lat="47.01410300" lon="6.98224000"><ele>456.895203</ele><time>2006-06-11T10:24:49Z</time></trkpt>
<trkpt lat="47.01432000" lon="6.98287500"><ele>459.028809</ele><time>2006-06-11T10:25:01Z</time></trkpt>
<trkpt lat="47.01451900" lon="6.98336300"><ele>459.943207</ele><time>2006-06-11T10:25:13Z</time></trkpt>
<trkpt lat="47.01478200" lon="6.98392200"><ele>459.943207</ele><time>2006-06-11T10:25:26Z</time></trkpt>
<trkpt lat="47.01502200" lon="6.98445100"><ele>460.857605</ele><time>2006-06-11T10:25:37Z</time></trkpt>
<trkpt lat="47.01541500" lon="6.98484300"><ele>463.905609</ele><time>2006-06-11T10:25:50Z</time></trkpt>
<trkpt lat="47.01562900" lon="6.98516700"><ele>466.953613</ele><time>2006-06-11T10:26:00Z</time></trkpt>
<trkpt lat="47.01589200" lon="6.98563200"><ele>470.916016</ele><time>2006-06-11T10:26:15Z</time></trkpt>
<trkpt lat="47.01591100" lon="6.98566800"><ele>470.916016</ele><time>2006-06-11T10:26:16Z</time></trkpt>
<trkpt lat="47.01609800" lon="6.98611100"><ele>473.96402</ele><time>2006-06-11T10:26:29Z</time></trkpt>
<trkpt lat="47.01622400" lon="6.98648500"><ele>476.097595</ele><time>2006-06-11T10:26:40Z</time></trkpt>
<trkpt lat="47.01630800" lon="6.98697800"><ele>477.011993</ele><time>2006-06-11T10:26:51Z</time></trkpt>
<trkpt lat="47.01643400" lon="6.98755400"><ele>476.097595</ele><time>2006-06-11T10:27:03Z</time></trkpt>
<trkpt lat="47.01656000" lon="6.98797300"><ele>474.878418</ele><time>2006-06-11T10:27:12Z</time></trkpt>
<trkpt lat="47.01660900" lon="6.98853200"><ele>474.878418</ele><time>2006-06-11T10:27:21Z</time></trkpt>
<trkpt lat="47.01664000" lon="6.98865300"><ele>474.878418</ele><time>2006-06-11T10:27:22Z</time></trkpt>
<trkpt lat="47.01668900" lon="6.98875900"><ele>474.878418</ele><time>2006-06-11T10:27:25Z</time></trkpt>
<trkpt lat="47.01675800" lon="6.98884100"><ele>474.878418</ele><time>2006-06-11T10:27:27Z</time></trkpt>
<trkpt lat="47.01707500" lon="6.98894200"><ele>477.011993</ele><time>2006-06-11T10:27:34Z</time></trkpt>
<trkpt lat="47.01739100" lon="6.98896600"><ele>477.926392</ele><time>2006-06-11T10:27:45Z</time></trkpt>
<trkpt lat="47.01772700" lon="6.98899700"><ele>481.888794</ele><time>2006-06-11T10:27:57Z</time></trkpt>
<trkpt lat="47.01793700" lon="6.98906900"><ele>484.0224</ele><time>2006-06-11T10:28:05Z</time></trkpt>
<trkpt lat="47.01819600" lon="6.98918700"><ele>487.070404</ele><time>2006-06-11T10:28:17Z</time></trkpt>
<trkpt lat="47.01853200" lon="6.98934300"><ele>491.947205</ele><time>2006-06-11T10:28:32Z</time></trkpt>
<trkpt lat="47.01880300" lon="6.98947700"><ele>495.909607</ele><time>2006-06-11T10:28:47Z</time></trkpt>
<trkpt lat="47.01904700" lon="6.98960600"><ele>498.957611</ele><time>2006-06-11T10:29:00Z</time></trkpt>
<trkpt lat="47.01926000" lon="6.98970100"><ele>501.091217</ele><time>2006-06-11T10:29:10Z</time></trkpt>
<trkpt lat="47.01954700" lon="6.98984000"><ele>502.920013</ele><time>2006-06-11T10:29:24Z</time></trkpt>
<trkpt lat="47.01981400" lon="6.99002600"><ele>505.053619</ele><time>2006-06-11T10:29:38Z</time></trkpt>
<trkpt lat="47.02005000" lon="6.99026600"><ele>506.882416</ele><time>2006-06-11T10:29:49Z</time></trkpt>
<trkpt lat="47.02029400" lon="6.99052700"><ele>506.882416</ele><time>2006-06-11T10:30:01Z</time></trkpt>
<trkpt lat="47.02059200" lon="6.99082200"><ele>509.015991</ele><time>2006-06-11T10:30:16Z</time></trkpt>
<trkpt lat="47.02092700" lon="6.99101300"><ele>511.149597</ele><time>2006-06-11T10:30:30Z</time></trkpt>
<trkpt lat="47.02131300" lon="6.99109700"><ele>513.892822</ele><time>2006-06-11T10:30:44Z</time></trkpt>
<trkpt lat="47.02160300" lon="6.99122800"><ele>513.892822</ele><time>2006-06-11T10:30:54Z</time></trkpt>
<trkpt lat="47.02202200" lon="6.99143600"><ele>515.112</ele><time>2006-06-11T10:31:08Z</time></trkpt>
<trkpt lat="47.02223800" lon="6.99155400"><ele>515.112</ele><time>2006-06-11T10:31:17Z</time></trkpt>
<trkpt lat="47.02245300" lon="6.99167100"><ele>512.978394</ele><time>2006-06-11T10:31:21Z</time></trkpt>
<trkpt lat="47.02296400" lon="6.99189900"><ele>513.892822</ele><time>2006-06-11T10:31:34Z</time></trkpt>
<trkpt lat="47.02341100" lon="6.99200300"><ele>516.026428</ele><time>2006-06-11T10:31:46Z</time></trkpt>
<trkpt lat="47.02388000" lon="6.99206900"><ele>519.074402</ele><time>2006-06-11T10:32:00Z</time></trkpt>
<trkpt lat="47.02426900" lon="6.99212200"><ele>522.122437</ele><time>2006-06-11T10:32:12Z</time></trkpt>
<trkpt lat="47.02461600" lon="6.99216600"><ele>522.122437</ele><time>2006-06-11T10:32:23Z</time></trkpt>
<trkpt lat="47.02489500" lon="6.99220200"><ele>523.036804</ele><time>2006-06-11T10:32:32Z</time></trkpt>
<trkpt lat="47.02512400" lon="6.99218400"><ele>524.865601</ele><time>2006-06-11T10:32:40Z</time></trkpt>
<trkpt lat="47.02546700" lon="6.99220400"><ele>526.999207</ele><time>2006-06-11T10:32:53Z</time></trkpt>
<trkpt lat="47.02568800" lon="6.99233400"><ele>527.913635</ele><time>2006-06-11T10:33:04Z</time></trkpt>
<trkpt lat="47.02592100" lon="6.99253900"><ele>533.095215</ele><time>2006-06-11T10:33:17Z</time></trkpt>
<trkpt lat="47.02610800" lon="6.99269000"><ele>534.009583</ele><time>2006-06-11T10:33:27Z</time></trkpt>
<trkpt lat="47.02633700" lon="6.99287800"><ele>538.886414</ele><time>2006-06-11T10:33:40Z</time></trkpt>
<trkpt lat="47.02660000" lon="6.99306000"><ele>542.848816</ele><time>2006-06-11T10:33:54Z</time></trkpt>
<trkpt lat="47.02681700" lon="6.99317000"><ele>544.067993</ele><time>2006-06-11T10:34:06Z</time></trkpt>
<trkpt lat="47.02705800" lon="6.99326000"><ele>544.067993</ele><time>2006-06-11T10:34:19Z</time></trkpt>
<trkpt lat="47.02723700" lon="6.99330200"><ele>547.116028</ele><time>2006-06-11T10:34:27Z</time></trkpt>
<trkpt lat="47.02749300" lon="6.99334100"><ele>549.859192</ele><time>2006-06-11T10:34:40Z</time></trkpt>
<trkpt lat="47.02769100" lon="6.99335300"><ele>552.907227</ele><time>2006-06-11T10:34:51Z</time></trkpt>
<trkpt lat="47.02793500" lon="6.99333000"><ele>555.040833</ele><time>2006-06-11T10:35:03Z</time></trkpt>
<trkpt lat="47.02815600" lon="6.99329400"><ele>555.9552</ele><time>2006-06-11T10:35:13Z</time></trkpt>
<trkpt lat="47.02837800" lon="6.99324900"><ele>559.003235</ele><time>2006-06-11T10:35:25Z</time></trkpt>
<trkpt lat="47.02873600" lon="6.99318600"><ele>562.051208</ele><time>2006-06-11T10:35:43Z</time></trkpt>
<trkpt lat="47.02911800" lon="6.99313600"><ele>562.051208</ele><time>2006-06-11T10:36:02Z</time></trkpt>
<trkpt lat="47.02949900" lon="6.99308700"><ele>565.099182</ele><time>2006-06-11T10:36:16Z</time></trkpt>
<trkpt lat="47.02977000" lon="6.99306800"><ele>565.099182</ele><time>2006-06-11T10:36:27Z</time></trkpt>
<trkpt lat="47.03006700" lon="6.99303600"><ele>568.147217</ele><time>2006-06-11T10:36:39Z</time></trkpt>
<trkpt lat="47.03040700" lon="6.99301100"><ele>570.890381</ele><time>2006-06-11T10:36:53Z</time></trkpt>
<trkpt lat="47.03069300" lon="6.99301100"><ele>574.852783</ele><time>2006-06-11T10:37:05Z</time></trkpt>
<trkpt lat="47.03094900" lon="6.99302500"><ele>577.900818</ele><time>2006-06-11T10:37:18Z</time></trkpt>
<trkpt lat="47.03124200" lon="6.99310300"><ele>580.034424</ele><time>2006-06-11T10:37:31Z</time></trkpt>
<trkpt lat="47.03157800" lon="6.99322300"><ele>580.948792</ele><time>2006-06-11T10:37:47Z</time></trkpt>
<trkpt lat="47.03201700" lon="6.99333900"><ele>583.082397</ele><time>2006-06-11T10:38:04Z</time></trkpt>
<trkpt lat="47.03233700" lon="6.99341500"><ele>584.911194</ele><time>2006-06-11T10:38:16Z</time></trkpt>
<trkpt lat="47.03260800" lon="6.99347700"><ele>586.130432</ele><time>2006-06-11T10:38:28Z</time></trkpt>
<trkpt lat="47.03282200" lon="6.99352900"><ele>587.959229</ele><time>2006-06-11T10:38:39Z</time></trkpt>
<trkpt lat="47.03312700" lon="6.99358800"><ele>594.055237</ele><time>2006-06-11T10:38:53Z</time></trkpt>
<trkpt lat="47.03336000" lon="6.99365300"><ele>597.10321</ele><time>2006-06-11T10:39:04Z</time></trkpt>
<trkpt lat="47.03361900" lon="6.99375800"><ele>595.884033</ele><time>2006-06-11T10:39:14Z</time></trkpt>
<trkpt lat="47.03407300" lon="6.99396600"><ele>594.969604</ele><time>2006-06-11T10:39:32Z</time></trkpt>
<trkpt lat="47.03460700" lon="6.99420400"><ele>597.10321</ele><time>2006-06-11T10:39:50Z</time></trkpt>
<trkpt lat="47.03497700" lon="6.99436400"><ele>597.10321</ele><time>2006-06-11T10:40:01Z</time></trkpt>
<trkpt lat="47.03538500" lon="6.99454900"><ele>598.932007</ele><time>2006-06-11T10:40:14Z</time></trkpt>
<trkpt lat="47.03580900" lon="6.99474300"><ele>601.065613</ele><time>2006-06-11T10:40:28Z</time></trkpt>
<trkpt lat="47.03614000" lon="6.99492200"><ele>602.894409</ele><time>2006-06-11T10:40:40Z</time></trkpt>
<trkpt lat="47.03646100" lon="6.99513400"><ele>605.028015</ele><time>2006-06-11T10:40:52Z</time></trkpt>
<trkpt lat="47.03683100" lon="6.99543600"><ele>605.028015</ele><time>2006-06-11T10:41:05Z</time></trkpt>
<trkpt lat="47.03712500" lon="6.99572800"><ele>605.942383</ele><time>2006-06-11T10:41:14Z</time></trkpt>
<trkpt lat="47.03746400" lon="6.99606400"><ele>605.942383</ele><time>2006-06-11T10:41:25Z</time></trkpt>
<trkpt lat="47.03773100" lon="6.99629200"><ele>606.856812</ele><time>2006-06-11T10:41:32Z</time></trkpt>
<trkpt lat="47.03811300" lon="6.99667700"><ele>606.856812</ele><time>2006-06-11T10:41:43Z</time></trkpt>
<trkpt lat="47.03841800" lon="6.99698400"><ele>608.075989</ele><time>2006-06-11T10:41:53Z</time></trkpt>
<trkpt lat="47.03862000" lon="6.99718800"><ele>608.075989</ele><time>2006-06-11T10:42:03Z</time></trkpt>
<trkpt lat="47.03887900" lon="6.99744400"><ele>612.038391</ele><time>2006-06-11T10:42:16Z</time></trkpt>
<trkpt lat="47.03900900" lon="6.99757300"><ele>612.95282</ele><time>2006-06-11T10:42:23Z</time></trkpt>
<trkpt lat="47.03917700" lon="6.99774500"><ele>612.95282</ele><time>2006-06-11T10:42:33Z</time></trkpt>
<trkpt lat="47.03939800" lon="6.99799000"><ele>615.086426</ele><time>2006-06-11T10:42:44Z</time></trkpt>
<trkpt lat="47.03960000" lon="6.99823800"><ele>616.000793</ele><time>2006-06-11T10:42:55Z</time></trkpt>
<trkpt lat="47.03981800" lon="6.99850400"><ele>616.915222</ele><time>2006-06-11T10:43:07Z</time></trkpt>
<trkpt lat="47.04008100" lon="6.99884500"><ele>619.048828</ele><time>2006-06-11T10:43:21Z</time></trkpt>
<trkpt lat="47.04032100" lon="6.99918900"><ele>623.925598</ele><time>2006-06-11T10:43:34Z</time></trkpt>
<trkpt lat="47.04052400" lon="6.99966200"><ele>625.144836</ele><time>2006-06-11T10:43:47Z</time></trkpt>
<trkpt lat="47.04079800" lon="7.00017200"><ele>623.01123</ele><time>2006-06-11T10:43:59Z</time></trkpt>
<trkpt lat="47.04111500" lon="7.00074900"><ele>622.096802</ele><time>2006-06-11T10:44:11Z</time></trkpt>
<trkpt lat="47.04139300" lon="7.00127700"><ele>623.01123</ele><time>2006-06-11T10:44:22Z</time></trkpt>
<trkpt lat="47.04164900" lon="7.00175500"><ele>623.01123</ele><time>2006-06-11T10:44:31Z</time></trkpt>
<trkpt lat="47.04200400" lon="7.00235800"><ele>623.01123</ele><time>2006-06-11T10:44:44Z</time></trkpt>
<trkpt lat="47.04246900" lon="7.00297200"><ele>623.01123</ele><time>2006-06-11T10:44:59Z</time></trkpt>
<trkpt lat="47.04294600" lon="7.00346200"><ele>622.096802</ele><time>2006-06-11T10:45:10Z</time></trkpt>
<trkpt lat="47.04354900" lon="7.00389500"><ele>623.01123</ele><time>2006-06-11T10:45:25Z</time></trkpt>
<trkpt lat="47.04388800" lon="7.00415200"><ele>625.144836</ele><time>2006-06-11T10:45:34Z</time></trkpt>
<trkpt lat="47.04428100" lon="7.00458700"><ele>626.059204</ele><time>2006-06-11T10:45:47Z</time></trkpt>
<trkpt lat="47.04454000" lon="7.00497700"><ele>626.973633</ele><time>2006-06-11T10:45:59Z</time></trkpt>
<trkpt lat="47.04474600" lon="7.00536300"><ele>630.021606</ele><time>2006-06-11T10:46:11Z</time></trkpt>
<trkpt lat="47.04491800" lon="7.00570700"><ele>633.06958</ele><time>2006-06-11T10:46:22Z</time></trkpt>
<trkpt lat="47.04511300" lon="7.00611100"><ele>634.898438</ele><time>2006-06-11T10:46:33Z</time></trkpt>
<trkpt lat="47.04522700" lon="7.00645600"><ele>637.946411</ele><time>2006-06-11T10:46:44Z</time></trkpt>
<trkpt lat="47.04532600" lon="7.00680500"><ele>640.080017</ele><time>2006-06-11T10:46:57Z</time></trkpt>
<trkpt lat="47.04542200" lon="7.00712400"><ele>640.994385</ele><time>2006-06-11T10:47:09Z</time></trkpt>
<trkpt lat="47.04553600" lon="7.00745400"><ele>643.127991</ele><time>2006-06-11T10:47:21Z</time></trkpt>
<trkpt lat="47.04565800" lon="7.00778100"><ele>645.871216</ele><time>2006-06-11T10:47:33Z</time></trkpt>
<trkpt lat="47.04579200" lon="7.00812200"><ele>647.090393</ele><time>2006-06-11T10:47:45Z</time></trkpt>
<trkpt lat="47.04593700" lon="7.00848000"><ele>648.004822</ele><time>2006-06-11T10:47:57Z</time></trkpt>
<trkpt lat="47.04606600" lon="7.00885500"><ele>647.090393</ele><time>2006-06-11T10:48:08Z</time></trkpt>
<trkpt lat="47.04616900" lon="7.00921400"><ele>644.956787</ele><time>2006-06-11T10:48:19Z</time></trkpt>
<trkpt lat="47.04629500" lon="7.00964500"><ele>643.127991</ele><time>2006-06-11T10:48:32Z</time></trkpt>
<trkpt lat="47.04641700" lon="7.01008700"><ele>644.956787</ele><time>2006-06-11T10:48:43Z</time></trkpt>
<trkpt lat="47.04658900" lon="7.01060800"><ele>644.956787</ele><time>2006-06-11T10:48:52Z</time></trkpt>
<trkpt lat="47.04680600" lon="7.01139600"><ele>650.138428</ele><time>2006-06-11T10:49:07Z</time></trkpt>
<trkpt lat="47.04713800" lon="7.01242200"><ele>655.015198</ele><time>2006-06-11T10:49:27Z</time></trkpt>
<trkpt lat="47.04740500" lon="7.01306700"><ele>651.052795</ele><time>2006-06-11T10:49:37Z</time></trkpt>
<trkpt lat="47.04756900" lon="7.01339500"><ele>654.10083</ele><time>2006-06-11T10:49:42Z</time></trkpt>
<trkpt lat="47.04781700" lon="7.01392300"><ele>654.10083</ele><time>2006-06-11T10:49:50Z</time></trkpt>
<trkpt lat="47.04820300" lon="7.01460300"><ele>651.052795</ele><time>2006-06-11T10:50:01Z</time></trkpt>
<trkpt lat="47.04883600" lon="7.01544100"><ele>651.052795</ele><time>2006-06-11T10:50:17Z</time></trkpt>
<trkpt lat="47.04935500" lon="7.01620700"><ele>647.090393</ele><time>2006-06-11T10:50:31Z</time></trkpt>
<trkpt lat="47.04965200" lon="7.01673100"><ele>648.004822</ele><time>2006-06-11T10:50:40Z</time></trkpt>
<trkpt lat="47.05007600" lon="7.01755200"><ele>650.138428</ele><time>2006-06-11T10:50:55Z</time></trkpt>
<trkpt lat="47.05028900" lon="7.01810700"><ele>654.10083</ele><time>2006-06-11T10:51:03Z</time></trkpt>
<trkpt lat="47.05035000" lon="7.01907300"><ele>655.929626</ele><time>2006-06-11T10:51:15Z</time></trkpt>
<trkpt lat="47.05036900" lon="7.01956000"><ele>657.148804</ele><time>2006-06-11T10:51:21Z</time></trkpt>
<trkpt lat="47.05043800" lon="7.01969000"><ele>655.929626</ele><time>2006-06-11T10:51:23Z</time></trkpt>
<trkpt lat="47.05049500" lon="7.01980800"><ele>655.015198</ele><time>2006-06-11T10:51:24Z</time></trkpt>
<trkpt lat="47.05088400" lon="7.02037300"><ele>655.015198</ele><time>2006-06-11T10:51:36Z</time></trkpt>
<trkpt lat="47.05137600" lon="7.02114200"><ele>658.063232</ele><time>2006-06-11T10:51:52Z</time></trkpt>
<trkpt lat="47.05189100" lon="7.02193900"><ele>662.025635</ele><time>2006-06-11T10:52:08Z</time></trkpt>
<trkpt lat="47.05236400" lon="7.02257800"><ele>662.940002</ele><time>2006-06-11T10:52:25Z</time></trkpt>
<trkpt lat="47.05270800" lon="7.02289500"><ele>665.988037</ele><time>2006-06-11T10:52:37Z</time></trkpt>
<trkpt lat="47.05321900" lon="7.02339600"><ele>666.902405</ele><time>2006-06-11T10:52:56Z</time></trkpt>
<trkpt lat="47.05353500" lon="7.02376300"><ele>668.121582</ele><time>2006-06-11T10:53:10Z</time></trkpt>
<trkpt lat="47.05392500" lon="7.02410600"><ele>672.083984</ele><time>2006-06-11T10:53:24Z</time></trkpt>
<trkpt lat="47.05434400" lon="7.02452900"><ele>672.083984</ele><time>2006-06-11T10:53:41Z</time></trkpt>
<trkpt lat="47.05470300" lon="7.02501200"><ele>673.912781</ele><time>2006-06-11T10:53:55Z</time></trkpt>
<trkpt lat="47.05518000" lon="7.02570200"><ele>675.132019</ele><time>2006-06-11T10:54:14Z</time></trkpt>
<trkpt lat="47.05580500" lon="7.02642300"><ele>677.875183</ele><time>2006-06-11T10:54:36Z</time></trkpt>
<trkpt lat="47.05651100" lon="7.02704900"><ele>677.875183</ele><time>2006-06-11T10:54:58Z</time></trkpt>
<trkpt lat="47.05706400" lon="7.02738800"><ele>680.008789</ele><time>2006-06-11T10:55:14Z</time></trkpt>
<trkpt lat="47.05732000" lon="7.02734900"><ele>683.056824</ele><time>2006-06-11T10:55:24Z</time></trkpt>
<trkpt lat="47.05767300" lon="7.02711400"><ele>683.056824</ele><time>2006-06-11T10:55:38Z</time></trkpt>
<trkpt lat="47.05802500" lon="7.02687900"><ele>684.88562</ele><time>2006-06-11T10:55:52Z</time></trkpt>
<trkpt lat="47.05813200" lon="7.02686400"><ele>686.104797</ele><time>2006-06-11T10:55:56Z</time></trkpt>
<trkpt lat="47.05817000" lon="7.02697500"><ele>687.019226</ele><time>2006-06-11T10:56:00Z</time></trkpt>
<trkpt lat="47.05807900" lon="7.02724800"><ele>684.88562</ele><time>2006-06-11T10:56:06Z</time></trkpt>
<trkpt lat="47.05779600" lon="7.02773200"><ele>683.971191</ele><time>2006-06-11T10:56:16Z</time></trkpt>
<trkpt lat="47.05778900" lon="7.02814700"><ele>687.933594</ele><time>2006-06-11T10:56:23Z</time></trkpt>
<trkpt lat="47.05779600" lon="7.02820400"><ele>687.933594</ele><time>2006-06-11T10:56:24Z</time></trkpt>
<trkpt lat="47.05801000" lon="7.02839100"><ele>690.981628</ele><time>2006-06-11T10:56:32Z</time></trkpt>
<trkpt lat="47.05848300" lon="7.02848300"><ele>694.029602</ele><time>2006-06-11T10:56:47Z</time></trkpt>
<trkpt lat="47.05868500" lon="7.02871900"><ele>695.858398</ele><time>2006-06-11T10:56:57Z</time></trkpt>
<trkpt lat="47.05878800" lon="7.02896600"><ele>697.992004</ele><time>2006-06-11T10:57:06Z</time></trkpt>
<trkpt lat="47.05902900" lon="7.02944500"><ele>697.077637</ele><time>2006-06-11T10:57:25Z</time></trkpt>
<trkpt lat="47.05924200" lon="7.02964100"><ele>700.12561</ele><time>2006-06-11T10:57:36Z</time></trkpt>
<trkpt lat="47.05959700" lon="7.02999100"><ele>712.012817</ele><time>2006-06-11T10:57:54Z</time></trkpt>
<trkpt lat="47.05985600" lon="7.03039500"><ele>715.97522</ele><time>2006-06-11T10:58:10Z</time></trkpt>
<trkpt lat="47.06008900" lon="7.03064500"><ele>716.889587</ele><time>2006-06-11T10:58:22Z</time></trkpt>
<trkpt lat="47.06037500" lon="7.03101300"><ele>718.108826</ele><time>2006-06-11T10:58:39Z</time></trkpt>
<trkpt lat="47.06058500" lon="7.03130700"><ele>719.937622</ele><time>2006-06-11T10:58:50Z</time></trkpt>
<trkpt lat="47.06084400" lon="7.03159100"><ele>725.119202</ele><time>2006-06-11T10:59:02Z</time></trkpt>
<trkpt lat="47.06124500" lon="7.03196600"><ele>726.03363</ele><time>2006-06-11T10:59:19Z</time></trkpt>
<trkpt lat="47.06161900" lon="7.03232000"><ele>726.947998</ele><time>2006-06-11T10:59:34Z</time></trkpt>
<trkpt lat="47.06214500" lon="7.03291800"><ele>733.044006</ele><time>2006-06-11T10:59:55Z</time></trkpt>
<trkpt lat="47.06257600" lon="7.03356900"><ele>733.958435</ele><time>2006-06-11T11:00:10Z</time></trkpt>
<trkpt lat="47.06311800" lon="7.03427600"><ele>732.129639</ele><time>2006-06-11T11:00:29Z</time></trkpt>
<trkpt lat="47.06367100" lon="7.03476000"><ele>733.958435</ele><time>2006-06-11T11:00:47Z</time></trkpt>
<trkpt lat="47.06411400" lon="7.03511900"><ele>740.054382</ele><time>2006-06-11T11:01:02Z</time></trkpt>
<trkpt lat="47.06462100" lon="7.03559600"><ele>740.054382</ele><time>2006-06-11T11:01:20Z</time></trkpt>
<trkpt lat="47.06512800" lon="7.03607400"><ele>744.931213</ele><time>2006-06-11T11:01:39Z</time></trkpt>
<trkpt lat="47.06538800" lon="7.03658600"><ele>746.150391</ele><time>2006-06-11T11:01:51Z</time></trkpt>
<trkpt lat="47.06544500" lon="7.03704500"><ele>746.150391</ele><time>2006-06-11T11:01:58Z</time></trkpt>
<trkpt lat="47.06551400" lon="7.03786200"><ele>747.979187</ele><time>2006-06-11T11:02:12Z</time></trkpt>
<trkpt lat="47.06566200" lon="7.03837500"><ele>750.112793</ele><time>2006-06-11T11:02:23Z</time></trkpt>
<trkpt lat="47.06589100" lon="7.03876500"><ele>751.941589</ele><time>2006-06-11T11:02:31Z</time></trkpt>
<trkpt lat="47.06623800" lon="7.03929600"><ele>754.075195</ele><time>2006-06-11T11:02:43Z</time></trkpt>
<trkpt lat="47.06629600" lon="7.03938300"><ele>754.075195</ele><time>2006-06-11T11:02:45Z</time></trkpt>
<trkpt lat="47.06638300" lon="7.03965500"><ele>754.989624</ele><time>2006-06-11T11:02:50Z</time></trkpt>
<trkpt lat="47.06657400" lon="7.04058000"><ele>757.12323</ele><time>2006-06-11T11:03:07Z</time></trkpt>
<trkpt lat="47.06668900" lon="7.04090300"><ele>757.12323</ele><time>2006-06-11T11:03:13Z</time></trkpt>
<trkpt lat="47.06725300" lon="7.04181100"><ele>758.952026</ele><time>2006-06-11T11:03:32Z</time></trkpt>
<trkpt lat="47.06775700" lon="7.04265400"><ele>758.037598</ele><time>2006-06-11T11:03:50Z</time></trkpt>
<trkpt lat="47.06821800" lon="7.04315500"><ele>758.037598</ele><time>2006-06-11T11:04:03Z</time></trkpt>
<trkpt lat="47.06866100" lon="7.04357000"><ele>757.12323</ele><time>2006-06-11T11:04:16Z</time></trkpt>
<trkpt lat="47.06896200" lon="7.04398800"><ele>755.903992</ele><time>2006-06-11T11:04:26Z</time></trkpt>
<trkpt lat="47.06953000" lon="7.04483100"><ele>762</ele><time>2006-06-11T11:04:49Z</time></trkpt>
<trkpt lat="47.06995800" lon="7.04561200"><ele>762</ele><time>2006-06-11T11:05:04Z</time></trkpt>
<trkpt lat="47.07038500" lon="7.04639400"><ele>764.133606</ele><time>2006-06-11T11:05:21Z</time></trkpt>
<trkpt lat="47.07061400" lon="7.04736700"><ele>769.010437</ele><time>2006-06-11T11:05:34Z</time></trkpt>
<trkpt lat="47.07095700" lon="7.04817700"><ele>765.962402</ele><time>2006-06-11T11:05:45Z</time></trkpt>
<trkpt lat="47.07128100" lon="7.04890400"><ele>765.962402</ele><time>2006-06-11T11:05:54Z</time></trkpt>
<trkpt lat="47.07170100" lon="7.04985000"><ele>765.962402</ele><time>2006-06-11T11:06:07Z</time></trkpt>
<trkpt lat="47.07204800" lon="7.05058800"><ele>764.133606</ele><time>2006-06-11T11:06:17Z</time></trkpt>
<trkpt lat="47.07237600" lon="7.05132700"><ele>764.133606</ele><time>2006-06-11T11:06:26Z</time></trkpt>
<trkpt lat="47.07266600" lon="7.05197000"><ele>764.133606</ele><time>2006-06-11T11:06:38Z</time></trkpt>
<trkpt lat="47.07292900" lon="7.05255300"><ele>765.048035</ele><time>2006-06-11T11:06:49Z</time></trkpt>
<trkpt lat="47.07320000" lon="7.05314000"><ele>766.876831</ele><time>2006-06-11T11:07:01Z</time></trkpt>
<trkpt lat="47.07358900" lon="7.05388700"><ele>769.010437</ele><time>2006-06-11T11:07:16Z</time></trkpt>
<trkpt lat="47.07386000" lon="7.05445100"><ele>769.010437</ele><time>2006-06-11T11:07:27Z</time></trkpt>
<trkpt lat="47.07420000" lon="7.05520400"><ele>766.876831</ele><time>2006-06-11T11:07:40Z</time></trkpt>
<trkpt lat="47.07441300" lon="7.05569100"><ele>764.133606</ele><time>2006-06-11T11:07:47Z</time></trkpt>
<trkpt lat="47.07465700" lon="7.05622400"><ele>762</ele><time>2006-06-11T11:07:54Z</time></trkpt>
<trkpt lat="47.07469200" lon="7.05630000"><ele>762</ele><time>2006-06-11T11:07:54Z</time></trkpt>
<trkpt lat="47.07472600" lon="7.05637400"><ele>762</ele><time>2006-06-11T11:07:55Z</time></trkpt>
<trkpt lat="47.07482500" lon="7.05659700"><ele>761.085632</ele><time>2006-06-11T11:07:59Z</time></trkpt>
<trkpt lat="47.07484100" lon="7.05676800"><ele>761.085632</ele><time>2006-06-11T11:08:00Z</time></trkpt>
<trkpt lat="47.07477600" lon="7.05701300"><ele>759.866394</ele><time>2006-06-11T11:08:06Z</time></trkpt>
<trkpt lat="47.07476000" lon="7.05705000"><ele>759.866394</ele><time>2006-06-11T11:08:07Z</time></trkpt>
<trkpt lat="47.07480800" lon="7.05718700"><ele>759.866394</ele><time>2006-06-11T11:08:11Z</time></trkpt>
<trkpt lat="47.07485600" lon="7.05732300"><ele>762</ele><time>2006-06-11T11:08:15Z</time></trkpt>
<trkpt lat="47.07510400" lon="7.05768600"><ele>762</ele><time>2006-06-11T11:08:25Z</time></trkpt>
<trkpt lat="47.07540100" lon="7.05816300"><ele>764.133606</ele><time>2006-06-11T11:08:36Z</time></trkpt>
<trkpt lat="47.07568400" lon="7.05866000"><ele>765.962402</ele><time>2006-06-11T11:08:46Z</time></trkpt>
<trkpt lat="47.07592400" lon="7.05910300"><ele>769.010437</ele><time>2006-06-11T11:08:57Z</time></trkpt>
<trkpt lat="47.07614500" lon="7.05950800"><ele>771.143982</ele><time>2006-06-11T11:09:06Z</time></trkpt>
<trkpt lat="47.07638200" lon="7.05993200"><ele>773.887207</ele><time>2006-06-11T11:09:18Z</time></trkpt>
<trkpt lat="47.07667500" lon="7.06045900"><ele>776.935181</ele><time>2006-06-11T11:09:35Z</time></trkpt>
<trkpt lat="47.07692000" lon="7.06090900"><ele>779.068787</ele><time>2006-06-11T11:09:48Z</time></trkpt>
<trkpt lat="47.07713300" lon="7.06129900"><ele>779.983215</ele><time>2006-06-11T11:10:01Z</time></trkpt>
<trkpt lat="47.07732400" lon="7.06149100"><ele>783.031189</ele><time>2006-06-11T11:10:09Z</time></trkpt>
<trkpt lat="47.07749200" lon="7.06138000"><ele>783.945618</ele><time>2006-06-11T11:10:15Z</time></trkpt>
<trkpt lat="47.07776300" lon="7.06126000"><ele>786.993591</ele><time>2006-06-11T11:10:26Z</time></trkpt>
<trkpt lat="47.07796900" lon="7.06140000"><ele>787.90802</ele><time>2006-06-11T11:10:34Z</time></trkpt>
<trkpt lat="47.07814000" lon="7.06170900"><ele>790.041626</ele><time>2006-06-11T11:10:45Z</time></trkpt>
<trkpt lat="47.07832700" lon="7.06206600"><ele>791.870422</ele><time>2006-06-11T11:10:58Z</time></trkpt>
<trkpt lat="47.07854500" lon="7.06248100"><ele>794.004028</ele><time>2006-06-11T11:11:11Z</time></trkpt>
<trkpt lat="47.07872800" lon="7.06285000"><ele>797.052002</ele><time>2006-06-11T11:11:22Z</time></trkpt>
<trkpt lat="47.07896800" lon="7.06327700"><ele>798.880798</ele><time>2006-06-11T11:11:35Z</time></trkpt>
<trkpt lat="47.07926900" lon="7.06375600"><ele>797.966431</ele><time>2006-06-11T11:11:48Z</time></trkpt>
<trkpt lat="47.07961300" lon="7.06434800"><ele>798.880798</ele><time>2006-06-11T11:12:01Z</time></trkpt>
<trkpt lat="47.07988000" lon="7.06479700"><ele>801.014404</ele><time>2006-06-11T11:12:10Z</time></trkpt>
<trkpt lat="47.08028000" lon="7.06537500"><ele>803.14801</ele><time>2006-06-11T11:12:26Z</time></trkpt>
<trkpt lat="47.08063100" lon="7.06583200"><ele>803.14801</ele><time>2006-06-11T11:12:38Z</time></trkpt>
<trkpt lat="47.08069600" lon="7.06589700"><ele>803.14801</ele><time>2006-06-11T11:12:40Z</time></trkpt>
<trkpt lat="47.08073400" lon="7.06592400"><ele>804.062439</ele><time>2006-06-11T11:12:40Z</time></trkpt>
<trkpt lat="47.08081100" lon="7.06596300"><ele>804.062439</ele><time>2006-06-11T11:12:42Z</time></trkpt>
<trkpt lat="47.08113900" lon="7.06596600"><ele>805.891235</ele><time>2006-06-11T11:12:51Z</time></trkpt>
<trkpt lat="47.08148600" lon="7.06608900"><ele>804.062439</ele><time>2006-06-11T11:12:59Z</time></trkpt>
<trkpt lat="47.08168800" lon="7.06621900"><ele>803.14801</ele><time>2006-06-11T11:13:03Z</time></trkpt>
<trkpt lat="47.08178700" lon="7.06624300"><ele>801.928833</ele><time>2006-06-11T11:13:05Z</time></trkpt>
<trkpt lat="47.08198500" lon="7.06618500"><ele>800.100037</ele><time>2006-06-11T11:13:09Z</time></trkpt>
<trkpt lat="47.08212700" lon="7.06608000"><ele>800.100037</ele><time>2006-06-11T11:13:12Z</time></trkpt>
<trkpt lat="47.08231000" lon="7.06585100"><ele>801.014404</ele><time>2006-06-11T11:13:17Z</time></trkpt>
<trkpt lat="47.08239400" lon="7.06574300"><ele>801.014404</ele><time>2006-06-11T11:13:18Z</time></trkpt>
<trkpt lat="47.08247800" lon="7.06563600"><ele>801.014404</ele><time>2006-06-11T11:17:19Z</time></trkpt>
<trkpt lat="47.08256100" lon="7.06552800"><ele>797.052002</ele><time>2006-06-11T11:17:20Z</time></trkpt>
<trkpt lat="47.08256500" lon="7.06551800"><ele>797.052002</ele><time>2006-06-11T11:17:21Z</time></trkpt>
<trkpt lat="47.08261100" lon="7.06535900"><ele>798.880798</ele><time>2006-06-11T11:17:26Z</time></trkpt>
<trkpt lat="47.08269500" lon="7.06521800"><ele>798.880798</ele><time>2006-06-11T11:17:31Z</time></trkpt>
<trkpt lat="47.08278700" lon="7.06507300"><ele>800.100037</ele><time>2006-06-11T11:17:34Z</time></trkpt>
<trkpt lat="47.08295800" lon="7.06473000"><ele>801.014404</ele><time>2006-06-11T11:17:44Z</time></trkpt>
<trkpt lat="47.08302300" lon="7.06446600"><ele>801.928833</ele><time>2006-06-11T11:17:51Z</time></trkpt>
<trkpt lat="47.08314900" lon="7.06426200"><ele>803.14801</ele><time>2006-06-11T11:17:58Z</time></trkpt>
<trkpt lat="47.08320200" lon="7.06418900"><ele>803.14801</ele><time>2006-06-11T11:18:00Z</time></trkpt>
<trkpt lat="47.08351900" lon="7.06388600"><ele>801.928833</ele><time>2006-06-11T11:18:09Z</time></trkpt>
<trkpt lat="47.08399600" lon="7.06345800"><ele>800.100037</ele><time>2006-06-11T11:18:19Z</time></trkpt>
<trkpt lat="47.08437000" lon="7.06307900"><ele>798.880798</ele><time>2006-06-11T11:18:28Z</time></trkpt>
<trkpt lat="47.08484300" lon="7.06251600"><ele>797.966431</ele><time>2006-06-11T11:18:37Z</time></trkpt>
<trkpt lat="47.08499100" lon="7.06237600"><ele>797.966431</ele><time>2006-06-11T11:18:41Z</time></trkpt>
<trkpt lat="47.08540300" lon="7.06217800"><ele>797.966431</ele><time>2006-06-11T11:18:48Z</time></trkpt>
<trkpt lat="47.08587300" lon="7.06200900"><ele>800.100037</ele><time>2006-06-11T11:18:59Z</time></trkpt>
<trkpt lat="47.08604400" lon="7.06193100"><ele>801.014404</ele><time>2006-06-11T11:19:02Z</time></trkpt>
<trkpt lat="47.08636100" lon="7.06187600"><ele>804.976807</ele><time>2006-06-11T11:19:11Z</time></trkpt>
<trkpt lat="47.08651000" lon="7.06191300"><ele>805.891235</ele><time>2006-06-11T11:19:14Z</time></trkpt>
<trkpt lat="47.08690600" lon="7.06207200"><ele>807.110413</ele><time>2006-06-11T11:19:25Z</time></trkpt>
<trkpt lat="47.08733000" lon="7.06213700"><ele>805.891235</ele><time>2006-06-11T11:19:34Z</time></trkpt>
<trkpt lat="47.08787200" lon="7.06210400"><ele>807.110413</ele><time>2006-06-11T11:19:47Z</time></trkpt>
<trkpt lat="47.08836700" lon="7.06195900"><ele>809.853638</ele><time>2006-06-11T11:20:00Z</time></trkpt>
<trkpt lat="47.08876800" lon="7.06178200"><ele>811.987183</ele><time>2006-06-11T11:20:12Z</time></trkpt>
<trkpt lat="47.08910400" lon="7.06163300"><ele>812.901611</ele><time>2006-06-11T11:20:23Z</time></trkpt>
<trkpt lat="47.08945100" lon="7.06140900"><ele>811.987183</ele><time>2006-06-11T11:20:31Z</time></trkpt>
<trkpt lat="47.08983200" lon="7.06105100"><ele>811.987183</ele><time>2006-06-11T11:20:41Z</time></trkpt>
<trkpt lat="47.08988200" lon="7.06101100"><ele>811.987183</ele><time>2006-06-11T11:20:42Z</time></trkpt>
<trkpt lat="47.08993100" lon="7.06097800"><ele>811.987183</ele><time>2006-06-11T11:20:43Z</time></trkpt>
<trkpt lat="47.09003800" lon="7.06093700"><ele>811.987183</ele><time>2006-06-11T11:20:44Z</time></trkpt>
<trkpt lat="47.09029400" lon="7.06096700"><ele>812.901611</ele><time>2006-06-11T11:20:49Z</time></trkpt>
<trkpt lat="47.09034000" lon="7.06099100"><ele>812.901611</ele><time>2006-06-11T11:20:50Z</time></trkpt>
<trkpt lat="47.09058400" lon="7.06120100"><ele>815.035217</ele><time>2006-06-11T11:20:56Z</time></trkpt>
<trkpt lat="47.09062600" lon="7.06131600"><ele>814.120789</ele><time>2006-06-11T11:20:59Z</time></trkpt>
<trkpt lat="47.09071200" lon="7.06195200"><ele>814.120789</ele><time>2006-06-11T11:21:07Z</time></trkpt>
<trkpt lat="47.09079700" lon="7.06258800"><ele>809.853638</ele><time>2006-06-11T11:21:13Z</time></trkpt>
<trkpt lat="47.09085100" lon="7.06303100"><ele>807.110413</ele><time>2006-06-11T11:21:16Z</time></trkpt>
<trkpt lat="47.09093900" lon="7.06370900"><ele>804.062439</ele><time>2006-06-11T11:21:22Z</time></trkpt>
<trkpt lat="47.09104500" lon="7.06451400"><ele>801.928833</ele><time>2006-06-11T11:21:31Z</time></trkpt>
<trkpt lat="47.09106400" lon="7.06469300"><ele>801.014404</ele><time>2006-06-11T11:21:33Z</time></trkpt>
<trkpt lat="47.09113700" lon="7.06480700"><ele>801.014404</ele><time>2006-06-11T11:21:34Z</time></trkpt>
<trkpt lat="47.09122800" lon="7.06483100"><ele>801.928833</ele><time>2006-06-11T11:21:36Z</time></trkpt>
<trkpt lat="47.09150700" lon="7.06469900"><ele>803.14801</ele><time>2006-06-11T11:21:42Z</time></trkpt>
<trkpt lat="47.09155300" lon="7.06467600"><ele>803.14801</ele><time>2006-06-11T11:21:44Z</time></trkpt>
<trkpt lat="47.09167900" lon="7.06460700"><ele>803.14801</ele><time>2006-06-11T11:21:46Z</time></trkpt>
<trkpt lat="47.09191900" lon="7.06447600"><ele>804.062439</ele><time>2006-06-11T11:21:53Z</time></trkpt>
<trkpt lat="47.09221300" lon="7.06431200"><ele>805.891235</ele><time>2006-06-11T11:22:00Z</time></trkpt>
<trkpt lat="47.09270100" lon="7.06404400"><ele>808.02478</ele><time>2006-06-11T11:22:14Z</time></trkpt>
<trkpt lat="47.09323900" lon="7.06374500"><ele>811.072815</ele><time>2006-06-11T11:22:31Z</time></trkpt>
<trkpt lat="47.09360100" lon="7.06354500"><ele>811.072815</ele><time>2006-06-11T11:22:41Z</time></trkpt>
<trkpt lat="47.09414300" lon="7.06325200"><ele>809.853638</ele><time>2006-06-11T11:22:54Z</time></trkpt>
<trkpt lat="47.09492500" lon="7.06281400"><ele>809.853638</ele><time>2006-06-11T11:23:10Z</time></trkpt>
<trkpt lat="47.09520000" lon="7.06266500"><ele>809.853638</ele><time>2006-06-11T11:23:16Z</time></trkpt>
<trkpt lat="47.09589800" lon="7.06228600"><ele>811.987183</ele><time>2006-06-11T11:23:33Z</time></trkpt>
<trkpt lat="47.09659200" lon="7.06195300"><ele>815.949585</ele><time>2006-06-11T11:23:49Z</time></trkpt>
<trkpt lat="47.09721400" lon="7.06174900"><ele>818.083191</ele><time>2006-06-11T11:24:05Z</time></trkpt>
<trkpt lat="47.09781300" lon="7.06167700"><ele>818.99762</ele><time>2006-06-11T11:24:19Z</time></trkpt>
<trkpt lat="47.09833500" lon="7.06170300"><ele>819.911987</ele><time>2006-06-11T11:24:31Z</time></trkpt>
<trkpt lat="47.09895700" lon="7.06186200"><ele>821.131226</ele><time>2006-06-11T11:24:44Z</time></trkpt>
<trkpt lat="47.09964400" lon="7.06217700"><ele>822.045593</ele><time>2006-06-11T11:24:58Z</time></trkpt>
<trkpt lat="47.10006700" lon="7.06244400"><ele>822.960022</ele><time>2006-06-11T11:25:09Z</time></trkpt>
<trkpt lat="47.10010900" lon="7.06255300"><ele>822.045593</ele><time>2006-06-11T11:25:10Z</time></trkpt>
<trkpt lat="47.10028800" lon="7.06319500"><ele>821.131226</ele><time>2006-06-11T11:25:21Z</time></trkpt>
<trkpt lat="47.10050200" lon="7.06389300"><ele>822.045593</ele><time>2006-06-11T11:25:33Z</time></trkpt>
<trkpt lat="47.10071200" lon="7.06462200"><ele>822.045593</ele><time>2006-06-11T11:25:45Z</time></trkpt>
<trkpt lat="47.10096000" lon="7.06546600"><ele>821.131226</ele><time>2006-06-11T11:25:59Z</time></trkpt>
<trkpt lat="47.10117300" lon="7.06614400"><ele>821.131226</ele><time>2006-06-11T11:26:08Z</time></trkpt>
<trkpt lat="47.10144000" lon="7.06703600"><ele>819.911987</ele><time>2006-06-11T11:26:21Z</time></trkpt>
<trkpt lat="47.10168100" lon="7.06779700"><ele>819.911987</ele><time>2006-06-11T11:26:32Z</time></trkpt>
<trkpt lat="47.10190200" lon="7.06854700"><ele>818.99762</ele><time>2006-06-11T11:26:45Z</time></trkpt>
<trkpt lat="47.10206600" lon="7.06906900"><ele>819.911987</ele><time>2006-06-11T11:26:53Z</time></trkpt>
<trkpt lat="47.10221100" lon="7.06957400"><ele>821.131226</ele><time>2006-06-11T11:27:03Z</time></trkpt>
<trkpt lat="47.10234500" lon="7.07001400"><ele>822.045593</ele><time>2006-06-11T11:27:10Z</time></trkpt>
<trkpt lat="47.10253500" lon="7.07066800"><ele>823.87439</ele><time>2006-06-11T11:27:23Z</time></trkpt>
<trkpt lat="47.10272200" lon="7.07128700"><ele>823.87439</ele><time>2006-06-11T11:27:34Z</time></trkpt>
<trkpt lat="47.10295500" lon="7.07202300"><ele>826.922424</ele><time>2006-06-11T11:27:48Z</time></trkpt>
<trkpt lat="47.10311500" lon="7.07255200"><ele>826.922424</ele><time>2006-06-11T11:28:00Z</time></trkpt>
<trkpt lat="47.10329100" lon="7.07311900"><ele>825.093628</ele><time>2006-06-11T11:28:09Z</time></trkpt>
<trkpt lat="47.10348900" lon="7.07380800"><ele>822.045593</ele><time>2006-06-11T11:28:20Z</time></trkpt>
<trkpt lat="47.10368700" lon="7.07442700"><ele>819.911987</ele><time>2006-06-11T11:28:28Z</time></trkpt>
<trkpt lat="47.10376700" lon="7.07475000"><ele>821.131226</ele><time>2006-06-11T11:28:33Z</time></trkpt>
<trkpt lat="47.10383600" lon="7.07531100"><ele>818.99762</ele><time>2006-06-11T11:28:39Z</time></trkpt>
<trkpt lat="47.10392000" lon="7.07617500"><ele>818.083191</ele><time>2006-06-11T11:28:51Z</time></trkpt>
<trkpt lat="47.10398900" lon="7.07693100"><ele>818.083191</ele><time>2006-06-11T11:29:00Z</time></trkpt>
<trkpt lat="47.10404600" lon="7.07766700"><ele>818.083191</ele><time>2006-06-11T11:29:11Z</time></trkpt>
<trkpt lat="47.10413000" lon="7.07844300"><ele>816.864014</ele><time>2006-06-11T11:29:21Z</time></trkpt>
<trkpt lat="47.10421800" lon="7.07936300"><ele>815.949585</ele><time>2006-06-11T11:29:32Z</time></trkpt>
<trkpt lat="47.10430500" lon="7.08033000"><ele>815.035217</ele><time>2006-06-11T11:29:45Z</time></trkpt>
<trkpt lat="47.10433200" lon="7.08054600"><ele>815.035217</ele><time>2006-06-11T11:29:49Z</time></trkpt>
<trkpt lat="47.10441600" lon="7.08143800"><ele>812.901611</ele><time>2006-06-11T11:30:01Z</time></trkpt>
<trkpt lat="47.10448800" lon="7.08220500"><ele>811.987183</ele><time>2006-06-11T11:30:12Z</time></trkpt>
<trkpt lat="47.10458400" lon="7.08320100"><ele>812.901611</ele><time>2006-06-11T11:30:26Z</time></trkpt>
<trkpt lat="47.10464500" lon="7.08384000"><ele>814.120789</ele><time>2006-06-11T11:30:35Z</time></trkpt>
<trkpt lat="47.10471000" lon="7.08452900"><ele>814.120789</ele><time>2006-06-11T11:30:46Z</time></trkpt>
<trkpt lat="47.10477800" lon="7.08518800"><ele>811.987183</ele><time>2006-06-11T11:30:57Z</time></trkpt>
<trkpt lat="47.10487400" lon="7.08586000"><ele>811.987183</ele><time>2006-06-11T11:31:06Z</time></trkpt>
<trkpt lat="47.10495400" lon="7.08617200"><ele>811.987183</ele><time>2006-06-11T11:31:12Z</time></trkpt>
<trkpt lat="47.10516000" lon="7.08704500"><ele>812.901611</ele><time>2006-06-11T11:31:24Z</time></trkpt>
<trkpt lat="47.10542700" lon="7.08802400"><ele>812.901611</ele><time>2006-06-11T11:31:38Z</time></trkpt>
<trkpt lat="47.10566300" lon="7.08887100"><ele>811.987183</ele><time>2006-06-11T11:31:50Z</time></trkpt>
<trkpt lat="47.10592300" lon="7.08972500"><ele>812.901611</ele><time>2006-06-11T11:32:02Z</time></trkpt>
<trkpt lat="47.10610200" lon="7.09035800"><ele>812.901611</ele><time>2006-06-11T11:32:11Z</time></trkpt>
<trkpt lat="47.10625800" lon="7.09115600"><ele>812.901611</ele><time>2006-06-11T11:32:22Z</time></trkpt>
<trkpt lat="47.10627000" lon="7.09188700"><ele>811.987183</ele><time>2006-06-11T11:32:33Z</time></trkpt>
<trkpt lat="47.10629700" lon="7.09260400"><ele>811.072815</ele><time>2006-06-11T11:32:42Z</time></trkpt>
<trkpt lat="47.10627400" lon="7.09335600"><ele>809.853638</ele><time>2006-06-11T11:32:53Z</time></trkpt>
<trkpt lat="47.10622000" lon="7.09417700"><ele>808.02478</ele><time>2006-06-11T11:33:05Z</time></trkpt>
<trkpt lat="47.10619400" lon="7.09505600"><ele>809.853638</ele><time>2006-06-11T11:33:18Z</time></trkpt>
<trkpt lat="47.10616700" lon="7.09569900"><ele>809.853638</ele><time>2006-06-11T11:33:27Z</time></trkpt>
<trkpt lat="47.10616300" lon="7.09607200"><ele>811.072815</ele><time>2006-06-11T11:33:35Z</time></trkpt>
<trkpt lat="47.10615200" lon="7.09630800"><ele>811.072815</ele><time>2006-06-11T11:33:38Z</time></trkpt>
<trkpt lat="47.10614800" lon="7.09706300"><ele>808.939209</ele><time>2006-06-11T11:33:50Z</time></trkpt>
<trkpt lat="47.10614800" lon="7.09796900"><ele>808.02478</ele><time>2006-06-11T11:34:03Z</time></trkpt>
<trkpt lat="47.10615500" lon="7.09838200"><ele>808.02478</ele><time>2006-06-11T11:34:09Z</time></trkpt>
<trkpt lat="47.10615200" lon="7.09933600"><ele>807.110413</ele><time>2006-06-11T11:34:23Z</time></trkpt>
<trkpt lat="47.10621600" lon="7.10010000"><ele>805.891235</ele><time>2006-06-11T11:34:35Z</time></trkpt>
<trkpt lat="47.10632700" lon="7.10098900"><ele>805.891235</ele><time>2006-06-11T11:34:48Z</time></trkpt>
<trkpt lat="47.10640700" lon="7.10163800"><ele>805.891235</ele><time>2006-06-11T11:34:59Z</time></trkpt>
<trkpt lat="47.10649100" lon="7.10227800"><ele>804.062439</ele><time>2006-06-11T11:35:07Z</time></trkpt>
<trkpt lat="47.10659800" lon="7.10306700"><ele>803.14801</ele><time>2006-06-11T11:35:19Z</time></trkpt>
<trkpt lat="47.10667400" lon="7.10365100"><ele>804.062439</ele><time>2006-06-11T11:35:27Z</time></trkpt>
<trkpt lat="47.10675800" lon="7.10427700"><ele>804.976807</ele><time>2006-06-11T11:35:38Z</time></trkpt>
<trkpt lat="47.10685700" lon="7.10492500"><ele>804.976807</ele><time>2006-06-11T11:35:49Z</time></trkpt>
<trkpt lat="47.10697900" lon="7.10575200"><ele>804.976807</ele><time>2006-06-11T11:36:02Z</time></trkpt>
<trkpt lat="47.10706300" lon="7.10631700"><ele>804.976807</ele><time>2006-06-11T11:36:10Z</time></trkpt>
<trkpt lat="47.10710100" lon="7.10659600"><ele>805.891235</ele><time>2006-06-11T11:36:14Z</time></trkpt>
<trkpt lat="47.10726200" lon="7.10744200"><ele>808.939209</ele><time>2006-06-11T11:36:27Z</time></trkpt>
<trkpt lat="47.10743300" lon="7.10825200"><ele>811.072815</ele><time>2006-06-11T11:36:40Z</time></trkpt>
<trkpt lat="47.10759000" lon="7.10894300"><ele>811.072815</ele><time>2006-06-11T11:36:50Z</time></trkpt>
<trkpt lat="47.10775400" lon="7.10968500"><ele>811.987183</ele><time>2006-06-11T11:37:02Z</time></trkpt>
<trkpt lat="47.10789100" lon="7.11034700"><ele>812.901611</ele><time>2006-06-11T11:37:14Z</time></trkpt>
<trkpt lat="47.10803600" lon="7.11103300"><ele>815.035217</ele><time>2006-06-11T11:37:27Z</time></trkpt>
<trkpt lat="47.10813500" lon="7.11150600"><ele>815.949585</ele><time>2006-06-11T11:37:38Z</time></trkpt>
<trkpt lat="47.10828400" lon="7.11213400"><ele>816.864014</ele><time>2006-06-11T11:37:52Z</time></trkpt>
<trkpt lat="47.10838300" lon="7.11231600"><ele>818.083191</ele><time>2006-06-11T11:37:58Z</time></trkpt>
<trkpt lat="47.10865400" lon="7.11243800"><ele>818.99762</ele><time>2006-06-11T11:38:07Z</time></trkpt>
<trkpt lat="47.10902400" lon="7.11250000"><ele>815.949585</ele><time>2006-06-11T11:38:19Z</time></trkpt>
<trkpt lat="47.10948200" lon="7.11256100"><ele>821.131226</ele><time>2006-06-11T11:38:35Z</time></trkpt>
<trkpt lat="47.10977600" lon="7.11245100"><ele>821.131226</ele><time>2006-06-11T11:38:47Z</time></trkpt>
<trkpt lat="47.11006900" lon="7.11234100"><ele>823.87439</ele><time>2006-06-11T11:38:59Z</time></trkpt>
<trkpt lat="47.11043900" lon="7.11213400"><ele>823.87439</ele><time>2006-06-11T11:39:14Z</time></trkpt>
<trkpt lat="47.11065700" lon="7.11194600"><ele>828.141602</ele><time>2006-06-11T11:39:25Z</time></trkpt>
<trkpt lat="47.11088600" lon="7.11182000"><ele>832.104004</ele><time>2006-06-11T11:39:35Z</time></trkpt>
<trkpt lat="47.11112600" lon="7.11174300"><ele>833.018433</ele><time>2006-06-11T11:39:46Z</time></trkpt>
<trkpt lat="47.11129000" lon="7.11159100"><ele>833.9328</ele><time>2006-06-11T11:39:55Z</time></trkpt>
<trkpt lat="47.11148800" lon="7.11137500"><ele>836.980835</ele><time>2006-06-11T11:40:07Z</time></trkpt>
<trkpt lat="47.11176700" lon="7.11148300"><ele>840.028809</ele><time>2006-06-11T11:40:19Z</time></trkpt>
<trkpt lat="47.11191600" lon="7.11172900"><ele>840.028809</ele><time>2006-06-11T11:40:26Z</time></trkpt>
<trkpt lat="47.11211400" lon="7.11210600"><ele>840.943237</ele><time>2006-06-11T11:40:37Z</time></trkpt>
<trkpt lat="47.11235400" lon="7.11264100"><ele>840.943237</ele><time>2006-06-11T11:40:48Z</time></trkpt>
<trkpt lat="47.11255600" lon="7.11306200"><ele>839.11438</ele><time>2006-06-11T11:40:55Z</time></trkpt>
<trkpt lat="47.11274700" lon="7.11359300"><ele>836.980835</ele><time>2006-06-11T11:41:02Z</time></trkpt>
<trkpt lat="47.11278900" lon="7.11412600"><ele>836.980835</ele><time>2006-06-11T11:41:09Z</time></trkpt>
<trkpt lat="47.11286200" lon="7.11475100"><ele>836.980835</ele><time>2006-06-11T11:41:17Z</time></trkpt>
<trkpt lat="47.11304100" lon="7.11540100"><ele>836.980835</ele><time>2006-06-11T11:41:28Z</time></trkpt>
<trkpt lat="47.11319700" lon="7.11594400"><ele>837.895203</ele><time>2006-06-11T11:41:38Z</time></trkpt>
<trkpt lat="47.11322800" lon="7.11610700"><ele>839.11438</ele><time>2006-06-11T11:41:41Z</time></trkpt>
<trkpt lat="47.11325800" lon="7.11610800"><ele>840.028809</ele><time>2006-06-11T11:41:42Z</time></trkpt>
<trkpt lat="47.11341100" lon="7.11596500"><ele>839.11438</ele><time>2006-06-11T11:41:49Z</time></trkpt>
<trkpt lat="47.11347600" lon="7.11568700"><ele>840.943237</ele><time>2006-06-11T11:41:59Z</time></trkpt>
<trkpt lat="47.11347200" lon="7.11548500"><ele>843.076782</ele><time>2006-06-11T11:42:05Z</time></trkpt>
<trkpt lat="47.11341900" lon="7.11511400"><ele>844.90564</ele><time>2006-06-11T11:42:14Z</time></trkpt>
<trkpt lat="47.11347200" lon="7.11471100"><ele>847.039185</ele><time>2006-06-11T11:42:25Z</time></trkpt>
<trkpt lat="47.11355200" lon="7.11435700"><ele>848.867981</ele><time>2006-06-11T11:42:36Z</time></trkpt>
<trkpt lat="47.11359000" lon="7.11399800"><ele>850.087219</ele><time>2006-06-11T11:42:45Z</time></trkpt>
<trkpt lat="47.11353700" lon="7.11364200"><ele>851.001587</ele><time>2006-06-11T11:42:56Z</time></trkpt>
<trkpt lat="47.11343400" lon="7.11325000"><ele>853.135193</ele><time>2006-06-11T11:43:09Z</time></trkpt>
<trkpt lat="47.11335800" lon="7.11297200"><ele>854.963989</ele><time>2006-06-11T11:43:18Z</time></trkpt>
<trkpt lat="47.11331600" lon="7.11279600"><ele>854.963989</ele><time>2006-06-11T11:43:24Z</time></trkpt>
<trkpt lat="47.11330000" lon="7.11235200"><ele>855.878418</ele><time>2006-06-11T11:43:41Z</time></trkpt>
<trkpt lat="47.11323500" lon="7.11203100"><ele>861.059998</ele><time>2006-06-11T11:43:53Z</time></trkpt>
<trkpt lat="47.11321300" lon="7.11161500"><ele>861.974426</ele><time>2006-06-11T11:44:08Z</time></trkpt>
<trkpt lat="47.11315900" lon="7.11128000"><ele>862.888794</ele><time>2006-06-11T11:44:21Z</time></trkpt>
<trkpt lat="47.11308300" lon="7.11096200"><ele>865.936829</ele><time>2006-06-11T11:44:34Z</time></trkpt>
<trkpt lat="47.11293400" lon="7.11065700"><ele>869.899231</ele><time>2006-06-11T11:44:49Z</time></trkpt>
<trkpt lat="47.11277800" lon="7.11037300"><ele>872.032837</ele><time>2006-06-11T11:45:02Z</time></trkpt>
<trkpt lat="47.11265200" lon="7.11013500"><ele>873.861633</ele><time>2006-06-11T11:45:12Z</time></trkpt>
<trkpt lat="47.11250700" lon="7.10983600"><ele>875.080811</ele><time>2006-06-11T11:45:24Z</time></trkpt>
<trkpt lat="47.11231600" lon="7.10953300"><ele>875.080811</ele><time>2006-06-11T11:45:37Z</time></trkpt>
<trkpt lat="47.11213300" lon="7.10928200"><ele>876.909607</ele><time>2006-06-11T11:45:48Z</time></trkpt>
<trkpt lat="47.11198000" lon="7.10903300"><ele>879.043213</ele><time>2006-06-11T11:45:59Z</time></trkpt>
<trkpt lat="47.11179400" lon="7.10858600"><ele>879.957581</ele><time>2006-06-11T11:46:14Z</time></trkpt>
<trkpt lat="47.11166400" lon="7.10816800"><ele>880.872009</ele><time>2006-06-11T11:46:27Z</time></trkpt>
<trkpt lat="47.11162900" lon="7.10785400"><ele>883.005615</ele><time>2006-06-11T11:46:37Z</time></trkpt>
<trkpt lat="47.11167900" lon="7.10751400"><ele>883.005615</ele><time>2006-06-11T11:46:46Z</time></trkpt>
<trkpt lat="47.11178200" lon="7.10710400"><ele>883.919983</ele><time>2006-06-11T11:46:58Z</time></trkpt>
<trkpt lat="47.11188100" lon="7.10672900"><ele>886.968018</ele><time>2006-06-11T11:47:10Z</time></trkpt>
<trkpt lat="47.11197700" lon="7.10628700"><ele>890.015991</ele><time>2006-06-11T11:47:23Z</time></trkpt>
<trkpt lat="47.11197300" lon="7.10584900"><ele>893.978394</ele><time>2006-06-11T11:47:35Z</time></trkpt>
<trkpt lat="47.11196500" lon="7.10535600"><ele>897.026428</ele><time>2006-06-11T11:47:49Z</time></trkpt>
<trkpt lat="47.11195000" lon="7.10489500"><ele>900.074402</ele><time>2006-06-11T11:48:02Z</time></trkpt>
<trkpt lat="47.11200700" lon="7.10449300"><ele>900.988831</ele><time>2006-06-11T11:48:14Z</time></trkpt>
<trkpt lat="47.11211400" lon="7.10404300"><ele>903.122437</ele><time>2006-06-11T11:48:27Z</time></trkpt>
<trkpt lat="47.11227400" lon="7.10359600"><ele>904.951233</ele><time>2006-06-11T11:48:42Z</time></trkpt>
<trkpt lat="47.11245300" lon="7.10341600"><ele>907.084839</ele><time>2006-06-11T11:48:53Z</time></trkpt>
<trkpt lat="47.11267500" lon="7.10329600"><ele>910.132813</ele><time>2006-06-11T11:49:04Z</time></trkpt>
<trkpt lat="47.11285800" lon="7.10321300"><ele>911.047241</ele><time>2006-06-11T11:49:12Z</time></trkpt>
<trkpt lat="47.11305600" lon="7.10310700"><ele>911.961609</ele><time>2006-06-11T11:49:23Z</time></trkpt>
<trkpt lat="47.11329700" lon="7.10306200"><ele>914.095215</ele><time>2006-06-11T11:49:35Z</time></trkpt>
<trkpt lat="47.11347600" lon="7.10315800"><ele>915.924011</ele><time>2006-06-11T11:49:44Z</time></trkpt>
<trkpt lat="47.11364000" lon="7.10340200"><ele>918.971985</ele><time>2006-06-11T11:49:56Z</time></trkpt>
<trkpt lat="47.11374300" lon="7.10367100"><ele>921.105591</ele><time>2006-06-11T11:50:08Z</time></trkpt>
<trkpt lat="47.11385700" lon="7.10396500"><ele>923.848816</ele><time>2006-06-11T11:50:20Z</time></trkpt>
<trkpt lat="47.11402500" lon="7.10440900"><ele>926.89679</ele><time>2006-06-11T11:50:36Z</time></trkpt>
<trkpt lat="47.11413200" lon="7.10471100"><ele>929.944824</ele><time>2006-06-11T11:50:48Z</time></trkpt>
<trkpt lat="47.11424300" lon="7.10502700"><ele>932.07843</ele><time>2006-06-11T11:51:01Z</time></trkpt>
<trkpt lat="47.11433400" lon="7.10534200"><ele>932.992798</ele><time>2006-06-11T11:51:13Z</time></trkpt>
<trkpt lat="47.11445200" lon="7.10556200"><ele>935.126404</ele><time>2006-06-11T11:51:24Z</time></trkpt>
<trkpt lat="47.11457100" lon="7.10585500"><ele>936.040833</ele><time>2006-06-11T11:51:36Z</time></trkpt>
<trkpt lat="47.11470400" lon="7.10611800"><ele>937.869629</ele><time>2006-06-11T11:51:48Z</time></trkpt>
<trkpt lat="47.11490200" lon="7.10628500"><ele>939.088806</ele><time>2006-06-11T11:51:59Z</time></trkpt>
<trkpt lat="47.11511600" lon="7.10631900"><ele>939.088806</ele><time>2006-06-11T11:52:11Z</time></trkpt>
<trkpt lat="47.11536000" lon="7.10630100"><ele>942.136841</ele><time>2006-06-11T11:52:24Z</time></trkpt>
<trkpt lat="47.11556600" lon="7.10629200"><ele>943.965637</ele><time>2006-06-11T11:52:35Z</time></trkpt>
<trkpt lat="47.11578000" lon="7.10640800"><ele>947.92804</ele><time>2006-06-11T11:52:48Z</time></trkpt>
<trkpt lat="47.11593600" lon="7.10657500"><ele>950.061584</ele><time>2006-06-11T11:53:00Z</time></trkpt>
<trkpt lat="47.11607700" lon="7.10679100"><ele>954.938416</ele><time>2006-06-11T11:53:13Z</time></trkpt>
<trkpt lat="47.11622200" lon="7.10696900"><ele>957.072021</ele><time>2006-06-11T11:53:25Z</time></trkpt>
<trkpt lat="47.11636000" lon="7.10713600"><ele>957.986389</ele><time>2006-06-11T11:53:34Z</time></trkpt>
<trkpt lat="47.11651200" lon="7.10732900"><ele>957.072021</ele><time>2006-06-11T11:53:45Z</time></trkpt>
<trkpt lat="47.11661100" lon="7.10762800"><ele>961.034424</ele><time>2006-06-11T11:53:58Z</time></trkpt>
<trkpt lat="47.11669200" lon="7.10789300"><ele>962.86322</ele><time>2006-06-11T11:54:10Z</time></trkpt>
<trkpt lat="47.11676400" lon="7.10812600"><ele>965.911194</ele><time>2006-06-11T11:54:19Z</time></trkpt>
<trkpt lat="47.11682300" lon="7.10834600"><ele>965.911194</ele><time>2006-06-11T11:54:34Z</time></trkpt>
<trkpt lat="47.11688200" lon="7.10856500"><ele>968.959229</ele><time>2006-06-11T11:54:37Z</time></trkpt>
<trkpt lat="47.11705800" lon="7.10871900"><ele>969.873596</ele><time>2006-06-11T11:54:48Z</time></trkpt>
<trkpt lat="47.11726800" lon="7.10883400"><ele>969.873596</ele><time>2006-06-11T11:55:01Z</time></trkpt>
<trkpt lat="47.11751900" lon="7.10891900"><ele>972.921631</ele><time>2006-06-11T11:55:16Z</time></trkpt>
<trkpt lat="47.11777900" lon="7.10915500"><ele>978.10321</ele><time>2006-06-11T11:55:34Z</time></trkpt>
<trkpt lat="47.11785900" lon="7.10938700"><ele>979.017639</ele><time>2006-06-11T11:55:45Z</time></trkpt>
<trkpt lat="47.11792000" lon="7.10975100"><ele>982.065613</ele><time>2006-06-11T11:55:58Z</time></trkpt>
<trkpt lat="47.11806100" lon="7.10995700"><ele>985.113586</ele><time>2006-06-11T11:56:10Z</time></trkpt>
<trkpt lat="47.11819100" lon="7.11018100"><ele>986.942383</ele><time>2006-06-11T11:56:22Z</time></trkpt>
<trkpt lat="47.11829200" lon="7.11029300"><ele>986.942383</ele><time>2006-06-11T11:56:31Z</time></trkpt>
<trkpt lat="47.11839300" lon="7.11040500"><ele>989.990417</ele><time>2006-06-11T11:56:36Z</time></trkpt>
<trkpt lat="47.11856800" lon="7.11036200"><ele>992.124023</ele><time>2006-06-11T11:56:47Z</time></trkpt>
<trkpt lat="47.11868300" lon="7.11019900"><ele>993.95282</ele><time>2006-06-11T11:56:55Z</time></trkpt>
<trkpt lat="47.11878200" lon="7.11002900"><ele>996.086426</ele><time>2006-06-11T11:57:04Z</time></trkpt>
<trkpt lat="47.11890000" lon="7.10976800"><ele>996.086426</ele><time>2006-06-11T11:57:17Z</time></trkpt>
<trkpt lat="47.11901900" lon="7.10955000"><ele>996.086426</ele><time>2006-06-11T11:57:28Z</time></trkpt>
<trkpt lat="47.11919400" lon="7.10928200"><ele>997.915222</ele><time>2006-06-11T11:57:41Z</time></trkpt>
<trkpt lat="47.11933900" lon="7.10908000"><ele>1000.048828</ele><time>2006-06-11T11:57:53Z</time></trkpt>
<trkpt lat="47.11951100" lon="7.10885400"><ele>1004.01123</ele><time>2006-06-11T11:58:05Z</time></trkpt>
<trkpt lat="47.11969000" lon="7.10864900"><ele>1004.925598</ele><time>2006-06-11T11:58:17Z</time></trkpt>
<trkpt lat="47.11987700" lon="7.10839900"><ele>1004.925598</ele><time>2006-06-11T11:58:31Z</time></trkpt>
<trkpt lat="47.12006400" lon="7.10814900"><ele>1007.059204</ele><time>2006-06-11T11:58:44Z</time></trkpt>
<trkpt lat="47.12024300" lon="7.10796000"><ele>1010.107239</ele><time>2006-06-11T11:58:56Z</time></trkpt>
<trkpt lat="47.12041500" lon="7.10775500"><ele>1011.936035</ele><time>2006-06-11T11:59:08Z</time></trkpt>
<trkpt lat="47.12068200" lon="7.10745000"><ele>1015.898438</ele><time>2006-06-11T11:59:24Z</time></trkpt>
<trkpt lat="47.12094500" lon="7.10713900"><ele>1018.031982</ele><time>2006-06-11T11:59:41Z</time></trkpt>
<trkpt lat="47.12112400" lon="7.10693900"><ele>1018.946411</ele><time>2006-06-11T11:59:52Z</time></trkpt>
<trkpt lat="47.12136100" lon="7.10669800"><ele>1021.080017</ele><time>2006-06-11T12:00:05Z</time></trkpt>
<trkpt lat="47.12159000" lon="7.10647800"><ele>1021.994385</ele><time>2006-06-11T12:00:16Z</time></trkpt>
<trkpt lat="47.12182200" lon="7.10628700"><ele>1021.994385</ele><time>2006-06-11T12:00:26Z</time></trkpt>
<trkpt lat="47.12207400" lon="7.10610200"><ele>1024.128052</ele><time>2006-06-11T12:00:38Z</time></trkpt>
<trkpt lat="47.12233700" lon="7.10586100"><ele>1028.090454</ele><time>2006-06-11T12:00:50Z</time></trkpt>
<trkpt lat="47.12256600" lon="7.10564600"><ele>1029.919189</ele><time>2006-06-11T12:01:03Z</time></trkpt>
<trkpt lat="47.12281000" lon="7.10548900"><ele>1032.052856</ele><time>2006-06-11T12:01:15Z</time></trkpt>
<trkpt lat="47.12317700" lon="7.10538400"><ele>1033.881592</ele><time>2006-06-11T12:01:33Z</time></trkpt>
<trkpt lat="47.12345500" lon="7.10539100"><ele>1036.015259</ele><time>2006-06-11T12:01:46Z</time></trkpt>
<trkpt lat="47.12359600" lon="7.10557500"><ele>1036.929565</ele><time>2006-06-11T12:01:54Z</time></trkpt>
<trkpt lat="47.12369200" lon="7.10582200"><ele>1039.977661</ele><time>2006-06-11T12:02:04Z</time></trkpt>
<trkpt lat="47.12368800" lon="7.10618400"><ele>1042.111206</ele><time>2006-06-11T12:02:15Z</time></trkpt>
<trkpt lat="47.12358500" lon="7.10640600"><ele>1043.025635</ele><time>2006-06-11T12:02:25Z</time></trkpt>
<trkpt lat="47.12342800" lon="7.10662400"><ele>1046.073608</ele><time>2006-06-11T12:02:34Z</time></trkpt>
<trkpt lat="47.12325300" lon="7.10678300"><ele>1044.85437</ele><time>2006-06-11T12:02:46Z</time></trkpt>
<trkpt lat="47.12307000" lon="7.10698300"><ele>1049.121582</ele><time>2006-06-11T12:02:57Z</time></trkpt>
<trkpt lat="47.12298200" lon="7.10714000"><ele>1053.083984</ele><time>2006-06-11T12:03:03Z</time></trkpt>
<trkpt lat="47.12294800" lon="7.10718700"><ele>1053.083984</ele><time>2006-06-11T12:03:05Z</time></trkpt>
<trkpt lat="47.12283700" lon="7.10728800"><ele>1053.083984</ele><time>2006-06-11T12:03:18Z</time></trkpt>
<trkpt lat="47.12272600" lon="7.10738800"><ele>1050.950439</ele><time>2006-06-11T12:03:23Z</time></trkpt>
<trkpt lat="47.12265000" lon="7.10774100"><ele>1056.131958</ele><time>2006-06-11T12:03:36Z</time></trkpt>
<trkpt lat="47.12258300" lon="7.10808400"><ele>1056.131958</ele><time>2006-06-11T12:03:48Z</time></trkpt>
<trkpt lat="47.12251700" lon="7.10842700"><ele>1053.998413</ele><time>2006-06-11T12:04:05Z</time></trkpt>
<trkpt lat="47.12241700" lon="7.10891700"><ele>1058.875244</ele><time>2006-06-11T12:04:24Z</time></trkpt>
<trkpt lat="47.12229900" lon="7.10930300"><ele>1063.142456</ele><time>2006-06-11T12:04:39Z</time></trkpt>
<trkpt lat="47.12217700" lon="7.10985100"><ele>1068.933594</ele><time>2006-06-11T12:05:00Z</time></trkpt>
<trkpt lat="47.12210500" lon="7.11026500"><ele>1071.981567</ele><time>2006-06-11T12:05:17Z</time></trkpt>
<trkpt lat="47.12198300" lon="7.11078600"><ele>1078.077637</ele><time>2006-06-11T12:05:36Z</time></trkpt>
<trkpt lat="47.12184500" lon="7.11135500"><ele>1082.954468</ele><time>2006-06-11T12:05:56Z</time></trkpt>
<trkpt lat="47.12176100" lon="7.11177700"><ele>1081.12561</ele><time>2006-06-11T12:06:13Z</time></trkpt>
<trkpt lat="47.12167400" lon="7.11216300"><ele>1086.91687</ele><time>2006-06-11T12:06:28Z</time></trkpt>
<trkpt lat="47.12161600" lon="7.11265100"><ele>1086.002441</ele><time>2006-06-11T12:06:46Z</time></trkpt>
<trkpt lat="47.12159700" lon="7.11308000"><ele>1086.91687</ele><time>2006-06-11T12:07:03Z</time></trkpt>
<trkpt lat="47.12158800" lon="7.11349000"><ele>1086.91687</ele><time>2006-06-11T12:07:18Z</time></trkpt>
<trkpt lat="47.12157800" lon="7.11390000"><ele>1096.97522</ele><time>2006-06-11T12:07:32Z</time></trkpt>
<trkpt lat="47.12156300" lon="7.11435000"><ele>1100.023193</ele><time>2006-06-11T12:07:50Z</time></trkpt>
<trkpt lat="47.12153600" lon="7.11489800"><ele>1100.023193</ele><time>2006-06-11T12:08:11Z</time></trkpt>
<trkpt lat="47.12151700" lon="7.11534300"><ele>1104.900024</ele><time>2006-06-11T12:08:28Z</time></trkpt>
<trkpt lat="47.12149000" lon="7.11581200"><ele>1103.985596</ele><time>2006-06-11T12:08:43Z</time></trkpt>
<trkpt lat="47.12150800" lon="7.11634900"><ele>1103.985596</ele><time>2006-06-11T12:09:05Z</time></trkpt>
<trkpt lat="47.12152500" lon="7.11688700"><ele>1110.081665</ele><time>2006-06-11T12:09:21Z</time></trkpt>
<trkpt lat="47.12156300" lon="7.11736100"><ele>1111.9104</ele><time>2006-06-11T12:09:38Z</time></trkpt>
<trkpt lat="47.12161600" lon="7.11787900"><ele>1114.044067</ele><time>2006-06-11T12:09:55Z</time></trkpt>
<trkpt lat="47.12165700" lon="7.11836200"><ele>1114.044067</ele><time>2006-06-11T12:10:10Z</time></trkpt>
<trkpt lat="47.12169800" lon="7.11884500"><ele>1114.044067</ele><time>2006-06-11T12:10:26Z</time></trkpt>
<trkpt lat="47.12173800" lon="7.11932800"><ele>1120.140015</ele><time>2006-06-11T12:10:43Z</time></trkpt>
<trkpt lat="47.12183400" lon="7.11983800"><ele>1121.968872</ele><time>2006-06-11T12:11:01Z</time></trkpt>
<trkpt lat="47.12184900" lon="7.12014500"><ele>1122.883179</ele><time>2006-06-11T12:11:13Z</time></trkpt>
<trkpt lat="47.12196700" lon="7.12062800"><ele>1129.893555</ele><time>2006-06-11T12:11:30Z</time></trkpt>
<trkpt lat="47.12207400" lon="7.12095000"><ele>1135.075195</ele><time>2006-06-11T12:11:44Z</time></trkpt>
<trkpt lat="47.12221900" lon="7.12141200"><ele>1138.123169</ele><time>2006-06-11T12:12:03Z</time></trkpt>
<trkpt lat="47.12233000" lon="7.12186400"><ele>1142.085571</ele><time>2006-06-11T12:12:21Z</time></trkpt>
<trkpt lat="47.12244400" lon="7.12211600"><ele>1140.866455</ele><time>2006-06-11T12:12:31Z</time></trkpt>
<trkpt lat="47.12248400" lon="7.12211000"><ele>1140.866455</ele><time>2006-06-11T12:12:33Z</time></trkpt>
<trkpt lat="47.12252400" lon="7.12210400"><ele>1140.866455</ele><time>2006-06-11T12:12:34Z</time></trkpt>
<trkpt lat="47.12256400" lon="7.12209900"><ele>1140.866455</ele><time>2006-06-11T12:15:39Z</time></trkpt>
<trkpt lat="47.12260400" lon="7.12209300"><ele>1135.075195</ele><time>2006-06-11T12:15:40Z</time></trkpt>
<trkpt lat="47.12260100" lon="7.12209400"><ele>1135.989624</ele><time>2006-06-11T12:15:40Z</time></trkpt>
<trkpt lat="47.12260100" lon="7.12209500"><ele>1135.989624</ele><time>2006-06-11T12:15:41Z</time></trkpt>
<trkpt lat="47.12260100" lon="7.12208600"><ele>1136.904053</ele><time>2006-06-11T12:15:46Z</time></trkpt>
<trkpt lat="47.12262000" lon="7.12199400"><ele>1139.952026</ele><time>2006-06-11T12:15:51Z</time></trkpt>
<trkpt lat="47.12274900" lon="7.12174400"><ele>1138.123169</ele><time>2006-06-11T12:16:03Z</time></trkpt>
<trkpt lat="47.12279100" lon="7.12151600"><ele>1140.866455</ele><time>2006-06-11T12:16:11Z</time></trkpt>
<trkpt lat="47.12270700" lon="7.12110500"><ele>1149.096069</ele><time>2006-06-11T12:16:24Z</time></trkpt>
<trkpt lat="47.12268100" lon="7.12098300"><ele>1149.096069</ele><time>2006-06-11T12:16:29Z</time></trkpt>
<trkpt lat="47.12267300" lon="7.12068400"><ele>1149.096069</ele><time>2006-06-11T12:16:38Z</time></trkpt>
<trkpt lat="47.12274600" lon="7.12026300"><ele>1147.876831</ele><time>2006-06-11T12:16:55Z</time></trkpt>
<trkpt lat="47.12286400" lon="7.11973200"><ele>1160.068848</ele><time>2006-06-11T12:17:14Z</time></trkpt>
<trkpt lat="47.12307400" lon="7.11938100"><ele>1161.897583</ele><time>2006-06-11T12:17:32Z</time></trkpt>
<trkpt lat="47.12331400" lon="7.11919400"><ele>1160.068848</ele><time>2006-06-11T12:17:45Z</time></trkpt>
<trkpt lat="47.12348600" lon="7.11892800"><ele>1167.993652</ele><time>2006-06-11T12:17:59Z</time></trkpt>
<trkpt lat="47.12361500" lon="7.11849700"><ele>1167.993652</ele><time>2006-06-11T12:18:14Z</time></trkpt>
<trkpt lat="47.12375300" lon="7.11798700"><ele>1167.993652</ele><time>2006-06-11T12:18:33Z</time></trkpt>
<trkpt lat="47.12388600" lon="7.11750800"><ele>1174.0896</ele><time>2006-06-11T12:18:52Z</time></trkpt>
<trkpt lat="47.12413400" lon="7.11711000"><ele>1261.87207</ele><time>2006-06-11T12:19:12Z</time></trkpt>
<trkpt lat="47.12433200" lon="7.11685800"><ele>1174.0896</ele><time>2006-06-11T12:19:28Z</time></trkpt>
<trkpt lat="47.12450000" lon="7.11668300"><ele>1177.137573</ele><time>2006-06-11T12:19:39Z</time></trkpt>
<trkpt lat="47.12470200" lon="7.11652500"><ele>1177.137573</ele><time>2006-06-11T12:19:54Z</time></trkpt>
<trkpt lat="47.12490500" lon="7.11636600"><ele>1184.148071</ele><time>2006-06-11T12:20:05Z</time></trkpt>
<trkpt lat="47.12504600" lon="7.11630500"><ele>1185.062378</ele><time>2006-06-11T12:20:13Z</time></trkpt>
<trkpt lat="47.12523300" lon="7.11621900"><ele>1185.062378</ele><time>2006-06-11T12:20:24Z</time></trkpt>
<trkpt lat="47.12542700" lon="7.11611300"><ele>1189.939209</ele><time>2006-06-11T12:20:36Z</time></trkpt>
<trkpt lat="47.12564800" lon="7.11598400"><ele>1193.901611</ele><time>2006-06-11T12:20:51Z</time></trkpt>
<trkpt lat="47.12580900" lon="7.11590500"><ele>1195.12085</ele><time>2006-06-11T12:21:00Z</time></trkpt>
<trkpt lat="47.12602600" lon="7.11579800"><ele>1197.864014</ele><time>2006-06-11T12:21:15Z</time></trkpt>
<trkpt lat="47.12621700" lon="7.11569400"><ele>1199.083252</ele><time>2006-06-11T12:21:29Z</time></trkpt>
<trkpt lat="47.12638100" lon="7.11560000"><ele>1202.131226</ele><time>2006-06-11T12:21:41Z</time></trkpt>
<trkpt lat="47.12656400" lon="7.11553000"><ele>1203.959961</ele><time>2006-06-11T12:21:53Z</time></trkpt>
<trkpt lat="47.12674300" lon="7.11556100"><ele>1206.093628</ele><time>2006-06-11T12:22:05Z</time></trkpt>
<trkpt lat="47.12691500" lon="7.11568500"><ele>1207.922363</ele><time>2006-06-11T12:22:18Z</time></trkpt>
<trkpt lat="47.12707500" lon="7.11576400"><ele>1210.05603</ele><time>2006-06-11T12:22:28Z</time></trkpt>
<trkpt lat="47.12722400" lon="7.11582700"><ele>1210.970459</ele><time>2006-06-11T12:22:39Z</time></trkpt>
<trkpt lat="47.12741100" lon="7.11582900"><ele>1214.018433</ele><time>2006-06-11T12:22:52Z</time></trkpt>
<trkpt lat="47.12759000" lon="7.11580700"><ele>1216.151978</ele><time>2006-06-11T12:23:05Z</time></trkpt>
<trkpt lat="47.12776900" lon="7.11584900"><ele>1217.980835</ele><time>2006-06-11T12:23:17Z</time></trkpt>
<trkpt lat="47.12791800" lon="7.11590900"><ele>1218.895264</ele><time>2006-06-11T12:23:26Z</time></trkpt>
<trkpt lat="47.12810900" lon="7.11599700"><ele>1221.943237</ele><time>2006-06-11T12:23:40Z</time></trkpt>
<trkpt lat="47.12832300" lon="7.11610200"><ele>1222.857666</ele><time>2006-06-11T12:23:54Z</time></trkpt>
<trkpt lat="47.12845600" lon="7.11616000"><ele>1224.991211</ele><time>2006-06-11T12:24:02Z</time></trkpt>
<trkpt lat="47.12862400" lon="7.11624700"><ele>1227.124756</ele><time>2006-06-11T12:24:14Z</time></trkpt>
<trkpt lat="47.12876500" lon="7.11633300"><ele>1228.039185</ele><time>2006-06-11T12:24:25Z</time></trkpt>
<trkpt lat="47.12889500" lon="7.11645100"><ele>1232.916016</ele><time>2006-06-11T12:24:34Z</time></trkpt>
<trkpt lat="47.12904000" lon="7.11659200"><ele>1235.049561</ele><time>2006-06-11T12:24:46Z</time></trkpt>
<trkpt lat="47.12917700" lon="7.11675700"><ele>1235.963989</ele><time>2006-06-11T12:24:58Z</time></trkpt>
<trkpt lat="47.12932200" lon="7.11693300"><ele>1239.011963</ele><time>2006-06-11T12:25:10Z</time></trkpt>
<trkpt lat="47.12947100" lon="7.11711800"><ele>1241.14563</ele><time>2006-06-11T12:25:23Z</time></trkpt>
<trkpt lat="47.12963500" lon="7.11731800"><ele>1242.060059</ele><time>2006-06-11T12:25:37Z</time></trkpt>
<trkpt lat="47.12967700" lon="7.11740500"><ele>1242.974365</ele><time>2006-06-11T12:25:42Z</time></trkpt>
<trkpt lat="47.12981800" lon="7.11758500"><ele>1246.022461</ele><time>2006-06-11T12:25:54Z</time></trkpt>
<trkpt lat="47.12996300" lon="7.11780000"><ele>1245.108032</ele><time>2006-06-11T12:26:07Z</time></trkpt>
<trkpt lat="47.13007000" lon="7.11800400"><ele>1246.022461</ele><time>2006-06-11T12:26:17Z</time></trkpt>
<trkpt lat="47.13018000" lon="7.11821800"><ele>1252.118408</ele><time>2006-06-11T12:26:29Z</time></trkpt>
<trkpt lat="47.13029900" lon="7.11846700"><ele>1253.947266</ele><time>2006-06-11T12:26:42Z</time></trkpt>
<trkpt lat="47.13039800" lon="7.11859900"><ele>1254.861572</ele><time>2006-06-11T12:26:52Z</time></trkpt>
<trkpt lat="47.13046300" lon="7.11878300"><ele>1256.080811</ele><time>2006-06-11T12:27:00Z</time></trkpt>
<trkpt lat="47.13053500" lon="7.11903200"><ele>1259.128784</ele><time>2006-06-11T12:27:12Z</time></trkpt>
<trkpt lat="47.13055000" lon="7.11928800"><ele>1259.128784</ele><time>2006-06-11T12:27:24Z</time></trkpt>
<trkpt lat="47.13049700" lon="7.11961100"><ele>1260.957642</ele><time>2006-06-11T12:27:38Z</time></trkpt>
<trkpt lat="47.13045100" lon="7.11985400"><ele>1261.87207</ele><time>2006-06-11T12:27:48Z</time></trkpt>
<trkpt lat="47.13039000" lon="7.12011100"><ele>1261.87207</ele><time>2006-06-11T12:27:58Z</time></trkpt>
<trkpt lat="47.13034100" lon="7.12037400"><ele>1264.005615</ele><time>2006-06-11T12:28:10Z</time></trkpt>
<trkpt lat="47.13028000" lon="7.12065300"><ele>1267.053589</ele><time>2006-06-11T12:28:21Z</time></trkpt>
<trkpt lat="47.13019600" lon="7.12103800"><ele>1271.015991</ele><time>2006-06-11T12:28:35Z</time></trkpt>
<trkpt lat="47.13013500" lon="7.12131000"><ele>1271.93042</ele><time>2006-06-11T12:28:45Z</time></trkpt>
<trkpt lat="47.13008100" lon="7.12154600"><ele>1273.149658</ele><time>2006-06-11T12:28:54Z</time></trkpt>
<trkpt lat="47.13003900" lon="7.12177700"><ele>1274.978394</ele><time>2006-06-11T12:29:02Z</time></trkpt>
<trkpt lat="47.12998200" lon="7.12201500"><ele>1275.892822</ele><time>2006-06-11T12:29:13Z</time></trkpt>
<trkpt lat="47.12998200" lon="7.12202300"><ele>1275.892822</ele><time>2006-06-11T12:29:13Z</time></trkpt>
<trkpt lat="47.12996200" lon="7.12238600"><ele>1275.892822</ele><time>2006-06-11T12:29:14Z</time></trkpt>
<trkpt lat="47.12994100" lon="7.12274900"><ele>1275.892822</ele><time>2006-06-11T12:35:04Z</time></trkpt>
<trkpt lat="47.12992100" lon="7.12311200"><ele>1278.026367</ele><time>2006-06-11T12:35:06Z</time></trkpt>
<trkpt lat="47.12992100" lon="7.12311200"><ele>1278.026367</ele><time>2006-06-11T12:35:07Z</time></trkpt>
<trkpt lat="47.12992900" lon="7.12338000"><ele>1277.112061</ele><time>2006-06-11T12:35:15Z</time></trkpt>
<trkpt lat="47.12993600" lon="7.12377700"><ele>1275.892822</ele><time>2006-06-11T12:35:22Z</time></trkpt>
<trkpt lat="47.13009300" lon="7.12433200"><ele>1274.063965</ele><time>2006-06-11T12:35:32Z</time></trkpt>
<trkpt lat="47.13034100" lon="7.12493000"><ele>1271.93042</ele><time>2006-06-11T12:35:41Z</time></trkpt>
<trkpt lat="47.13037500" lon="7.12500000"><ele>1271.93042</ele><time>2006-06-11T12:35:41Z</time></trkpt>
<trkpt lat="47.13082900" lon="7.12576500"><ele>1270.101563</ele><time>2006-06-11T12:35:53Z</time></trkpt>
<trkpt lat="47.13101200" lon="7.12633400"><ele>1267.968018</ele><time>2006-06-11T12:36:00Z</time></trkpt>
<trkpt lat="47.13108400" lon="7.12672300"><ele>1268.882446</ele><time>2006-06-11T12:36:06Z</time></trkpt>
<trkpt lat="47.13110700" lon="7.12694200"><ele>1268.882446</ele><time>2006-06-11T12:36:11Z</time></trkpt>
<trkpt lat="47.13112300" lon="7.12735700"><ele>1270.101563</ele><time>2006-06-11T12:36:19Z</time></trkpt>
<trkpt lat="47.13110400" lon="7.12789800"><ele>1271.93042</ele><time>2006-06-11T12:36:31Z</time></trkpt>
<trkpt lat="47.13111500" lon="7.12860200"><ele>1273.149658</ele><time>2006-06-11T12:36:46Z</time></trkpt>
<trkpt lat="47.13115700" lon="7.12909200"><ele>1274.063965</ele><time>2006-06-11T12:36:58Z</time></trkpt>
<trkpt lat="47.13116500" lon="7.12920200"><ele>1274.978394</ele><time>2006-06-11T12:37:02Z</time></trkpt>
<trkpt lat="47.13115900" lon="7.12924500"><ele>1274.978394</ele><time>2006-06-11T12:37:03Z</time></trkpt>
<trkpt lat="47.13115400" lon="7.12928900"><ele>1274.978394</ele><time>2006-06-11T12:37:54Z</time></trkpt>
<trkpt lat="47.13114900" lon="7.12933300"><ele>1278.940796</ele><time>2006-06-11T12:37:54Z</time></trkpt>
<trkpt lat="47.13114900" lon="7.12933200"><ele>1278.940796</ele><time>2006-06-11T12:37:55Z</time></trkpt>
<trkpt lat="47.13118700" lon="7.12948800"><ele>1278.940796</ele><time>2006-06-11T12:37:56Z</time></trkpt>
<trkpt lat="47.13122600" lon="7.12964400"><ele>1278.940796</ele><time>2006-06-11T12:38:02Z</time></trkpt>
<trkpt lat="47.13126400" lon="7.12980000"><ele>1281.074463</ele><time>2006-06-11T12:38:11Z</time></trkpt>
<trkpt lat="47.13133600" lon="7.12989000"><ele>1281.98877</ele><time>2006-06-11T12:38:13Z</time></trkpt>
<trkpt lat="47.13150400" lon="7.12996200"><ele>1282.903198</ele><time>2006-06-11T12:38:19Z</time></trkpt>
<trkpt lat="47.13182100" lon="7.13009500"><ele>1282.903198</ele><time>2006-06-11T12:38:28Z</time></trkpt>
<trkpt lat="47.13209500" lon="7.13021800"><ele>1281.98877</ele><time>2006-06-11T12:38:38Z</time></trkpt>
<trkpt lat="47.13232800" lon="7.13036500"><ele>1282.903198</ele><time>2006-06-11T12:38:46Z</time></trkpt>
<trkpt lat="47.13197100" lon="7.13086300"><ele>1282.903198</ele><time>2006-06-11T12:38:47Z</time></trkpt>
<trkpt lat="47.13161300" lon="7.13136100"><ele>1282.903198</ele><time>2006-06-11T12:43:43Z</time></trkpt>
<trkpt lat="47.13125600" lon="7.13185900"><ele>1299.057617</ele><time>2006-06-11T12:43:43Z</time></trkpt>
<trkpt lat="47.13125600" lon="7.13186100"><ele>1299.057617</ele><time>2006-06-11T12:43:44Z</time></trkpt>
<trkpt lat="47.13125600" lon="7.13186300"><ele>1299.057617</ele><time>2006-06-11T12:43:45Z</time></trkpt>
<trkpt lat="47.13116500" lon="7.13208600"><ele>1296.009644</ele><time>2006-06-11T12:43:52Z</time></trkpt>
<trkpt lat="47.13105800" lon="7.13226500"><ele>1295.095215</ele><time>2006-06-11T12:43:58Z</time></trkpt>
<trkpt lat="47.13097800" lon="7.13239700"><ele>1293.875977</ele><time>2006-06-11T12:44:02Z</time></trkpt>
<trkpt lat="47.13088600" lon="7.13258600"><ele>1293.875977</ele><time>2006-06-11T12:44:10Z</time></trkpt>
<trkpt lat="47.13084800" lon="7.13276800"><ele>1296.009644</ele><time>2006-06-11T12:44:19Z</time></trkpt>
<trkpt lat="47.13078600" lon="7.13317400"><ele>1296.009644</ele><time>2006-06-11T12:44:27Z</time></trkpt>
<trkpt lat="47.13072300" lon="7.13358100"><ele>1296.009644</ele><time>2006-06-11T12:44:41Z</time></trkpt>
<trkpt lat="47.13066100" lon="7.13398700"><ele>1296.009644</ele><time>2006-06-11T12:44:48Z</time></trkpt>
<trkpt lat="47.13059900" lon="7.13439300"><ele>1296.009644</ele><time>2006-06-11T12:44:53Z</time></trkpt>
<trkpt lat="47.13053600" lon="7.13480000"><ele>1296.009644</ele><time>2006-06-11T12:45:00Z</time></trkpt>
<trkpt lat="47.13047400" lon="7.13520600"><ele>1295.095215</ele><time>2006-06-11T12:45:06Z</time></trkpt>
<trkpt lat="47.13058500" lon="7.13542300"><ele>1292.047241</ele><time>2006-06-11T12:45:16Z</time></trkpt>
<trkpt lat="47.13063000" lon="7.13544000"><ele>1292.96167</ele><time>2006-06-11T12:45:19Z</time></trkpt>
<trkpt lat="47.13068400" lon="7.13549200"><ele>1295.095215</ele><time>2006-06-11T12:45:25Z</time></trkpt>
<trkpt lat="47.13076400" lon="7.13557500"><ele>1296.924072</ele><time>2006-06-11T12:45:32Z</time></trkpt>
<trkpt lat="47.13084000" lon="7.13568800"><ele>1296.924072</ele><time>2006-06-11T12:45:42Z</time></trkpt>
<trkpt lat="47.13094300" lon="7.13586800"><ele>1299.972046</ele><time>2006-06-11T12:45:56Z</time></trkpt>
<trkpt lat="47.13103900" lon="7.13595700"><ele>1306.067993</ele><time>2006-06-11T12:46:04Z</time></trkpt>
<trkpt lat="47.13118400" lon="7.13599600"><ele>1306.982422</ele><time>2006-06-11T12:46:15Z</time></trkpt>
<trkpt lat="47.13130600" lon="7.13601800"><ele>1309.115967</ele><time>2006-06-11T12:46:23Z</time></trkpt>
<trkpt lat="47.13140900" lon="7.13611800"><ele>1310.030396</ele><time>2006-06-11T12:46:31Z</time></trkpt>
<trkpt lat="47.13153800" lon="7.13633300"><ele>1311.859253</ele><time>2006-06-11T12:46:42Z</time></trkpt>
<trkpt lat="47.13160300" lon="7.13666400"><ele>1310.944824</ele><time>2006-06-11T12:46:54Z</time></trkpt>
<trkpt lat="47.13167600" lon="7.13696700"><ele>1310.030396</ele><time>2006-06-11T12:47:04Z</time></trkpt>
<trkpt lat="47.13178600" lon="7.13724400"><ele>1310.944824</ele><time>2006-06-11T12:47:13Z</time></trkpt>
<trkpt lat="47.13187800" lon="7.13744300"><ele>1313.078369</ele><time>2006-06-11T12:47:20Z</time></trkpt>
<trkpt lat="47.13192400" lon="7.13762600"><ele>1314.907227</ele><time>2006-06-11T12:47:28Z</time></trkpt>
<trkpt lat="47.13200800" lon="7.13788700"><ele>1316.126465</ele><time>2006-06-11T12:47:39Z</time></trkpt>
<trkpt lat="47.13205700" lon="7.13809200"><ele>1317.040771</ele><time>2006-06-11T12:47:47Z</time></trkpt>
<trkpt lat="47.13212600" lon="7.13833200"><ele>1317.9552</ele><time>2006-06-11T12:47:57Z</time></trkpt>
<trkpt lat="47.13218700" lon="7.13856300"><ele>1318.869629</ele><time>2006-06-11T12:48:04Z</time></trkpt>
<trkpt lat="47.13225700" lon="7.13892900"><ele>1318.869629</ele><time>2006-06-11T12:48:08Z</time></trkpt>
<trkpt lat="47.13232800" lon="7.13929600"><ele>1316.126465</ele><time>2006-06-11T12:48:15Z</time></trkpt>
<trkpt lat="47.13232800" lon="7.13969400"><ele>1314.907227</ele><time>2006-06-11T12:48:21Z</time></trkpt>
<trkpt lat="47.13236200" lon="7.13994000"><ele>1314.907227</ele><time>2006-06-11T12:48:27Z</time></trkpt>
<trkpt lat="47.13242300" lon="7.14028600"><ele>1314.907227</ele><time>2006-06-11T12:48:36Z</time></trkpt>
<trkpt lat="47.13248400" lon="7.14060100"><ele>1316.126465</ele><time>2006-06-11T12:48:44Z</time></trkpt>
<trkpt lat="47.13249200" lon="7.14085100"><ele>1314.907227</ele><time>2006-06-11T12:48:52Z</time></trkpt>
<trkpt lat="47.13249600" lon="7.14101600"><ele>1314.907227</ele><time>2006-06-11T12:48:53Z</time></trkpt>
<trkpt lat="47.13250000" lon="7.14118100"><ele>1314.907227</ele><time>2006-06-11T12:53:05Z</time></trkpt>
<trkpt lat="47.13250400" lon="7.14134500"><ele>1314.907227</ele><time>2006-06-11T12:53:07Z</time></trkpt>
<trkpt lat="47.13250700" lon="7.14138600"><ele>1314.907227</ele><time>2006-06-11T12:53:08Z</time></trkpt>
<trkpt lat="47.13254200" lon="7.14176100"><ele>1316.126465</ele><time>2006-06-11T12:53:16Z</time></trkpt>
<trkpt lat="47.13256500" lon="7.14187200"><ele>1317.040771</ele><time>2006-06-11T12:53:21Z</time></trkpt>
<trkpt lat="47.13258700" lon="7.14194700"><ele>1317.040771</ele><time>2006-06-11T12:53:24Z</time></trkpt>
<trkpt lat="47.13266000" lon="7.14214600"><ele>1317.9552</ele><time>2006-06-11T12:53:33Z</time></trkpt>
<trkpt lat="47.13276700" lon="7.14249700"><ele>1317.9552</ele><time>2006-06-11T12:53:42Z</time></trkpt>
<trkpt lat="47.13284700" lon="7.14284500"><ele>1317.040771</ele><time>2006-06-11T12:53:52Z</time></trkpt>
<trkpt lat="47.13287700" lon="7.14321200"><ele>1316.126465</ele><time>2006-06-11T12:53:59Z</time></trkpt>
<trkpt lat="47.13287000" lon="7.14355100"><ele>1316.126465</ele><time>2006-06-11T12:54:06Z</time></trkpt>
<trkpt lat="47.13288100" lon="7.14383400"><ele>1316.126465</ele><time>2006-06-11T12:54:12Z</time></trkpt>
<trkpt lat="47.13289300" lon="7.14411800"><ele>1311.859253</ele><time>2006-06-11T12:54:17Z</time></trkpt>
<trkpt lat="47.13293800" lon="7.14439100"><ele>1311.859253</ele><time>2006-06-11T12:54:24Z</time></trkpt>
<trkpt lat="47.13293800" lon="7.14472600"><ele>1311.859253</ele><time>2006-06-11T12:54:31Z</time></trkpt>
<trkpt lat="47.13291900" lon="7.14507200"><ele>1310.944824</ele><time>2006-06-11T12:54:37Z</time></trkpt>
<trkpt lat="47.13290800" lon="7.14519600"><ele>1310.944824</ele><time>2006-06-11T12:54:38Z</time></trkpt>
<trkpt lat="47.13293800" lon="7.14557700"><ele>1310.030396</ele><time>2006-06-11T12:54:44Z</time></trkpt>
<trkpt lat="47.13295700" lon="7.14606700"><ele>1309.115967</ele><time>2006-06-11T12:54:52Z</time></trkpt>
<trkpt lat="47.13298000" lon="7.14644900"><ele>1309.115967</ele><time>2006-06-11T12:54:59Z</time></trkpt>
<trkpt lat="47.13309100" lon="7.14709800"><ele>1309.115967</ele><time>2006-06-11T12:55:14Z</time></trkpt>
<trkpt lat="47.13317500" lon="7.14730200"><ele>1309.115967</ele><time>2006-06-11T12:55:18Z</time></trkpt>
<trkpt lat="47.13336900" lon="7.14766600"><ele>1309.115967</ele><time>2006-06-11T12:55:28Z</time></trkpt>
<trkpt lat="47.13357900" lon="7.14784600"><ele>1309.115967</ele><time>2006-06-11T12:55:36Z</time></trkpt>
<trkpt lat="47.13380400" lon="7.14791300"><ele>1310.030396</ele><time>2006-06-11T12:55:46Z</time></trkpt>
<trkpt lat="47.13389600" lon="7.14791400"><ele>1310.944824</ele><time>2006-06-11T12:55:49Z</time></trkpt>
<trkpt lat="47.13398700" lon="7.14810800"><ele>1310.944824</ele><time>2006-06-11T12:55:55Z</time></trkpt>
<trkpt lat="47.13411700" lon="7.14831400"><ele>1313.078369</ele><time>2006-06-11T12:56:05Z</time></trkpt>
<trkpt lat="47.13425100" lon="7.14846200"><ele>1313.992798</ele><time>2006-06-11T12:56:14Z</time></trkpt>
<trkpt lat="47.13442200" lon="7.14861100"><ele>1314.907227</ele><time>2006-06-11T12:56:25Z</time></trkpt>
<trkpt lat="47.13461700" lon="7.14876400"><ele>1317.040771</ele><time>2006-06-11T12:56:34Z</time></trkpt>
<trkpt lat="47.13476600" lon="7.14884100"><ele>1317.040771</ele><time>2006-06-11T12:56:44Z</time></trkpt>
<trkpt lat="47.13490700" lon="7.14894900"><ele>1317.040771</ele><time>2006-06-11T12:56:51Z</time></trkpt>
<trkpt lat="47.13510900" lon="7.14909500"><ele>1318.869629</ele><time>2006-06-11T12:57:02Z</time></trkpt>
<trkpt lat="47.13514300" lon="7.14914700"><ele>1318.869629</ele><time>2006-06-11T12:57:04Z</time></trkpt>
<trkpt lat="47.13507800" lon="7.14912100"><ele>1318.869629</ele><time>2006-06-11T12:57:05Z</time></trkpt>
<trkpt lat="47.13501400" lon="7.14909400"><ele>1318.869629</ele><time>2006-06-11T13:01:50Z</time></trkpt>
<trkpt lat="47.13494900" lon="7.14906800"><ele>1317.9552</ele><time>2006-06-11T13:01:50Z</time></trkpt>
<trkpt lat="47.13494900" lon="7.14906800"><ele>1317.9552</ele><time>2006-06-11T13:01:51Z</time></trkpt>
<trkpt lat="47.13494900" lon="7.14906800"><ele>1317.9552</ele><time>2006-06-11T13:01:52Z</time></trkpt>
<trkpt lat="47.13507600" lon="7.14923100"><ele>1317.9552</ele><time>2006-06-11T13:01:56Z</time></trkpt>
<trkpt lat="47.13520400" lon="7.14939400"><ele>1317.9552</ele><time>2006-06-11T13:01:56Z</time></trkpt>
<trkpt lat="47.13533100" lon="7.14955700"><ele>1317.9552</ele><time>2006-06-11T13:01:58Z</time></trkpt>
<trkpt lat="47.13545900" lon="7.14972000"><ele>1317.9552</ele><time>2006-06-11T13:02:02Z</time></trkpt>
<trkpt lat="47.13558600" lon="7.14988200"><ele>1317.9552</ele><time>2006-06-11T13:02:02Z</time></trkpt>
<trkpt lat="47.13571400" lon="7.15004500"><ele>1317.9552</ele><time>2006-06-11T13:02:07Z</time></trkpt>
<trkpt lat="47.13584100" lon="7.15020800"><ele>1306.982422</ele><time>2006-06-11T13:02:13Z</time></trkpt>
<trkpt lat="47.13600200" lon="7.15034700"><ele>1306.067993</ele><time>2006-06-11T13:02:15Z</time></trkpt>
<trkpt lat="47.13615000" lon="7.15049600"><ele>1306.067993</ele><time>2006-06-11T13:02:16Z</time></trkpt>
<trkpt lat="47.13618500" lon="7.15070700"><ele>1304.848877</ele><time>2006-06-11T13:02:19Z</time></trkpt>
<trkpt lat="47.13600900" lon="7.15130500"><ele>1300.886475</ele><time>2006-06-11T13:02:24Z</time></trkpt>
<trkpt lat="47.13595200" lon="7.15158900"><ele>1299.972046</ele><time>2006-06-11T13:02:28Z</time></trkpt>
<trkpt lat="47.13594300" lon="7.15164900"><ele>1299.972046</ele><time>2006-06-11T13:02:33Z</time></trkpt>
<trkpt lat="47.13593500" lon="7.15171000"><ele>1299.972046</ele><time>2006-06-11T13:02:34Z</time></trkpt>
<trkpt lat="47.13592600" lon="7.15177100"><ele>1299.972046</ele><time>2006-06-11T13:03:44Z</time></trkpt>
<trkpt lat="47.13591800" lon="7.15183100"><ele>1292.96167</ele><time>2006-06-11T13:03:45Z</time></trkpt>
<trkpt lat="47.13588300" lon="7.15182700"><ele>1292.96167</ele><time>2006-06-11T13:03:46Z</time></trkpt>
<trkpt lat="47.13578400" lon="7.15166100"><ele>1292.96167</ele><time>2006-06-11T13:03:50Z</time></trkpt>
<trkpt lat="47.13568500" lon="7.15149600"><ele>1292.96167</ele><time>2006-06-11T13:03:55Z</time></trkpt>
<trkpt lat="47.13558600" lon="7.15133000"><ele>1292.96167</ele><time>2006-06-11T13:03:57Z</time></trkpt>
<trkpt lat="47.13548700" lon="7.15116500"><ele>1288.999268</ele><time>2006-06-11T13:03:58Z</time></trkpt>
<trkpt lat="47.13501400" lon="7.15130200"><ele>1288.084839</ele><time>2006-06-11T13:04:05Z</time></trkpt>
<trkpt lat="47.13481100" lon="7.15141100"><ele>1286.865601</ele><time>2006-06-11T13:04:09Z</time></trkpt>
<trkpt lat="47.13428900" lon="7.15147400"><ele>1285.036865</ele><time>2006-06-11T13:04:16Z</time></trkpt>
<trkpt lat="47.13387700" lon="7.15131900"><ele>1284.122437</ele><time>2006-06-11T13:04:22Z</time></trkpt>
<trkpt lat="47.13380100" lon="7.15127800"><ele>1282.903198</ele><time>2006-06-11T13:04:22Z</time></trkpt>
<trkpt lat="47.13327000" lon="7.15106400"><ele>1279.855225</ele><time>2006-06-11T13:04:29Z</time></trkpt>
<trkpt lat="47.13311000" lon="7.15100700"><ele>1278.026367</ele><time>2006-06-11T13:04:31Z</time></trkpt>
<trkpt lat="47.13289600" lon="7.15059300"><ele>1278.026367</ele><time>2006-06-11T13:04:33Z</time></trkpt>
<trkpt lat="47.13268100" lon="7.15017800"><ele>1278.026367</ele><time>2006-06-11T13:04:35Z</time></trkpt>
<trkpt lat="47.13246700" lon="7.14976400"><ele>1278.026367</ele><time>2006-06-11T13:04:35Z</time></trkpt>
<trkpt lat="47.13225300" lon="7.14935000"><ele>1278.026367</ele><time>2006-06-11T13:05:26Z</time></trkpt>
<trkpt lat="47.13203800" lon="7.14893600"><ele>1267.968018</ele><time>2006-06-11T13:05:26Z</time></trkpt>
<trkpt lat="47.13174400" lon="7.14789000"><ele>1278.026367</ele><time>2006-06-11T13:05:34Z</time></trkpt>
<trkpt lat="47.13145100" lon="7.14684500"><ele>1267.968018</ele><time>2006-06-11T13:05:45Z</time></trkpt>
<trkpt lat="47.13131700" lon="7.14607200"><ele>1268.882446</ele><time>2006-06-11T13:05:52Z</time></trkpt>
<trkpt lat="47.13110000" lon="7.14521600"><ele>1270.101563</ele><time>2006-06-11T13:06:00Z</time></trkpt>
<trkpt lat="47.13084000" lon="7.14422500"><ele>1266.13916</ele><time>2006-06-11T13:06:10Z</time></trkpt>
<trkpt lat="47.13052400" lon="7.14315800"><ele>1266.13916</ele><time>2006-06-11T13:06:24Z</time></trkpt>
<trkpt lat="47.13020700" lon="7.14209200"><ele>1254.861572</ele><time>2006-06-11T13:06:35Z</time></trkpt>
<trkpt lat="47.13010400" lon="7.14180300"><ele>1254.861572</ele><time>2006-06-11T13:06:37Z</time></trkpt>
<trkpt lat="47.12980300" lon="7.14136300"><ele>1252.118408</ele><time>2006-06-11T13:06:42Z</time></trkpt>
<trkpt lat="47.12947800" lon="7.14044800"><ele>1249.070435</ele><time>2006-06-11T13:06:50Z</time></trkpt>
<trkpt lat="47.12915600" lon="7.13975600"><ele>1249.070435</ele><time>2006-06-11T13:07:00Z</time></trkpt>
<trkpt lat="47.12883300" lon="7.13906500"><ele>1249.070435</ele><time>2006-06-11T13:07:05Z</time></trkpt>
<trkpt lat="47.12851000" lon="7.13837400"><ele>1249.070435</ele><time>2006-06-11T13:07:11Z</time></trkpt>
<trkpt lat="47.12818700" lon="7.13768200"><ele>1249.070435</ele><time>2006-06-11T13:07:14Z</time></trkpt>
<trkpt lat="47.12786400" lon="7.13699100"><ele>1249.070435</ele><time>2006-06-11T13:07:20Z</time></trkpt>
<trkpt lat="47.12754200" lon="7.13629900"><ele>1249.070435</ele><time>2006-06-11T13:07:33Z</time></trkpt>
<trkpt lat="47.12721900" lon="7.13560800"><ele>1249.070435</ele><time>2006-06-11T13:07:43Z</time></trkpt>
<trkpt lat="47.12689600" lon="7.13491700"><ele>1222.857666</ele><time>2006-06-11T13:07:48Z</time></trkpt>
<trkpt lat="47.12682300" lon="7.13477100"><ele>1249.070435</ele><time>2006-06-11T13:07:58Z</time></trkpt>
<trkpt lat="47.12675000" lon="7.13462600"><ele>1249.070435</ele><time>2006-06-11T13:08:06Z</time></trkpt>
<trkpt lat="47.12667700" lon="7.13448000"><ele>1249.070435</ele><time>2006-06-11T13:08:11Z</time></trkpt>
<trkpt lat="47.12660400" lon="7.13433500"><ele>1249.070435</ele><time>2006-06-11T13:08:12Z</time></trkpt>
<trkpt lat="47.12653100" lon="7.13419000"><ele>1249.070435</ele><time>2006-06-11T13:08:13Z</time></trkpt>
<trkpt lat="47.12645800" lon="7.13404400"><ele>1249.070435</ele><time>2006-06-11T13:08:41Z</time></trkpt>
<trkpt lat="47.12638500" lon="7.13389900"><ele>1189.02478</ele><time>2006-06-11T13:08:42Z</time></trkpt>
<trkpt lat="47.12637700" lon="7.13387800"><ele>1189.02478</ele><time>2006-06-11T13:08:43Z</time></trkpt>
<trkpt lat="47.12623600" lon="7.13349200"><ele>1178.966431</ele><time>2006-06-11T13:08:55Z</time></trkpt>
<trkpt lat="47.12620500" lon="7.13336300"><ele>1174.0896</ele><time>2006-06-11T13:08:57Z</time></trkpt>
<trkpt lat="47.12612500" lon="7.13318700"><ele>1172.870361</ele><time>2006-06-11T13:09:02Z</time></trkpt>
<trkpt lat="47.12597300" lon="7.13289500"><ele>1170.127197</ele><time>2006-06-11T13:09:10Z</time></trkpt>
<trkpt lat="47.12588500" lon="7.13267200"><ele>1167.079224</ele><time>2006-06-11T13:09:16Z</time></trkpt>
<trkpt lat="47.12581500" lon="7.13252900"><ele>1167.079224</ele><time>2006-06-11T13:09:25Z</time></trkpt>
<trkpt lat="47.12574600" lon="7.13238700"><ele>1167.079224</ele><time>2006-06-11T13:09:26Z</time></trkpt>
<trkpt lat="47.12567600" lon="7.13224400"><ele>1167.079224</ele><time>2006-06-11T13:10:00Z</time></trkpt>
<trkpt lat="47.12560700" lon="7.13210200"><ele>1158.849609</ele><time>2006-06-11T13:10:01Z</time></trkpt>
<trkpt lat="47.12556800" lon="7.13202400"><ele>1154.887207</ele><time>2006-06-11T13:10:11Z</time></trkpt>
<trkpt lat="47.12554200" lon="7.13197900"><ele>1153.972778</ele><time>2006-06-11T13:10:12Z</time></trkpt>
<trkpt lat="47.12536600" lon="7.13154800"><ele>1152.144043</ele><time>2006-06-11T13:10:25Z</time></trkpt>
<trkpt lat="47.12509900" lon="7.13092000"><ele>1150.010376</ele><time>2006-06-11T13:10:39Z</time></trkpt>
<trkpt lat="47.12496400" lon="7.13055300"><ele>1150.010376</ele><time>2006-06-11T13:10:44Z</time></trkpt>
<trkpt lat="47.12482800" lon="7.13018500"><ele>1146.962402</ele><time>2006-06-11T13:10:48Z</time></trkpt>
<trkpt lat="47.12442400" lon="7.12910300"><ele>1146.047974</ele><time>2006-06-11T13:10:57Z</time></trkpt>
<trkpt lat="47.12439000" lon="7.12902300"><ele>1146.047974</ele><time>2006-06-11T13:10:58Z</time></trkpt>
<trkpt lat="47.12399700" lon="7.12843300"><ele>1140.866455</ele><time>2006-06-11T13:11:09Z</time></trkpt>
<trkpt lat="47.12384400" lon="7.12812900"><ele>1140.866455</ele><time>2006-06-11T13:11:13Z</time></trkpt>
<trkpt lat="47.12369200" lon="7.12782600"><ele>1142.085571</ele><time>2006-06-11T13:11:19Z</time></trkpt>
<trkpt lat="47.12355400" lon="7.12744600"><ele>1146.047974</ele><time>2006-06-11T13:11:24Z</time></trkpt>
<trkpt lat="47.12339400" lon="7.12678000"><ele>1146.962402</ele><time>2006-06-11T13:11:36Z</time></trkpt>
<trkpt lat="47.12326000" lon="7.12598700"><ele>1150.010376</ele><time>2006-06-11T13:11:52Z</time></trkpt>
<trkpt lat="47.12287500" lon="7.12491900"><ele>1143</ele><time>2006-06-11T13:12:11Z</time></trkpt>
<trkpt lat="47.12271500" lon="7.12427900"><ele>1136.904053</ele><time>2006-06-11T13:12:19Z</time></trkpt>
<trkpt lat="47.12248200" lon="7.12357900"><ele>1138.123169</ele><time>2006-06-11T13:12:29Z</time></trkpt>
<trkpt lat="47.12236400" lon="7.12300400"><ele>1139.952026</ele><time>2006-06-11T13:12:37Z</time></trkpt>
<trkpt lat="47.12233700" lon="7.12245700"><ele>1145.133667</ele><time>2006-06-11T13:12:45Z</time></trkpt>
<trkpt lat="47.12237200" lon="7.12229400"><ele>1145.133667</ele><time>2006-06-11T13:12:54Z</time></trkpt>
<trkpt lat="47.12240600" lon="7.12213200"><ele>1146.962402</ele><time>2006-06-11T13:12:57Z</time></trkpt>
<trkpt lat="47.12241400" lon="7.12252100"><ele>1145.133667</ele><time>2006-06-11T13:13:07Z</time></trkpt>
<trkpt lat="47.12242300" lon="7.12290900"><ele>1145.133667</ele><time>2006-06-11T13:13:15Z</time></trkpt>
<trkpt lat="47.12243100" lon="7.12329700"><ele>1145.133667</ele><time>2006-06-11T13:13:22Z</time></trkpt>
<trkpt lat="47.12244000" lon="7.12368500"><ele>1145.133667</ele><time>2006-06-11T13:13:22Z</time></trkpt>
<trkpt lat="47.12244800" lon="7.12407400"><ele>1146.047974</ele><time>2006-06-11T13:13:29Z</time></trkpt>
<trkpt lat="47.12229200" lon="7.12390100"><ele>1145.133667</ele><time>2006-06-11T13:13:35Z</time></trkpt>
<trkpt lat="47.12218100" lon="7.12373600"><ele>1143</ele><time>2006-06-11T13:13:39Z</time></trkpt>
<trkpt lat="47.12190100" lon="7.12303800"><ele>1143</ele><time>2006-06-11T13:13:50Z</time></trkpt>
<trkpt lat="47.12162000" lon="7.12234000"><ele>1143</ele><time>2006-06-11T13:14:07Z</time></trkpt>
<trkpt lat="47.12134000" lon="7.12164200"><ele>1143</ele><time>2006-06-11T13:14:24Z</time></trkpt>
<trkpt lat="47.12105900" lon="7.12094400"><ele>1143</ele><time>2006-06-11T13:14:37Z</time></trkpt>
<trkpt lat="47.12077900" lon="7.12024600"><ele>1143</ele><time>2006-06-11T13:14:46Z</time></trkpt>
<trkpt lat="47.12049900" lon="7.11954700"><ele>1124.102417</ele><time>2006-06-11T13:14:58Z</time></trkpt>
<trkpt lat="47.12013400" lon="7.11845800"><ele>1143</ele><time>2006-06-11T13:15:09Z</time></trkpt>
<trkpt lat="47.11977000" lon="7.11736800"><ele>1143</ele><time>2006-06-11T13:15:27Z</time></trkpt>
<trkpt lat="47.11940600" lon="7.11627800"><ele>1143</ele><time>2006-06-11T13:15:36Z</time></trkpt>
<trkpt lat="47.11904100" lon="7.11518800"><ele>1124.102417</ele><time>2006-06-11T13:15:42Z</time></trkpt>
<trkpt lat="47.11896700" lon="7.11470700"><ele>1143</ele><time>2006-06-11T13:15:49Z</time></trkpt>
<trkpt lat="47.11889300" lon="7.11422500"><ele>1124.102417</ele><time>2006-06-11T13:15:50Z</time></trkpt>
<trkpt lat="47.11888500" lon="7.11400900"><ele>1143</ele><time>2006-06-11T13:15:56Z</time></trkpt>
<trkpt lat="47.11887600" lon="7.11379300"><ele>1143</ele><time>2006-06-11T13:16:08Z</time></trkpt>
<trkpt lat="47.11886800" lon="7.11357800"><ele>1143</ele><time>2006-06-11T13:16:09Z</time></trkpt>
<trkpt lat="47.11886000" lon="7.11336200"><ele>1143</ele><time>2006-06-11T13:16:12Z</time></trkpt>
<trkpt lat="47.11885200" lon="7.11314600"><ele>1143</ele><time>2006-06-11T13:16:14Z</time></trkpt>
<trkpt lat="47.11884400" lon="7.11293000"><ele>1143</ele><time>2006-06-11T13:16:14Z</time></trkpt>
<trkpt lat="47.11883600" lon="7.11271500"><ele>1143</ele><time>2006-06-11T13:17:25Z</time></trkpt>
<trkpt lat="47.11882800" lon="7.11249900"><ele>1014.984009</ele><time>2006-06-11T13:17:26Z</time></trkpt>
<trkpt lat="47.11882800" lon="7.11249800"><ele>1014.984009</ele><time>2006-06-11T13:17:28Z</time></trkpt>
<trkpt lat="47.11882800" lon="7.11249600"><ele>1015.898438</ele><time>2006-06-11T13:17:29Z</time></trkpt>
<trkpt lat="47.11882800" lon="7.11249600"><ele>1014.984009</ele><time>2006-06-11T13:17:30Z</time></trkpt>
<trkpt lat="47.11881600" lon="7.11246900"><ele>1014.984009</ele><time>2006-06-11T13:17:30Z</time></trkpt>
<trkpt lat="47.11881400" lon="7.11245900"><ele>1014.984009</ele><time>2006-06-11T13:17:31Z</time></trkpt>
<trkpt lat="47.11881300" lon="7.11244900"><ele>1014.069641</ele><time>2006-06-11T13:17:32Z</time></trkpt>
<trkpt lat="47.11873200" lon="7.11215600"><ele>1014.984009</ele><time>2006-06-11T13:17:36Z</time></trkpt>
<trkpt lat="47.11865100" lon="7.11186200"><ele>1014.984009</ele><time>2006-06-11T13:17:36Z</time></trkpt>
<trkpt lat="47.11857100" lon="7.11156900"><ele>1014.984009</ele><time>2006-06-11T13:17:43Z</time></trkpt>
<trkpt lat="47.11849000" lon="7.11127500"><ele>1014.984009</ele><time>2006-06-11T13:17:47Z</time></trkpt>
<trkpt lat="47.11841000" lon="7.11098100"><ele>1014.984009</ele><time>2006-06-11T13:17:50Z</time></trkpt>
<trkpt lat="47.11832900" lon="7.11068800"><ele>1014.984009</ele><time>2006-06-11T13:17:53Z</time></trkpt>
<trkpt lat="47.11824800" lon="7.11039400"><ele>1014.984009</ele><time>2006-06-11T13:17:57Z</time></trkpt>
<trkpt lat="47.11816800" lon="7.11010100"><ele>997.915222</ele><time>2006-06-11T13:18:00Z</time></trkpt>
<trkpt lat="47.11811400" lon="7.11004300"><ele>997.915222</ele><time>2006-06-11T13:18:01Z</time></trkpt>
<trkpt lat="47.11785100" lon="7.10975700"><ele>997.915222</ele><time>2006-06-11T13:18:06Z</time></trkpt>
<trkpt lat="47.11758800" lon="7.10947100"><ele>989.990417</ele><time>2006-06-11T13:18:09Z</time></trkpt>
<trkpt lat="47.11752700" lon="7.10939200"><ele>989.990417</ele><time>2006-06-11T13:18:10Z</time></trkpt>
<trkpt lat="47.11729700" lon="7.10922600"><ele>989.990417</ele><time>2006-06-11T13:18:13Z</time></trkpt>
<trkpt lat="47.11706700" lon="7.10906000"><ele>989.990417</ele><time>2006-06-11T13:18:14Z</time></trkpt>
<trkpt lat="47.11683700" lon="7.10889500"><ele>987.856812</ele><time>2006-06-11T13:18:23Z</time></trkpt>
<trkpt lat="47.11677600" lon="7.10891300"><ele>987.856812</ele><time>2006-06-11T13:18:25Z</time></trkpt>
<trkpt lat="47.11673300" lon="7.10899400"><ele>987.856812</ele><time>2006-06-11T13:18:26Z</time></trkpt>
<trkpt lat="47.11669000" lon="7.10907500"><ele>987.856812</ele><time>2006-06-11T13:18:27Z</time></trkpt>
<trkpt lat="47.11664700" lon="7.10915600"><ele>987.856812</ele><time>2006-06-11T13:18:27Z</time></trkpt>
<trkpt lat="47.11660400" lon="7.10923700"><ele>987.856812</ele><time>2006-06-11T13:18:28Z</time></trkpt>
<trkpt lat="47.11656100" lon="7.10931800"><ele>987.856812</ele><time>2006-06-11T13:18:29Z</time></trkpt>
<trkpt lat="47.11651800" lon="7.10939900"><ele>987.856812</ele><time>2006-06-11T13:18:31Z</time></trkpt>
<trkpt lat="47.11647500" lon="7.10948000"><ele>987.856812</ele><time>2006-06-11T13:18:32Z</time></trkpt>
<trkpt lat="47.11643200" lon="7.10956100"><ele>985.113586</ele><time>2006-06-11T13:18:33Z</time></trkpt>
<trkpt lat="47.11632000" lon="7.10983300"><ele>987.856812</ele><time>2006-06-11T13:18:34Z</time></trkpt>
<trkpt lat="47.11620700" lon="7.11010400"><ele>982.065613</ele><time>2006-06-11T13:18:38Z</time></trkpt>
<trkpt lat="47.11586000" lon="7.10978400"><ele>975.055237</ele><time>2006-06-11T13:18:42Z</time></trkpt>
<trkpt lat="47.11566200" lon="7.10951000"><ele>968.959229</ele><time>2006-06-11T13:18:46Z</time></trkpt>
<trkpt lat="47.11559300" lon="7.10943300"><ele>964.996826</ele><time>2006-06-11T13:18:50Z</time></trkpt>
<trkpt lat="47.11557000" lon="7.10942400"><ele>962.86322</ele><time>2006-06-11T13:18:51Z</time></trkpt>
<trkpt lat="47.11544800" lon="7.10965400"><ele>955.852783</ele><time>2006-06-11T13:18:57Z</time></trkpt>
<trkpt lat="47.11509700" lon="7.11032600"><ele>954.023987</ele><time>2006-06-11T13:19:09Z</time></trkpt>
<trkpt lat="47.11473600" lon="7.11147400"><ele>954.023987</ele><time>2006-06-11T13:19:23Z</time></trkpt>
<trkpt lat="47.11437500" lon="7.11262200"><ele>954.023987</ele><time>2006-06-11T13:19:29Z</time></trkpt>
<trkpt lat="47.11401400" lon="7.11377000"><ele>953.109619</ele><time>2006-06-11T13:19:37Z</time></trkpt>
<trkpt lat="47.11393400" lon="7.11485500"><ele>953.109619</ele><time>2006-06-11T13:19:45Z</time></trkpt>
<trkpt lat="47.11378900" lon="7.11502100"><ele>953.109619</ele><time>2006-06-11T13:19:52Z</time></trkpt>
<trkpt lat="47.11364500" lon="7.11518600"><ele>953.109619</ele><time>2006-06-11T13:19:58Z</time></trkpt>
<trkpt lat="47.11350100" lon="7.11535100"><ele>953.109619</ele><time>2006-06-11T13:20:00Z</time></trkpt>
<trkpt lat="47.11335700" lon="7.11551700"><ele>953.109619</ele><time>2006-06-11T13:21:23Z</time></trkpt>
<trkpt lat="47.11321300" lon="7.11568200"><ele>850.087219</ele><time>2006-06-11T13:21:24Z</time></trkpt>
<trkpt lat="47.11321500" lon="7.11567100"><ele>953.109619</ele><time>2006-06-11T13:21:25Z</time></trkpt>
<trkpt lat="47.11321800" lon="7.11566000"><ele>953.109619</ele><time>2006-06-11T13:21:25Z</time></trkpt>
<trkpt lat="47.11322100" lon="7.11564900"><ele>953.109619</ele><time>2006-06-11T13:26:04Z</time></trkpt>
<trkpt lat="47.11322400" lon="7.11563800"><ele>847.953613</ele><time>2006-06-11T13:26:05Z</time></trkpt>
<trkpt lat="47.11320100" lon="7.11558700"><ele>847.039185</ele><time>2006-06-11T13:26:05Z</time></trkpt>
<trkpt lat="47.11306800" lon="7.11524300"><ele>846.124817</ele><time>2006-06-11T13:26:11Z</time></trkpt>
<trkpt lat="47.11291500" lon="7.11471000"><ele>843.991211</ele><time>2006-06-11T13:26:19Z</time></trkpt>
<trkpt lat="47.11283900" lon="7.11424100"><ele>844.90564</ele><time>2006-06-11T13:26:26Z</time></trkpt>
<trkpt lat="47.11274000" lon="7.11348600"><ele>843.991211</ele><time>2006-06-11T13:26:37Z</time></trkpt>
<trkpt lat="47.11246900" lon="7.11285400"><ele>846.124817</ele><time>2006-06-11T13:26:49Z</time></trkpt>
<trkpt lat="47.11233100" lon="7.11255700"><ele>847.039185</ele><time>2006-06-11T13:26:55Z</time></trkpt>
<trkpt lat="47.11211800" lon="7.11207000"><ele>847.039185</ele><time>2006-06-11T13:27:03Z</time></trkpt>
<trkpt lat="47.11179700" lon="7.11146300"><ele>850.087219</ele><time>2006-06-11T13:27:14Z</time></trkpt>
<trkpt lat="47.11160700" lon="7.11115400"><ele>854.049622</ele><time>2006-06-11T13:27:21Z</time></trkpt>
<trkpt lat="47.11130500" lon="7.11073600"><ele>851.001587</ele><time>2006-06-11T13:27:29Z</time></trkpt>
<trkpt lat="47.11099600" lon="7.11013900"><ele>851.001587</ele><time>2006-06-11T13:27:40Z</time></trkpt>
<trkpt lat="47.11076400" lon="7.10938400"><ele>858.926392</ele><time>2006-06-11T13:27:52Z</time></trkpt>
<trkpt lat="47.11051200" lon="7.10835900"><ele>865.936829</ele><time>2006-06-11T13:28:05Z</time></trkpt>
<trkpt lat="47.11030200" lon="7.10748700"><ele>866.851196</ele><time>2006-06-11T13:28:18Z</time></trkpt>
<trkpt lat="47.11005000" lon="7.10631000"><ele>866.851196</ele><time>2006-06-11T13:28:32Z</time></trkpt>
<trkpt lat="47.10987900" lon="7.10551400"><ele>861.059998</ele><time>2006-06-11T13:28:43Z</time></trkpt>
<trkpt lat="47.10978300" lon="7.10466600"><ele>858.012024</ele><time>2006-06-11T13:28:55Z</time></trkpt>
<trkpt lat="47.10970300" lon="7.10355300"><ele>855.878418</ele><time>2006-06-11T13:29:09Z</time></trkpt>
<trkpt lat="47.10966100" lon="7.10244700"><ele>854.963989</ele><time>2006-06-11T13:29:22Z</time></trkpt>
<trkpt lat="47.10976400" lon="7.10125400"><ele>855.878418</ele><time>2006-06-11T13:29:38Z</time></trkpt>
<trkpt lat="47.10982500" lon="7.10029600"><ele>858.012024</ele><time>2006-06-11T13:29:49Z</time></trkpt>
<trkpt lat="47.10980600" lon="7.09922500"><ele>858.926392</ele><time>2006-06-11T13:30:02Z</time></trkpt>
<trkpt lat="47.10982500" lon="7.09831500"><ele>858.926392</ele><time>2006-06-11T13:30:13Z</time></trkpt>
<trkpt lat="47.10998200" lon="7.09741700"><ele>860.14563</ele><time>2006-06-11T13:30:25Z</time></trkpt>
<trkpt lat="47.10997400" lon="7.09675800"><ele>861.059998</ele><time>2006-06-11T13:30:32Z</time></trkpt>
<trkpt lat="47.10984400" lon="7.09584800"><ele>861.974426</ele><time>2006-06-11T13:30:44Z</time></trkpt>
<trkpt lat="47.10965700" lon="7.09458900"><ele>862.888794</ele><time>2006-06-11T13:30:58Z</time></trkpt>
<trkpt lat="47.10948600" lon="7.09342800"><ele>865.0224</ele><time>2006-06-11T13:31:12Z</time></trkpt>
<trkpt lat="47.10945900" lon="7.09266500"><ele>865.936829</ele><time>2006-06-11T13:31:22Z</time></trkpt>
<trkpt lat="47.10957700" lon="7.09171700"><ele>865.0224</ele><time>2006-06-11T13:31:33Z</time></trkpt>
<trkpt lat="47.10971800" lon="7.09054700"><ele>866.851196</ele><time>2006-06-11T13:31:46Z</time></trkpt>
<trkpt lat="47.10989800" lon="7.08906800"><ele>868.070435</ele><time>2006-06-11T13:32:01Z</time></trkpt>
<trkpt lat="47.11005800" lon="7.08783800"><ele>869.899231</ele><time>2006-06-11T13:32:15Z</time></trkpt>
<trkpt lat="47.11024900" lon="7.08696800"><ele>871.118408</ele><time>2006-06-11T13:32:26Z</time></trkpt>
<trkpt lat="47.11045800" lon="7.08659100"><ele>872.032837</ele><time>2006-06-11T13:32:32Z</time></trkpt>
<trkpt lat="47.11082100" lon="7.08623700"><ele>873.861633</ele><time>2006-06-11T13:32:40Z</time></trkpt>
<trkpt lat="47.11127100" lon="7.08587200"><ele>875.995239</ele><time>2006-06-11T13:32:51Z</time></trkpt>
<trkpt lat="47.11172500" lon="7.08563300"><ele>878.128784</ele><time>2006-06-11T13:33:03Z</time></trkpt>
<trkpt lat="47.11209100" lon="7.08567200"><ele>879.957581</ele><time>2006-06-11T13:33:10Z</time></trkpt>
<trkpt lat="47.11238500" lon="7.08573600"><ele>879.957581</ele><time>2006-06-11T13:33:17Z</time></trkpt>
<trkpt lat="47.11254100" lon="7.08572200"><ele>879.957581</ele><time>2006-06-11T13:33:19Z</time></trkpt>
<trkpt lat="47.11259100" lon="7.08570400"><ele>879.957581</ele><time>2006-06-11T13:33:21Z</time></trkpt>
<trkpt lat="47.11268600" lon="7.08563900"><ele>879.957581</ele><time>2006-06-11T13:33:23Z</time></trkpt>
<trkpt lat="47.11276600" lon="7.08554600"><ele>879.043213</ele><time>2006-06-11T13:33:24Z</time></trkpt>
<trkpt lat="47.11282700" lon="7.08542000"><ele>879.043213</ele><time>2006-06-11T13:33:27Z</time></trkpt>
<trkpt lat="47.11286500" lon="7.08527100"><ele>878.128784</ele><time>2006-06-11T13:33:29Z</time></trkpt>
<trkpt lat="47.11293000" lon="7.08447100"><ele>876.909607</ele><time>2006-06-11T13:33:38Z</time></trkpt>
<trkpt lat="47.11299900" lon="7.08423900"><ele>876.909607</ele><time>2006-06-11T13:33:42Z</time></trkpt>
<trkpt lat="47.11304500" lon="7.08418500"><ele>876.909607</ele><time>2006-06-11T13:33:42Z</time></trkpt>
<trkpt lat="47.11340000" lon="7.08382600"><ele>878.128784</ele><time>2006-06-11T13:33:49Z</time></trkpt>
<trkpt lat="47.11344100" lon="7.08375900"><ele>878.128784</ele><time>2006-06-11T13:33:50Z</time></trkpt>
<trkpt lat="47.11350300" lon="7.08361100"><ele>878.128784</ele><time>2006-06-11T13:33:53Z</time></trkpt>
<trkpt lat="47.11353300" lon="7.08344500"><ele>878.128784</ele><time>2006-06-11T13:33:55Z</time></trkpt>
<trkpt lat="47.11352900" lon="7.08327900"><ele>878.128784</ele><time>2006-06-11T13:33:56Z</time></trkpt>
<trkpt lat="47.11349100" lon="7.08312300"><ele>878.128784</ele><time>2006-06-11T13:33:59Z</time></trkpt>
<trkpt lat="47.11342600" lon="7.08299200"><ele>879.043213</ele><time>2006-06-11T13:34:01Z</time></trkpt>
<trkpt lat="47.11309100" lon="7.08259500"><ele>882.091187</ele><time>2006-06-11T13:34:09Z</time></trkpt>
<trkpt lat="47.11290700" lon="7.08229300"><ele>885.139221</ele><time>2006-06-11T13:34:16Z</time></trkpt>
<trkpt lat="47.11275900" lon="7.08179800"><ele>889.101624</ele><time>2006-06-11T13:34:26Z</time></trkpt>
<trkpt lat="47.11286200" lon="7.08155800"><ele>890.93042</ele><time>2006-06-11T13:34:33Z</time></trkpt>
<trkpt lat="47.11313200" lon="7.08133600"><ele>892.149597</ele><time>2006-06-11T13:34:43Z</time></trkpt>
<trkpt lat="47.11302600" lon="7.08100900"><ele>896.112</ele><time>2006-06-11T13:34:51Z</time></trkpt>
<trkpt lat="47.11276600" lon="7.08065300"><ele>897.940796</ele><time>2006-06-11T13:35:00Z</time></trkpt>
<trkpt lat="47.11248800" lon="7.08025700"><ele>897.940796</ele><time>2006-06-11T13:35:11Z</time></trkpt>
<trkpt lat="47.11225100" lon="7.07986200"><ele>894.892822</ele><time>2006-06-11T13:35:19Z</time></trkpt>
<trkpt lat="47.11204100" lon="7.07937300"><ele>892.149597</ele><time>2006-06-11T13:35:25Z</time></trkpt>
<trkpt lat="47.11174400" lon="7.07862500"><ele>886.968018</ele><time>2006-06-11T13:35:32Z</time></trkpt>
<trkpt lat="47.11133600" lon="7.07761300"><ele>880.872009</ele><time>2006-06-11T13:35:41Z</time></trkpt>
<trkpt lat="47.11128200" lon="7.07747800"><ele>879.957581</ele><time>2006-06-11T13:35:42Z</time></trkpt>
<trkpt lat="47.11094300" lon="7.07647500"><ele>873.861633</ele><time>2006-06-11T13:35:49Z</time></trkpt>
<trkpt lat="47.11088600" lon="7.07581400"><ele>871.118408</ele><time>2006-06-11T13:35:53Z</time></trkpt>
<trkpt lat="47.11087800" lon="7.07564500"><ele>871.118408</ele><time>2006-06-11T13:35:54Z</time></trkpt>
<trkpt lat="47.11085900" lon="7.07547600"><ele>869.899231</ele><time>2006-06-11T13:35:55Z</time></trkpt>
<trkpt lat="47.11077900" lon="7.07515800"><ele>868.070435</ele><time>2006-06-11T13:35:56Z</time></trkpt>
<trkpt lat="47.11063400" lon="7.07490000"><ele>866.851196</ele><time>2006-06-11T13:35:59Z</time></trkpt>
<trkpt lat="47.11017600" lon="7.07439100"><ele>868.070435</ele><time>2006-06-11T13:36:04Z</time></trkpt>
<trkpt lat="47.10970300" lon="7.07375300"><ele>866.851196</ele><time>2006-06-11T13:36:13Z</time></trkpt>
<trkpt lat="47.10938300" lon="7.07300300"><ele>865.936829</ele><time>2006-06-11T13:36:21Z</time></trkpt>
<trkpt lat="47.10892100" lon="7.07166600"><ele>862.888794</ele><time>2006-06-11T13:36:34Z</time></trkpt>
<trkpt lat="47.10858200" lon="7.07083300"><ele>861.059998</ele><time>2006-06-11T13:36:42Z</time></trkpt>
<trkpt lat="47.10818100" lon="7.07021000"><ele>858.926392</ele><time>2006-06-11T13:36:50Z</time></trkpt>
<trkpt lat="47.10759400" lon="7.06953300"><ele>858.012024</ele><time>2006-06-11T13:36:59Z</time></trkpt>
<trkpt lat="47.10651800" lon="7.06848900"><ele>855.878418</ele><time>2006-06-11T13:37:14Z</time></trkpt>
<trkpt lat="47.10571700" lon="7.06762300"><ele>850.087219</ele><time>2006-06-11T13:37:26Z</time></trkpt>
<trkpt lat="47.10498000" lon="7.06682600"><ele>844.90564</ele><time>2006-06-11T13:37:37Z</time></trkpt>
<trkpt lat="47.10437800" lon="7.06617700"><ele>840.943237</ele><time>2006-06-11T13:37:44Z</time></trkpt>
<trkpt lat="47.10345500" lon="7.06519000"><ele>836.980835</ele><time>2006-06-11T13:37:56Z</time></trkpt>
<trkpt lat="47.10268400" lon="7.06436300"><ele>833.9328</ele><time>2006-06-11T13:38:07Z</time></trkpt>
<trkpt lat="47.10199700" lon="7.06370000"><ele>832.104004</ele><time>2006-06-11T13:38:15Z</time></trkpt>
<trkpt lat="47.10116600" lon="7.06310700"><ele>828.141602</ele><time>2006-06-11T13:38:26Z</time></trkpt>
<trkpt lat="47.10017400" lon="7.06244600"><ele>825.093628</ele><time>2006-06-11T13:38:38Z</time></trkpt>
<trkpt lat="47.09947200" lon="7.06203600"><ele>823.87439</ele><time>2006-06-11T13:38:47Z</time></trkpt>
<trkpt lat="47.09890700" lon="7.06179300"><ele>822.960022</ele><time>2006-06-11T13:38:54Z</time></trkpt>
<trkpt lat="47.09867500" lon="7.06174100"><ele>822.960022</ele><time>2006-06-11T13:38:59Z</time></trkpt>
<trkpt lat="47.09841900" lon="7.06167700"><ele>822.960022</ele><time>2006-06-11T13:39:02Z</time></trkpt>
<trkpt lat="47.09832400" lon="7.06156200"><ele>822.960022</ele><time>2006-06-11T13:39:05Z</time></trkpt>
<trkpt lat="47.09828200" lon="7.06139400"><ele>823.87439</ele><time>2006-06-11T13:39:06Z</time></trkpt>
<trkpt lat="47.09833100" lon="7.06081800"><ele>823.87439</ele><time>2006-06-11T13:39:13Z</time></trkpt>
<trkpt lat="47.09838500" lon="7.06006100"><ele>823.87439</ele><time>2006-06-11T13:39:24Z</time></trkpt>
<trkpt lat="47.09844200" lon="7.05925500"><ele>825.093628</ele><time>2006-06-11T13:39:35Z</time></trkpt>
<trkpt lat="47.09850300" lon="7.05833500"><ele>826.922424</ele><time>2006-06-11T13:39:48Z</time></trkpt>
<trkpt lat="47.09854900" lon="7.05752200"><ele>829.970398</ele><time>2006-06-11T13:39:59Z</time></trkpt>
<trkpt lat="47.09859800" lon="7.05677300"><ele>832.104004</ele><time>2006-06-11T13:40:11Z</time></trkpt>
<trkpt lat="47.09864400" lon="7.05604700"><ele>833.9328</ele><time>2006-06-11T13:40:24Z</time></trkpt>
<trkpt lat="47.09868600" lon="7.05547100"><ele>836.066406</ele><time>2006-06-11T13:40:35Z</time></trkpt>
<trkpt lat="47.09873200" lon="7.05476000"><ele>837.895203</ele><time>2006-06-11T13:40:48Z</time></trkpt>
<trkpt lat="47.09877400" lon="7.05410500"><ele>839.11438</ele><time>2006-06-11T13:41:00Z</time></trkpt>
<trkpt lat="47.09880800" lon="7.05343700"><ele>843.076782</ele><time>2006-06-11T13:41:13Z</time></trkpt>
<trkpt lat="47.09882700" lon="7.05267700"><ele>847.953613</ele><time>2006-06-11T13:41:26Z</time></trkpt>
<trkpt lat="47.09882700" lon="7.05212000"><ele>851.001587</ele><time>2006-06-11T13:41:38Z</time></trkpt>
<trkpt lat="47.09878200" lon="7.05155700"><ele>854.963989</ele><time>2006-06-11T13:41:49Z</time></trkpt>
<trkpt lat="47.09871300" lon="7.05101800"><ele>858.012024</ele><time>2006-06-11T13:42:00Z</time></trkpt>
<trkpt lat="47.09865200" lon="7.05060400"><ele>861.059998</ele><time>2006-06-11T13:42:10Z</time></trkpt>
<trkpt lat="47.09853400" lon="7.04999600"><ele>864.108032</ele><time>2006-06-11T13:42:25Z</time></trkpt>
<trkpt lat="47.09841500" lon="7.04954200"><ele>866.851196</ele><time>2006-06-11T13:42:37Z</time></trkpt>
<trkpt lat="47.09828600" lon="7.04909500"><ele>869.899231</ele><time>2006-06-11T13:42:48Z</time></trkpt>
<trkpt lat="47.09812900" lon="7.04865900"><ele>872.032837</ele><time>2006-06-11T13:43:00Z</time></trkpt>
<trkpt lat="47.09794200" lon="7.04816900"><ele>873.861633</ele><time>2006-06-11T13:43:13Z</time></trkpt>
<trkpt lat="47.09778600" lon="7.04778900"><ele>875.995239</ele><time>2006-06-11T13:43:22Z</time></trkpt>
<trkpt lat="47.09754900" lon="7.04719000"><ele>878.128784</ele><time>2006-06-11T13:43:38Z</time></trkpt>
<trkpt lat="47.09736600" lon="7.04672200"><ele>879.043213</ele><time>2006-06-11T13:43:48Z</time></trkpt>
<trkpt lat="47.09706100" lon="7.04608400"><ele>879.957581</ele><time>2006-06-11T13:44:03Z</time></trkpt>
<trkpt lat="47.09678600" lon="7.04560000"><ele>882.091187</ele><time>2006-06-11T13:44:13Z</time></trkpt>
<trkpt lat="47.09645800" lon="7.04507100"><ele>885.139221</ele><time>2006-06-11T13:44:26Z</time></trkpt>
<trkpt lat="47.09615300" lon="7.04459300"><ele>886.968018</ele><time>2006-06-11T13:44:38Z</time></trkpt>
<trkpt lat="47.09596300" lon="7.04426300"><ele>887.882385</ele><time>2006-06-11T13:44:47Z</time></trkpt>
<trkpt lat="47.09565700" lon="7.04375000"><ele>890.015991</ele><time>2006-06-11T13:44:59Z</time></trkpt>
<trkpt lat="47.09529500" lon="7.04318000"><ele>890.93042</ele><time>2006-06-11T13:45:12Z</time></trkpt>
<trkpt lat="47.09492100" lon="7.04248900"><ele>893.064026</ele><time>2006-06-11T13:45:26Z</time></trkpt>
<trkpt lat="47.09462700" lon="7.04192800"><ele>893.978394</ele><time>2006-06-11T13:45:36Z</time></trkpt>
<trkpt lat="47.09426100" lon="7.04121400"><ele>896.112</ele><time>2006-06-11T13:45:51Z</time></trkpt>
<trkpt lat="47.09395600" lon="7.04063400"><ele>897.940796</ele><time>2006-06-11T13:46:01Z</time></trkpt>
<trkpt lat="47.09358200" lon="7.03990800"><ele>898.855225</ele><time>2006-06-11T13:46:14Z</time></trkpt>
<trkpt lat="47.09354400" lon="7.03984900"><ele>898.855225</ele><time>2006-06-11T13:46:16Z</time></trkpt>
<trkpt lat="47.09312400" lon="7.03904500"><ele>900.988831</ele><time>2006-06-11T13:46:31Z</time></trkpt>
<trkpt lat="47.09270100" lon="7.03819700"><ele>903.122437</ele><time>2006-06-11T13:46:47Z</time></trkpt>
<trkpt lat="47.09229300" lon="7.03740700"><ele>904.036804</ele><time>2006-06-11T13:47:02Z</time></trkpt>
<trkpt lat="47.09198800" lon="7.03680100"><ele>905.865601</ele><time>2006-06-11T13:47:15Z</time></trkpt>
<trkpt lat="47.09166300" lon="7.03619100"><ele>907.999207</ele><time>2006-06-11T13:47:27Z</time></trkpt>
<trkpt lat="47.09135100" lon="7.03556600"><ele>910.132813</ele><time>2006-06-11T13:47:39Z</time></trkpt>
<trkpt lat="47.09108700" lon="7.03505300"><ele>911.047241</ele><time>2006-06-11T13:47:48Z</time></trkpt>
<trkpt lat="47.09073300" lon="7.03435900"><ele>911.047241</ele><time>2006-06-11T13:48:02Z</time></trkpt>
<trkpt lat="47.09037000" lon="7.03372500"><ele>914.095215</ele><time>2006-06-11T13:48:16Z</time></trkpt>
<trkpt lat="47.08990900" lon="7.03306300"><ele>917.143188</ele><time>2006-06-11T13:48:31Z</time></trkpt>
<trkpt lat="47.08952700" lon="7.03263000"><ele>918.971985</ele><time>2006-06-11T13:48:42Z</time></trkpt>
<trkpt lat="47.08905000" lon="7.03218400"><ele>921.105591</ele><time>2006-06-11T13:48:55Z</time></trkpt>
<trkpt lat="47.08871500" lon="7.03194100"><ele>922.02002</ele><time>2006-06-11T13:49:03Z</time></trkpt>
<trkpt lat="47.08815000" lon="7.03157500"><ele>923.848816</ele><time>2006-06-11T13:49:17Z</time></trkpt>
<trkpt lat="47.08764600" lon="7.03136300"><ele>925.982422</ele><time>2006-06-11T13:49:29Z</time></trkpt>
<trkpt lat="47.08755900" lon="7.03133500"><ele>925.067993</ele><time>2006-06-11T13:49:31Z</time></trkpt>
<trkpt lat="47.08704400" lon="7.03122500"><ele>925.067993</ele><time>2006-06-11T13:49:43Z</time></trkpt>
<trkpt lat="47.08651400" lon="7.03116800"><ele>926.89679</ele><time>2006-06-11T13:49:55Z</time></trkpt>
<trkpt lat="47.08606300" lon="7.03114600"><ele>928.116028</ele><time>2006-06-11T13:50:07Z</time></trkpt>
<trkpt lat="47.08565100" lon="7.03109600"><ele>930.859192</ele><time>2006-06-11T13:50:18Z</time></trkpt>
<trkpt lat="47.08534600" lon="7.03094100"><ele>932.992798</ele><time>2006-06-11T13:50:27Z</time></trkpt>
<trkpt lat="47.08500700" lon="7.03060700"><ele>936.040833</ele><time>2006-06-11T13:50:40Z</time></trkpt>
<trkpt lat="47.08469000" lon="7.03015500"><ele>939.088806</ele><time>2006-06-11T13:50:55Z</time></trkpt>
<trkpt lat="47.08438500" lon="7.02974100"><ele>942.136841</ele><time>2006-06-11T13:51:08Z</time></trkpt>
<trkpt lat="47.08408000" lon="7.02941000"><ele>943.051208</ele><time>2006-06-11T13:51:19Z</time></trkpt>
<trkpt lat="47.08366800" lon="7.02907000"><ele>944.880005</ele><time>2006-06-11T13:51:33Z</time></trkpt>
<trkpt lat="47.08309600" lon="7.02873200"><ele>946.099182</ele><time>2006-06-11T13:51:48Z</time></trkpt>
<trkpt lat="47.08289000" lon="7.02868700"><ele>946.099182</ele><time>2006-06-11T13:51:54Z</time></trkpt>
<trkpt lat="47.08284800" lon="7.02867100"><ele>946.099182</ele><time>2006-06-11T13:51:55Z</time></trkpt>
<trkpt lat="47.08250400" lon="7.02837900"><ele>949.147217</ele><time>2006-06-11T13:52:03Z</time></trkpt>
<trkpt lat="47.08247000" lon="7.02834500"><ele>949.147217</ele><time>2006-06-11T13:52:05Z</time></trkpt>
<trkpt lat="47.08229800" lon="7.02810300"><ele>947.92804</ele><time>2006-06-11T13:52:09Z</time></trkpt>
<trkpt lat="47.08221400" lon="7.02800600"><ele>947.92804</ele><time>2006-06-11T13:52:12Z</time></trkpt>
<trkpt lat="47.08216500" lon="7.02796700"><ele>947.013611</ele><time>2006-06-11T13:52:13Z</time></trkpt>
<trkpt lat="47.08156600" lon="7.02757300"><ele>943.965637</ele><time>2006-06-11T13:52:22Z</time></trkpt>
<trkpt lat="47.08115000" lon="7.02727700"><ele>942.136841</ele><time>2006-06-11T13:52:28Z</time></trkpt>
<trkpt lat="47.08046700" lon="7.02670100"><ele>939.088806</ele><time>2006-06-11T13:52:38Z</time></trkpt>
<trkpt lat="47.07971600" lon="7.02623000"><ele>936.040833</ele><time>2006-06-11T13:52:46Z</time></trkpt>
<trkpt lat="47.07936100" lon="7.02609400"><ele>933.907227</ele><time>2006-06-11T13:52:51Z</time></trkpt>
<trkpt lat="47.07859800" lon="7.02583100"><ele>929.944824</ele><time>2006-06-11T13:52:58Z</time></trkpt>
<trkpt lat="47.07782400" lon="7.02545100"><ele>926.89679</ele><time>2006-06-11T13:53:06Z</time></trkpt>
<trkpt lat="47.07689700" lon="7.02495800"><ele>922.934387</ele><time>2006-06-11T13:53:17Z</time></trkpt>
<trkpt lat="47.07635100" lon="7.02453100"><ele>922.02002</ele><time>2006-06-11T13:53:24Z</time></trkpt>
<trkpt lat="47.07588200" lon="7.02409300"><ele>922.02002</ele><time>2006-06-11T13:53:30Z</time></trkpt>
<trkpt lat="47.07529800" lon="7.02339600"><ele>919.886414</ele><time>2006-06-11T13:53:40Z</time></trkpt>
<trkpt lat="47.07466500" lon="7.02276500"><ele>921.105591</ele><time>2006-06-11T13:53:49Z</time></trkpt>
<trkpt lat="47.07460000" lon="7.02271600"><ele>922.02002</ele><time>2006-06-11T13:53:50Z</time></trkpt>
<trkpt lat="47.07421500" lon="7.02249900"><ele>922.934387</ele><time>2006-06-11T13:53:56Z</time></trkpt>
<trkpt lat="47.07384100" lon="7.02235500"><ele>922.934387</ele><time>2006-06-11T13:54:02Z</time></trkpt>
<trkpt lat="47.07338700" lon="7.02226600"><ele>922.02002</ele><time>2006-06-11T13:54:10Z</time></trkpt>
<trkpt lat="47.07283800" lon="7.02218200"><ele>918.057617</ele><time>2006-06-11T13:54:19Z</time></trkpt>
<trkpt lat="47.07239500" lon="7.02199500"><ele>915.009583</ele><time>2006-06-11T13:54:25Z</time></trkpt>
<trkpt lat="47.07171600" lon="7.02135400"><ele>914.095215</ele><time>2006-06-11T13:54:35Z</time></trkpt>
<trkpt lat="47.07103700" lon="7.02076400"><ele>914.095215</ele><time>2006-06-11T13:54:46Z</time></trkpt>
<trkpt lat="47.07037700" lon="7.02041700"><ele>915.009583</ele><time>2006-06-11T13:54:57Z</time></trkpt>
<trkpt lat="47.06978200" lon="7.02019200"><ele>915.009583</ele><time>2006-06-11T13:55:06Z</time></trkpt>
<trkpt lat="47.06920600" lon="7.01982600"><ele>917.143188</ele><time>2006-06-11T13:55:18Z</time></trkpt>
<trkpt lat="47.06840900" lon="7.01915600"><ele>917.143188</ele><time>2006-06-11T13:55:33Z</time></trkpt>
<trkpt lat="47.06790500" lon="7.01889900"><ele>914.095215</ele><time>2006-06-11T13:55:43Z</time></trkpt>
<trkpt lat="47.06740600" lon="7.01871000"><ele>911.961609</ele><time>2006-06-11T13:55:50Z</time></trkpt>
<trkpt lat="47.06699000" lon="7.01837600"><ele>911.047241</ele><time>2006-06-11T13:55:57Z</time></trkpt>
<trkpt lat="47.06656300" lon="7.01780200"><ele>910.132813</ele><time>2006-06-11T13:56:06Z</time></trkpt>
<trkpt lat="47.06610900" lon="7.01727600"><ele>907.999207</ele><time>2006-06-11T13:56:13Z</time></trkpt>
<trkpt lat="47.06552500" lon="7.01684500"><ele>904.036804</ele><time>2006-06-11T13:56:20Z</time></trkpt>
<trkpt lat="47.06534600" lon="7.01671000"><ele>903.122437</ele><time>2006-06-11T13:56:21Z</time></trkpt>
<trkpt lat="47.06489600" lon="7.01622200"><ele>898.855225</ele><time>2006-06-11T13:56:27Z</time></trkpt>
<trkpt lat="47.06441500" lon="7.01599800"><ele>897.026428</ele><time>2006-06-11T13:56:30Z</time></trkpt>
<trkpt lat="47.06403000" lon="7.01589900"><ele>894.892822</ele><time>2006-06-11T13:56:34Z</time></trkpt>
<trkpt lat="47.06390800" lon="7.01584000"><ele>893.978394</ele><time>2006-06-11T13:56:34Z</time></trkpt>
<trkpt lat="47.06337000" lon="7.01536600"><ele>890.015991</ele><time>2006-06-11T13:56:40Z</time></trkpt>
<trkpt lat="47.06327100" lon="7.01527000"><ele>889.101624</ele><time>2006-06-11T13:56:41Z</time></trkpt>
<trkpt lat="47.06305300" lon="7.01513300"><ele>887.882385</ele><time>2006-06-11T13:56:42Z</time></trkpt>
<trkpt lat="47.06231700" lon="7.01495600"><ele>882.091187</ele><time>2006-06-11T13:56:48Z</time></trkpt>
<trkpt lat="47.06114200" lon="7.01474000"><ele>873.861633</ele><time>2006-06-11T13:56:57Z</time></trkpt>
<trkpt lat="47.06066500" lon="7.01464200"><ele>869.899231</ele><time>2006-06-11T13:57:00Z</time></trkpt>
<trkpt lat="47.06017700" lon="7.01443600"><ele>866.851196</ele><time>2006-06-11T13:57:02Z</time></trkpt>
<trkpt lat="47.05891400" lon="7.01345600"><ele>855.878418</ele><time>2006-06-11T13:57:11Z</time></trkpt>
<trkpt lat="47.05809400" lon="7.01284800"><ele>848.867981</ele><time>2006-06-11T13:57:16Z</time></trkpt>
<trkpt lat="47.05702200" lon="7.01220800"><ele>839.11438</ele><time>2006-06-11T13:57:23Z</time></trkpt>
<trkpt lat="47.05648000" lon="7.01200700"><ele>835.152039</ele><time>2006-06-11T13:57:26Z</time></trkpt>
<trkpt lat="47.05624000" lon="7.01185700"><ele>833.018433</ele><time>2006-06-11T13:57:29Z</time></trkpt>
<trkpt lat="47.05603000" lon="7.01165000"><ele>829.970398</ele><time>2006-06-11T13:57:31Z</time></trkpt>
<trkpt lat="47.05585900" lon="7.01139100"><ele>828.141602</ele><time>2006-06-11T13:57:32Z</time></trkpt>
<trkpt lat="47.05559500" lon="7.01052500"><ele>822.960022</ele><time>2006-06-11T13:57:38Z</time></trkpt>
<trkpt lat="47.05521800" lon="7.00960600"><ele>815.949585</ele><time>2006-06-11T13:57:43Z</time></trkpt>
<trkpt lat="47.05502700" lon="7.00926800"><ele>812.901611</ele><time>2006-06-11T13:57:44Z</time></trkpt>
<trkpt lat="47.05447000" lon="7.00886700"><ele>807.110413</ele><time>2006-06-11T13:57:49Z</time></trkpt>
<trkpt lat="47.05416500" lon="7.00875100"><ele>803.14801</ele><time>2006-06-11T13:57:50Z</time></trkpt>
<trkpt lat="47.05364200" lon="7.00841500"><ele>794.918396</ele><time>2006-06-11T13:57:55Z</time></trkpt>
<trkpt lat="47.05336000" lon="7.00811300"><ele>790.955994</ele><time>2006-06-11T13:57:57Z</time></trkpt>
<trkpt lat="47.05328800" lon="7.00801800"><ele>789.127197</ele><time>2006-06-11T13:57:58Z</time></trkpt>
<trkpt lat="47.05318800" lon="7.00754800"><ele>789.127197</ele><time>2006-06-11T13:58:04Z</time></trkpt>
<trkpt lat="47.05308900" lon="7.00707900"><ele>786.079224</ele><time>2006-06-11T13:58:07Z</time></trkpt>
<trkpt lat="47.05294400" lon="7.00632600"><ele>786.079224</ele><time>2006-06-11T13:58:16Z</time></trkpt>
<trkpt lat="47.05296300" lon="7.00602000"><ele>786.079224</ele><time>2006-06-11T13:58:21Z</time></trkpt>
<trkpt lat="47.05298200" lon="7.00571500"><ele>786.079224</ele><time>2006-06-11T13:58:31Z</time></trkpt>
<trkpt lat="47.05300100" lon="7.00540900"><ele>786.993591</ele><time>2006-06-11T13:58:42Z</time></trkpt>
<trkpt lat="47.05291400" lon="7.00485000"><ele>787.90802</ele><time>2006-06-11T13:59:05Z</time></trkpt>
<trkpt lat="47.05289700" lon="7.00484300"><ele>787.90802</ele><time>2006-06-11T13:59:09Z</time></trkpt>
<trkpt lat="47.05288000" lon="7.00483600"><ele>787.90802</ele><time>2006-06-11T13:59:11Z</time></trkpt>
<trkpt lat="47.05286300" lon="7.00482900"><ele>787.90802</ele><time>2006-06-11T14:00:41Z</time></trkpt>
<trkpt lat="47.05284700" lon="7.00482200"><ele>787.90802</ele><time>2006-06-11T14:00:42Z</time></trkpt>
<trkpt lat="47.05283000" lon="7.00481600"><ele>818.083191</ele><time>2006-06-11T14:00:42Z</time></trkpt>
<trkpt lat="47.05240300" lon="7.00485500"><ele>787.90802</ele><time>2006-06-11T14:00:53Z</time></trkpt>
<trkpt lat="47.05197700" lon="7.00489500"><ele>787.90802</ele><time>2006-06-11T14:00:57Z</time></trkpt>
<trkpt lat="47.05155100" lon="7.00493500"><ele>787.90802</ele><time>2006-06-11T14:01:00Z</time></trkpt>
<trkpt lat="47.05112500" lon="7.00497400"><ele>818.083191</ele><time>2006-06-11T14:01:07Z</time></trkpt>
<trkpt lat="47.05089000" lon="7.00487000"><ele>787.90802</ele><time>2006-06-11T14:01:11Z</time></trkpt>
<trkpt lat="47.05065500" lon="7.00476500"><ele>818.083191</ele><time>2006-06-11T14:01:14Z</time></trkpt>
<trkpt lat="47.05015900" lon="7.00380700"><ele>787.90802</ele><time>2006-06-11T14:01:20Z</time></trkpt>
<trkpt lat="47.04966400" lon="7.00284900"><ele>818.083191</ele><time>2006-06-11T14:01:33Z</time></trkpt>
<trkpt lat="47.04927100" lon="7.00257000"><ele>818.083191</ele><time>2006-06-11T14:01:38Z</time></trkpt>
<trkpt lat="47.04889800" lon="7.00191100"><ele>818.083191</ele><time>2006-06-11T14:01:43Z</time></trkpt>
<trkpt lat="47.04852600" lon="7.00125200"><ele>818.083191</ele><time>2006-06-11T14:01:51Z</time></trkpt>
<trkpt lat="47.04815400" lon="7.00059300"><ele>818.083191</ele><time>2006-06-11T14:01:54Z</time></trkpt>
<trkpt lat="47.04778100" lon="6.99993400"><ele>818.083191</ele><time>2006-06-11T14:02:03Z</time></trkpt>
<trkpt lat="47.04740900" lon="6.99927500"><ele>711.098389</ele><time>2006-06-11T14:02:12Z</time></trkpt>
<trkpt lat="47.04703200" lon="6.99925700"><ele>818.083191</ele><time>2006-06-11T14:02:24Z</time></trkpt>
<trkpt lat="47.04665600" lon="6.99923800"><ele>818.083191</ele><time>2006-06-11T14:02:26Z</time></trkpt>
<trkpt lat="47.04627900" lon="6.99922000"><ele>818.083191</ele><time>2006-06-11T14:02:28Z</time></trkpt>
<trkpt lat="47.04590200" lon="6.99920200"><ele>708.050415</ele><time>2006-06-11T14:02:30Z</time></trkpt>
<trkpt lat="47.04564500" lon="6.99922200"><ele>818.083191</ele><time>2006-06-11T14:02:35Z</time></trkpt>
<trkpt lat="47.04538900" lon="6.99924200"><ele>818.083191</ele><time>2006-06-11T14:02:36Z</time></trkpt>
<trkpt lat="47.04513200" lon="6.99926100"><ele>700.12561</ele><time>2006-06-11T14:02:41Z</time></trkpt>
<trkpt lat="47.04483800" lon="6.99902900"><ele>695.858398</ele><time>2006-06-11T14:02:45Z</time></trkpt>
<trkpt lat="47.04432700" lon="6.99862700"><ele>690.981628</ele><time>2006-06-11T14:02:51Z</time></trkpt>
<trkpt lat="47.04403700" lon="6.99842000"><ele>690.0672</ele><time>2006-06-11T14:02:55Z</time></trkpt>
<trkpt lat="47.04370900" lon="6.99794100"><ele>687.933594</ele><time>2006-06-11T14:02:59Z</time></trkpt>
<trkpt lat="47.04304900" lon="6.99749000"><ele>680.923218</ele><time>2006-06-11T14:03:04Z</time></trkpt>
<trkpt lat="47.04245800" lon="6.99717100"><ele>676.046387</ele><time>2006-06-11T14:03:10Z</time></trkpt>
<trkpt lat="47.04188500" lon="6.99683600"><ele>668.121582</ele><time>2006-06-11T14:03:18Z</time></trkpt>
<trkpt lat="47.04179800" lon="6.99680200"><ele>666.902405</ele><time>2006-06-11T14:03:19Z</time></trkpt>
<trkpt lat="47.04151900" lon="6.99670000"><ele>662.940002</ele><time>2006-06-11T14:03:21Z</time></trkpt>
<trkpt lat="47.04142400" lon="6.99667300"><ele>662.025635</ele><time>2006-06-11T14:03:22Z</time></trkpt>
<trkpt lat="47.04111100" lon="6.99664500"><ele>655.929626</ele><time>2006-06-11T14:03:26Z</time></trkpt>
<trkpt lat="47.04088200" lon="6.99658000"><ele>652.881592</ele><time>2006-06-11T14:03:27Z</time></trkpt>
<trkpt lat="47.04030600" lon="6.99603800"><ele>645.871216</ele><time>2006-06-11T14:03:33Z</time></trkpt>
<trkpt lat="47.03982200" lon="6.99552400"><ele>643.127991</ele><time>2006-06-11T14:03:36Z</time></trkpt>
<trkpt lat="47.03903600" lon="6.99491000"><ele>634.898438</ele><time>2006-06-11T14:03:42Z</time></trkpt>
<trkpt lat="47.03876500" lon="6.99479200"><ele>631.850403</ele><time>2006-06-11T14:03:45Z</time></trkpt>
<trkpt lat="47.03849000" lon="6.99481600"><ele>629.107178</ele><time>2006-06-11T14:03:46Z</time></trkpt>
<trkpt lat="47.03796800" lon="6.99500800"><ele>623.925598</ele><time>2006-06-11T14:03:51Z</time></trkpt>
<trkpt lat="47.03724300" lon="6.99517800"><ele>619.963196</ele><time>2006-06-11T14:03:57Z</time></trkpt>
<trkpt lat="47.03680000" lon="6.99527400"><ele>616.915222</ele><time>2006-06-11T14:04:00Z</time></trkpt>
<trkpt lat="47.03658300" lon="6.99524300"><ele>615.086426</ele><time>2006-06-11T14:04:03Z</time></trkpt>
<trkpt lat="47.03596500" lon="6.99489000"><ele>612.95282</ele><time>2006-06-11T14:04:09Z</time></trkpt>
<trkpt lat="47.03532000" lon="6.99457500"><ele>608.990417</ele><time>2006-06-11T14:04:14Z</time></trkpt>
<trkpt lat="47.03423300" lon="6.99405600"><ele>602.894409</ele><time>2006-06-11T14:04:24Z</time></trkpt>
<trkpt lat="47.03315400" lon="6.99358800"><ele>601.065613</ele><time>2006-06-11T14:04:35Z</time></trkpt>
<trkpt lat="47.03218100" lon="6.99335900"><ele>588.873596</ele><time>2006-06-11T14:04:43Z</time></trkpt>
<trkpt lat="47.03108600" lon="6.99303600"><ele>583.082397</ele><time>2006-06-11T14:04:51Z</time></trkpt>
<trkpt lat="47.03046000" lon="6.99297500"><ele>576.072021</ele><time>2006-06-11T14:04:56Z</time></trkpt>
<trkpt lat="47.02942700" lon="6.99303000"><ele>568.147217</ele><time>2006-06-11T14:05:04Z</time></trkpt>
<trkpt lat="47.02841200" lon="6.99317100"><ele>561.13678</ele><time>2006-06-11T14:05:13Z</time></trkpt>
<trkpt lat="47.02796200" lon="6.99328200"><ele>555.040833</ele><time>2006-06-11T14:05:16Z</time></trkpt>
<trkpt lat="47.02788200" lon="6.99329700"><ele>554.126404</ele><time>2006-06-11T14:05:17Z</time></trkpt>
<trkpt lat="47.02780200" lon="6.99329400"><ele>552.907227</ele><time>2006-06-11T14:05:19Z</time></trkpt>
<trkpt lat="47.02748900" lon="6.99306600"><ele>552.907227</ele><time>2006-06-11T14:05:24Z</time></trkpt>
<trkpt lat="47.02717600" lon="6.99283800"><ele>551.07843</ele><time>2006-06-11T14:05:27Z</time></trkpt>
<trkpt lat="47.02692400" lon="6.99256000"><ele>551.07843</ele><time>2006-06-11T14:05:30Z</time></trkpt>
<trkpt lat="47.02687100" lon="6.99247700"><ele>551.07843</ele><time>2006-06-11T14:05:32Z</time></trkpt>
<trkpt lat="47.02657700" lon="6.99179100"><ele>549.859192</ele><time>2006-06-11T14:05:39Z</time></trkpt>
<trkpt lat="47.02642800" lon="6.99143200"><ele>551.07843</ele><time>2006-06-11T14:05:42Z</time></trkpt>
<trkpt lat="47.02625700" lon="6.99055300"><ele>551.07843</ele><time>2006-06-11T14:05:52Z</time></trkpt>
<trkpt lat="47.02624100" lon="6.99035800"><ele>551.07843</ele><time>2006-06-11T14:05:53Z</time></trkpt>
<trkpt lat="47.02636000" lon="6.99015500"><ele>551.07843</ele><time>2006-06-11T14:05:54Z</time></trkpt>
<trkpt lat="47.02647800" lon="6.98995100"><ele>549.859192</ele><time>2006-06-11T14:06:00Z</time></trkpt>
<trkpt lat="47.02675200" lon="6.98971900"><ele>551.07843</ele><time>2006-06-11T14:06:06Z</time></trkpt>
<trkpt lat="47.02697000" lon="6.98960600"><ele>551.992798</ele><time>2006-06-11T14:06:11Z</time></trkpt>
<trkpt lat="47.02719500" lon="6.98945800"><ele>554.126404</ele><time>2006-06-11T14:06:17Z</time></trkpt>
<trkpt lat="47.02744700" lon="6.98916700"><ele>554.126404</ele><time>2006-06-11T14:06:25Z</time></trkpt>
<trkpt lat="47.02750800" lon="6.98890400"><ele>555.040833</ele><time>2006-06-11T14:06:30Z</time></trkpt>
<trkpt lat="47.02747700" lon="6.98880400"><ele>555.040833</ele><time>2006-06-11T14:06:31Z</time></trkpt>
<trkpt lat="47.02730200" lon="6.98855000"><ele>555.9552</ele><time>2006-06-11T14:06:38Z</time></trkpt>
<trkpt lat="47.02726400" lon="6.98852000"><ele>555.9552</ele><time>2006-06-11T14:06:38Z</time></trkpt>
<trkpt lat="47.02693200" lon="6.98845300"><ele>555.9552</ele><time>2006-06-11T14:06:46Z</time></trkpt>
<trkpt lat="47.02654300" lon="6.98832900"><ele>558.088806</ele><time>2006-06-11T14:06:56Z</time></trkpt>
<trkpt lat="47.02616900" lon="6.98818400"><ele>561.13678</ele><time>2006-06-11T14:07:05Z</time></trkpt>
<trkpt lat="47.02575700" lon="6.98803000"><ele>562.965637</ele><time>2006-06-11T14:07:16Z</time></trkpt>
<trkpt lat="47.02537500" lon="6.98790900"><ele>562.051208</ele><time>2006-06-11T14:07:26Z</time></trkpt>
<trkpt lat="47.02532200" lon="6.98789300"><ele>562.051208</ele><time>2006-06-11T14:07:27Z</time></trkpt>
<trkpt lat="47.02486000" lon="6.98757600"><ele>559.003235</ele><time>2006-06-11T14:07:35Z</time></trkpt>
<trkpt lat="47.02436400" lon="6.98729500"><ele>555.9552</ele><time>2006-06-11T14:07:41Z</time></trkpt>
<trkpt lat="47.02385300" lon="6.98702000"><ele>555.9552</ele><time>2006-06-11T14:07:48Z</time></trkpt>
<trkpt lat="47.02352100" lon="6.98667000"><ele>555.9552</ele><time>2006-06-11T14:07:54Z</time></trkpt>
<trkpt lat="47.02314800" lon="6.98611600"><ele>559.003235</ele><time>2006-06-11T14:08:05Z</time></trkpt>
<trkpt lat="47.02273900" lon="6.98551700"><ele>561.13678</ele><time>2006-06-11T14:08:17Z</time></trkpt>
<trkpt lat="47.02253700" lon="6.98510000"><ele>563.880005</ele><time>2006-06-11T14:08:25Z</time></trkpt>
<trkpt lat="47.02238100" lon="6.98461500"><ele>565.099182</ele><time>2006-06-11T14:08:32Z</time></trkpt>
<trkpt lat="47.02218600" lon="6.98403600"><ele>565.099182</ele><time>2006-06-11T14:08:43Z</time></trkpt>
<trkpt lat="47.02194200" lon="6.98358800"><ele>562.051208</ele><time>2006-06-11T14:08:49Z</time></trkpt>
<trkpt lat="47.02158400" lon="6.98310000"><ele>559.003235</ele><time>2006-06-11T14:08:55Z</time></trkpt>
<trkpt lat="47.02101500" lon="6.98228800"><ele>555.9552</ele><time>2006-06-11T14:09:04Z</time></trkpt>
<trkpt lat="47.02069900" lon="6.98154500"><ele>551.07843</ele><time>2006-06-11T14:09:10Z</time></trkpt>
<trkpt lat="47.02041200" lon="6.98086300"><ele>548.944824</ele><time>2006-06-11T14:09:15Z</time></trkpt>
<trkpt lat="47.02010000" lon="6.98013400"><ele>548.030396</ele><time>2006-06-11T14:09:21Z</time></trkpt>
<trkpt lat="47.01974500" lon="6.97928300"><ele>548.944824</ele><time>2006-06-11T14:09:29Z</time></trkpt>
<trkpt lat="47.01954300" lon="6.97870000"><ele>549.859192</ele><time>2006-06-11T14:09:35Z</time></trkpt>
<trkpt lat="47.01940500" lon="6.97826100"><ele>548.944824</ele><time>2006-06-11T14:09:40Z</time></trkpt>
<trkpt lat="47.01937500" lon="6.97816800"><ele>548.030396</ele><time>2006-06-11T14:09:41Z</time></trkpt>
<trkpt lat="47.01926400" lon="6.97799100"><ele>545.89679</ele><time>2006-06-11T14:09:42Z</time></trkpt>
<trkpt lat="47.01874500" lon="6.97761200"><ele>541.02002</ele><time>2006-06-11T14:09:48Z</time></trkpt>
<trkpt lat="47.01821100" lon="6.97724700"><ele>538.886414</ele><time>2006-06-11T14:09:55Z</time></trkpt>
<trkpt lat="47.01815000" lon="6.97720100"><ele>537.971985</ele><time>2006-06-11T14:09:55Z</time></trkpt>
<trkpt lat="47.01802800" lon="6.97713000"><ele>537.971985</ele><time>2006-06-11T14:09:57Z</time></trkpt>
<trkpt lat="47.01765100" lon="6.97684200"><ele>534.924011</ele><time>2006-06-11T14:10:03Z</time></trkpt>
<trkpt lat="47.01747100" lon="6.97663800"><ele>534.009583</ele><time>2006-06-11T14:10:07Z</time></trkpt>
<trkpt lat="47.01737600" lon="6.97648600"><ele>534.009583</ele><time>2006-06-11T14:10:08Z</time></trkpt>
<trkpt lat="47.01743300" lon="6.97609900"><ele>534.009583</ele><time>2006-06-11T14:10:13Z</time></trkpt>
<trkpt lat="47.01745200" lon="6.97589800"><ele>534.009583</ele><time>2006-06-11T14:10:14Z</time></trkpt>
<trkpt lat="47.01723500" lon="6.97519100"><ele>533.095215</ele><time>2006-06-11T14:10:21Z</time></trkpt>
<trkpt lat="47.01671200" lon="6.97438400"><ele>530.04718</ele><time>2006-06-11T14:10:31Z</time></trkpt>
<trkpt lat="47.01621200" lon="6.97349900"><ele>527.913635</ele><time>2006-06-11T14:10:40Z</time></trkpt>
<trkpt lat="47.01584200" lon="6.97278100"><ele>526.999207</ele><time>2006-06-11T14:10:50Z</time></trkpt>
<trkpt lat="47.01574300" lon="6.97264400"><ele>526.999207</ele><time>2006-06-11T14:10:52Z</time></trkpt>
<trkpt lat="47.01568600" lon="6.97260000"><ele>526.084778</ele><time>2006-06-11T14:10:52Z</time></trkpt>
<trkpt lat="47.01536200" lon="6.97263100"><ele>520.903198</ele><time>2006-06-11T14:10:57Z</time></trkpt>
<trkpt lat="47.01492700" lon="6.97269200"><ele>516.026428</ele><time>2006-06-11T14:11:00Z</time></trkpt>
<trkpt lat="47.01469000" lon="6.97267200"><ele>513.892822</ele><time>2006-06-11T14:11:03Z</time></trkpt>
<trkpt lat="47.01429700" lon="6.97203900"><ele>509.93042</ele><time>2006-06-11T14:11:07Z</time></trkpt>
<trkpt lat="47.01422100" lon="6.97191600"><ele>508.101593</ele><time>2006-06-11T14:11:09Z</time></trkpt>
<trkpt lat="47.01398100" lon="6.97168900"><ele>505.968018</ele><time>2006-06-11T14:11:11Z</time></trkpt>
<trkpt lat="47.01376000" lon="6.97168200"><ele>505.968018</ele><time>2006-06-11T14:11:16Z</time></trkpt>
<trkpt lat="47.01353800" lon="6.97167500"><ele>504.139221</ele><time>2006-06-11T14:11:17Z</time></trkpt>
<trkpt lat="47.01344700" lon="6.97156400"><ele>502.920013</ele><time>2006-06-11T14:11:18Z</time></trkpt>
<trkpt lat="47.01340100" lon="6.97150800"><ele>502.920013</ele><time>2006-06-11T14:11:19Z</time></trkpt>
<trkpt lat="47.01304400" lon="6.97120800"><ele>502.920013</ele><time>2006-06-11T14:11:28Z</time></trkpt>
<trkpt lat="47.01268800" lon="6.97090800"><ele>505.053619</ele><time>2006-06-11T14:11:34Z</time></trkpt>
<trkpt lat="47.01263400" lon="6.97088500"><ele>505.053619</ele><time>2006-06-11T14:11:35Z</time></trkpt>
<trkpt lat="47.01253100" lon="6.97086600"><ele>505.053619</ele><time>2006-06-11T14:11:36Z</time></trkpt>
<trkpt lat="47.01213800" lon="6.97113800"><ele>505.053619</ele><time>2006-06-11T14:11:44Z</time></trkpt>
<trkpt lat="47.01202800" lon="6.97115400"><ele>505.053619</ele><time>2006-06-11T14:11:47Z</time></trkpt>
<trkpt lat="47.01195500" lon="6.97106100"><ele>505.053619</ele><time>2006-06-11T14:11:49Z</time></trkpt>
<trkpt lat="47.01179100" lon="6.97054100"><ele>506.882416</ele><time>2006-06-11T14:11:56Z</time></trkpt>
<trkpt lat="47.01168100" lon="6.97016300"><ele>508.101593</ele><time>2006-06-11T14:12:02Z</time></trkpt>
<trkpt lat="47.01154300" lon="6.96968000"><ele>508.101593</ele><time>2006-06-11T14:12:10Z</time></trkpt>
<trkpt lat="47.01136400" lon="6.96906200"><ele>508.101593</ele><time>2006-06-11T14:12:21Z</time></trkpt>
<trkpt lat="47.01109300" lon="6.96819800"><ele>509.015991</ele><time>2006-06-11T14:12:34Z</time></trkpt>
<trkpt lat="47.01106300" lon="6.96811400"><ele>509.015991</ele><time>2006-06-11T14:12:42Z</time></trkpt>
<trkpt lat="47.01103200" lon="6.96803000"><ele>509.015991</ele><time>2006-06-11T14:12:44Z</time></trkpt>
<trkpt lat="47.01100200" lon="6.96794600"><ele>509.015991</ele><time>2006-06-11T14:13:22Z</time></trkpt>
<trkpt lat="47.01097100" lon="6.96786200"><ele>509.015991</ele><time>2006-06-11T14:13:23Z</time></trkpt>
<trkpt lat="47.01097100" lon="6.96786200"><ele>509.93042</ele><time>2006-06-11T14:13:24Z</time></trkpt>
<trkpt lat="47.01096700" lon="6.96785000"><ele>509.93042</ele><time>2006-06-11T14:13:24Z</time></trkpt>
<trkpt lat="47.01096300" lon="6.96783700"><ele>509.93042</ele><time>2006-06-11T14:13:35Z</time></trkpt>
<trkpt lat="47.01096000" lon="6.96782400"><ele>511.149597</ele><time>2006-06-11T14:13:36Z</time></trkpt>
<trkpt lat="47.01092000" lon="6.96767800"><ele>509.93042</ele><time>2006-06-11T14:13:37Z</time></trkpt>
<trkpt lat="47.01088000" lon="6.96753100"><ele>509.93042</ele><time>2006-06-11T14:13:37Z</time></trkpt>
<trkpt lat="47.01083900" lon="6.96738500"><ele>509.93042</ele><time>2006-06-11T14:13:38Z</time></trkpt>
<trkpt lat="47.01079900" lon="6.96723800"><ele>512.064026</ele><time>2006-06-11T14:13:44Z</time></trkpt>
<trkpt lat="47.01073100" lon="6.96691100"><ele>512.064026</ele><time>2006-06-11T14:13:49Z</time></trkpt>
<trkpt lat="47.01055500" lon="6.96616400"><ele>509.93042</ele><time>2006-06-11T14:13:56Z</time></trkpt>
<trkpt lat="47.01026900" lon="6.96518100"><ele>509.93042</ele><time>2006-06-11T14:14:07Z</time></trkpt>
<trkpt lat="47.00986900" lon="6.96427100"><ele>509.015991</ele><time>2006-06-11T14:14:16Z</time></trkpt>
<trkpt lat="47.00959800" lon="6.96375100"><ele>508.101593</ele><time>2006-06-11T14:14:24Z</time></trkpt>
<trkpt lat="47.00956700" lon="6.96370900"><ele>508.101593</ele><time>2006-06-11T14:14:26Z</time></trkpt>
<trkpt lat="47.00939200" lon="6.96327100"><ele>508.101593</ele><time>2006-06-11T14:14:32Z</time></trkpt>
<trkpt lat="47.00904500" lon="6.96253300"><ele>509.93042</ele><time>2006-06-11T14:14:41Z</time></trkpt>
<trkpt lat="47.00882300" lon="6.96207200"><ele>513.892822</ele><time>2006-06-11T14:14:47Z</time></trkpt>
<trkpt lat="47.00846900" lon="6.96131500"><ele>516.026428</ele><time>2006-06-11T14:14:57Z</time></trkpt>
<trkpt lat="47.00809500" lon="6.96053700"><ele>516.940796</ele><time>2006-06-11T14:15:07Z</time></trkpt>
<trkpt lat="47.00777100" lon="6.95992200"><ele>512.978394</ele><time>2006-06-11T14:15:16Z</time></trkpt>
<trkpt lat="47.00735500" lon="6.95930200"><ele>509.015991</ele><time>2006-06-11T14:15:23Z</time></trkpt>
<trkpt lat="47.00669100" lon="6.95842400"><ele>502.005615</ele><time>2006-06-11T14:15:31Z</time></trkpt>
<trkpt lat="47.00611900" lon="6.95767900"><ele>495.909607</ele><time>2006-06-11T14:15:38Z</time></trkpt>
<trkpt lat="47.00543200" lon="6.95677100"><ele>491.947205</ele><time>2006-06-11T14:15:46Z</time></trkpt>
<trkpt lat="47.00481000" lon="6.95597100"><ele>490.118408</ele><time>2006-06-11T14:15:55Z</time></trkpt>
<trkpt lat="47.00428400" lon="6.95528500"><ele>488.8992</ele><time>2006-06-11T14:16:03Z</time></trkpt>
<trkpt lat="47.00370000" lon="6.95436100"><ele>488.8992</ele><time>2006-06-11T14:16:12Z</time></trkpt>
<trkpt lat="47.00337200" lon="6.95352200"><ele>488.8992</ele><time>2006-06-11T14:16:21Z</time></trkpt>
<trkpt lat="47.00305900" lon="6.95244500"><ele>488.8992</ele><time>2006-06-11T14:16:30Z</time></trkpt>
<trkpt lat="47.00280000" lon="6.95155600"><ele>488.8992</ele><time>2006-06-11T14:16:40Z</time></trkpt>
<trkpt lat="47.00270100" lon="6.95121100"><ele>488.8992</ele><time>2006-06-11T14:16:43Z</time></trkpt>
<trkpt lat="47.00267000" lon="6.95113900"><ele>488.8992</ele><time>2006-06-11T14:16:45Z</time></trkpt>
<trkpt lat="47.00262500" lon="6.95099400"><ele>488.8992</ele><time>2006-06-11T14:16:47Z</time></trkpt>
<trkpt lat="47.00259400" lon="6.95087700"><ele>488.8992</ele><time>2006-06-11T14:16:52Z</time></trkpt>
<trkpt lat="47.00256300" lon="6.95076100"><ele>488.8992</ele><time>2006-06-11T14:16:58Z</time></trkpt>
<trkpt lat="47.00253300" lon="6.95064500"><ele>490.118408</ele><time>2006-06-11T14:17:02Z</time></trkpt>
<trkpt lat="47.00243800" lon="6.95033600"><ele>490.118408</ele><time>2006-06-11T14:17:07Z</time></trkpt>
<trkpt lat="47.00226600" lon="6.94980200"><ele>490.118408</ele><time>2006-06-11T14:17:14Z</time></trkpt>
<trkpt lat="47.00203300" lon="6.94908400"><ele>488.8992</ele><time>2006-06-11T14:17:23Z</time></trkpt>
<trkpt lat="47.00178100" lon="6.94823600"><ele>484.0224</ele><time>2006-06-11T14:17:30Z</time></trkpt>
<trkpt lat="47.00143800" lon="6.94725800"><ele>483.108002</ele><time>2006-06-11T14:17:38Z</time></trkpt>
<trkpt lat="47.00106800" lon="6.94623700"><ele>484.0224</ele><time>2006-06-11T14:17:47Z</time></trkpt>
<trkpt lat="47.00069800" lon="6.94515300"><ele>484.0224</ele><time>2006-06-11T14:17:58Z</time></trkpt>
<trkpt lat="47.00039700" lon="6.94435500"><ele>480.974396</ele><time>2006-06-11T14:18:06Z</time></trkpt>
<trkpt lat="47.00002300" lon="6.94328200"><ele>477.011993</ele><time>2006-06-11T14:18:16Z</time></trkpt>
<trkpt lat="46.99979400" lon="6.94261400"><ele>480.974396</ele><time>2006-06-11T14:18:23Z</time></trkpt>
<trkpt lat="46.99961500" lon="6.94209900"><ele>484.0224</ele><time>2006-06-11T14:18:29Z</time></trkpt>
<trkpt lat="46.99942000" lon="6.94158800"><ele>484.936798</ele><time>2006-06-11T14:18:35Z</time></trkpt>
<trkpt lat="46.99913400" lon="6.94070300"><ele>484.936798</ele><time>2006-06-11T14:18:44Z</time></trkpt>
<trkpt lat="46.99887800" lon="6.93981100"><ele>485.851196</ele><time>2006-06-11T14:18:55Z</time></trkpt>
<trkpt lat="46.99866900" lon="6.93908300"><ele>488.8992</ele><time>2006-06-11T14:19:03Z</time></trkpt>
<trkpt lat="46.99840900" lon="6.93825700"><ele>490.118408</ele><time>2006-06-11T14:19:14Z</time></trkpt>
<trkpt lat="46.99814200" lon="6.93753800"><ele>490.118408</ele><time>2006-06-11T14:19:21Z</time></trkpt>
<trkpt lat="46.99784500" lon="6.93689600"><ele>488.8992</ele><time>2006-06-11T14:19:28Z</time></trkpt>
<trkpt lat="46.99745200" lon="6.93589600"><ele>485.851196</ele><time>2006-06-11T14:19:38Z</time></trkpt>
<trkpt lat="46.99695200" lon="6.93449800"><ele>480.059998</ele><time>2006-06-11T14:19:48Z</time></trkpt>
<trkpt lat="46.99650600" lon="6.93349700"><ele>477.926392</ele><time>2006-06-11T14:19:57Z</time></trkpt>
<trkpt lat="46.99644500" lon="6.93336800"><ele>477.926392</ele><time>2006-06-11T14:19:58Z</time></trkpt>
<trkpt lat="46.99638700" lon="6.93323800"><ele>477.926392</ele><time>2006-06-11T14:19:58Z</time></trkpt>
<trkpt lat="46.99602500" lon="6.93289700"><ele>477.926392</ele><time>2006-06-11T14:20:03Z</time></trkpt>
<trkpt lat="46.99510600" lon="6.93262400"><ele>472.135193</ele><time>2006-06-11T14:20:11Z</time></trkpt>
<trkpt lat="46.99463700" lon="6.93251300"><ele>470.001617</ele><time>2006-06-11T14:20:15Z</time></trkpt>
<trkpt lat="46.99399200" lon="6.93192600"><ele>463.905609</ele><time>2006-06-11T14:20:21Z</time></trkpt>
<trkpt lat="46.99333600" lon="6.93102600"><ele>455.980804</ele><time>2006-06-11T14:20:28Z</time></trkpt>
<trkpt lat="46.99308000" lon="6.93036300"><ele>454.152008</ele><time>2006-06-11T14:20:32Z</time></trkpt>
<trkpt lat="46.99305000" lon="6.93026400"><ele>454.152008</ele><time>2006-06-11T14:20:34Z</time></trkpt>
<trkpt lat="46.99302600" lon="6.93018400"><ele>454.152008</ele><time>2006-06-11T14:20:37Z</time></trkpt>
<trkpt lat="46.99300200" lon="6.93010400"><ele>454.152008</ele><time>2006-06-11T14:20:38Z</time></trkpt>
<trkpt lat="46.99297800" lon="6.93002300"><ele>454.152008</ele><time>2006-06-11T14:21:03Z</time></trkpt>
<trkpt lat="46.99295400" lon="6.92994300"><ele>455.980804</ele><time>2006-06-11T14:21:04Z</time></trkpt>
<trkpt lat="46.99293500" lon="6.92988000"><ele>459.028809</ele><time>2006-06-11T14:21:06Z</time></trkpt>
<trkpt lat="46.99293100" lon="6.92954000"><ele>459.028809</ele><time>2006-06-11T14:21:10Z</time></trkpt>
<trkpt lat="46.99310800" lon="6.92879300"><ele>459.028809</ele><time>2006-06-11T14:21:19Z</time></trkpt>
<trkpt lat="46.99328500" lon="6.92804700"><ele>459.028809</ele><time>2006-06-11T14:21:27Z</time></trkpt>
<trkpt lat="46.99346200" lon="6.92730000"><ele>455.066406</ele><time>2006-06-11T14:21:29Z</time></trkpt>
<trkpt lat="46.99345000" lon="6.92715700"><ele>455.066406</ele><time>2006-06-11T14:21:32Z</time></trkpt>
<trkpt lat="46.99339300" lon="6.92715400"><ele>455.066406</ele><time>2006-06-11T14:21:33Z</time></trkpt>
<trkpt lat="46.99339300" lon="6.92715400"><ele>455.066406</ele><time>2006-06-11T14:21:33Z</time></trkpt>
</trkseg></trk></gpx>